<?xml version="1.0" encoding="UTF-8" standalone="no" ?>
<gpx xmlns="http://www.topografix.com/GPX/1/1" xmlns:xsi="http://www.w3.org/2001/XMLSchema-instance" xsi:schemaLocation="http://www.topografix.com/GPX/1/1 http://www.topografix.com/GPX/1/1/gpx.xsd" version="1.1" creator="VisuGPX - https://www.visugpx.com">
  <metadata>
    <name>Seillons vers Esparon - Artigues</name>
    <desc><![CDATA[Beau parcours, sans difficultés techniques. ]]></desc>
  </metadata>
  <trk>
    <name><![CDATA[20181118180319-EHDMH]]></name>
    <trkseg>
      <trkpt lat="43.50361" lon="5.88691">
        <ele>256.17</ele>
        <time>2018-11-18T07:01:31Z</time>
      </trkpt>
      <trkpt lat="43.50361" lon="5.88665">
        <ele>251.35</ele>
        <time>2018-11-18T07:12:11Z</time>
      </trkpt>
      <trkpt lat="43.50377" lon="5.8865">
        <ele>252.17</ele>
        <time>2018-11-18T07:12:21Z</time>
      </trkpt>
      <trkpt lat="43.50393" lon="5.88635">
        <ele>252.95</ele>
        <time>2018-11-18T07:12:31Z</time>
      </trkpt>
      <trkpt lat="43.5041" lon="5.88623">
        <ele>252.77</ele>
        <time>2018-11-18T07:12:39Z</time>
      </trkpt>
      <trkpt lat="43.50429" lon="5.88613">
        <ele>252.85</ele>
        <time>2018-11-18T07:12:47Z</time>
      </trkpt>
      <trkpt lat="43.50447" lon="5.88602">
        <ele>253.16</ele>
        <time>2018-11-18T07:12:54Z</time>
      </trkpt>
      <trkpt lat="43.50463" lon="5.88591">
        <ele>252.87</ele>
        <time>2018-11-18T07:13:01Z</time>
      </trkpt>
      <trkpt lat="43.5048" lon="5.88577">
        <ele>253.44</ele>
        <time>2018-11-18T07:13:08Z</time>
      </trkpt>
      <trkpt lat="43.50498" lon="5.88564">
        <ele>254.71</ele>
        <time>2018-11-18T07:13:15Z</time>
      </trkpt>
      <trkpt lat="43.50514" lon="5.88549">
        <ele>254.35</ele>
        <time>2018-11-18T07:13:22Z</time>
      </trkpt>
      <trkpt lat="43.50528" lon="5.88533">
        <ele>254.53</ele>
        <time>2018-11-18T07:13:29Z</time>
      </trkpt>
      <trkpt lat="43.5054" lon="5.88513">
        <ele>254.94</ele>
        <time>2018-11-18T07:13:36Z</time>
      </trkpt>
      <trkpt lat="43.50554" lon="5.88496">
        <ele>255.14</ele>
        <time>2018-11-18T07:13:43Z</time>
      </trkpt>
      <trkpt lat="43.50568" lon="5.88479">
        <ele>255.76</ele>
        <time>2018-11-18T07:13:50Z</time>
      </trkpt>
      <trkpt lat="43.50585" lon="5.88463">
        <ele>256.31</ele>
        <time>2018-11-18T07:13:57Z</time>
      </trkpt>
      <trkpt lat="43.50604" lon="5.88454">
        <ele>256.92</ele>
        <time>2018-11-18T07:14:05Z</time>
      </trkpt>
      <trkpt lat="43.50623" lon="5.88451">
        <ele>256.84</ele>
        <time>2018-11-18T07:14:12Z</time>
      </trkpt>
      <trkpt lat="43.50642" lon="5.88442">
        <ele>257.94</ele>
        <time>2018-11-18T07:14:20Z</time>
      </trkpt>
      <trkpt lat="43.50659" lon="5.88437">
        <ele>258.57</ele>
        <time>2018-11-18T07:14:27Z</time>
      </trkpt>
      <trkpt lat="43.50677" lon="5.88425">
        <ele>258.44</ele>
        <time>2018-11-18T07:14:35Z</time>
      </trkpt>
      <trkpt lat="43.50691" lon="5.88405">
        <ele>259.94</ele>
        <time>2018-11-18T07:14:44Z</time>
      </trkpt>
      <trkpt lat="43.50704" lon="5.88384">
        <ele>260.82</ele>
        <time>2018-11-18T07:14:52Z</time>
      </trkpt>
      <trkpt lat="43.50717" lon="5.88366">
        <ele>261.7</ele>
        <time>2018-11-18T07:14:59Z</time>
      </trkpt>
      <trkpt lat="43.50728" lon="5.88345">
        <ele>263.01</ele>
        <time>2018-11-18T07:15:06Z</time>
      </trkpt>
      <trkpt lat="43.50738" lon="5.8832">
        <ele>264.74</ele>
        <time>2018-11-18T07:15:14Z</time>
      </trkpt>
      <trkpt lat="43.50749" lon="5.88301">
        <ele>265.24</ele>
        <time>2018-11-18T07:15:21Z</time>
      </trkpt>
      <trkpt lat="43.50766" lon="5.8829">
        <ele>265.92</ele>
        <time>2018-11-18T07:15:27Z</time>
      </trkpt>
      <trkpt lat="43.50785" lon="5.88288">
        <ele>267.1</ele>
        <time>2018-11-18T07:15:34Z</time>
      </trkpt>
      <trkpt lat="43.50804" lon="5.88296">
        <ele>270.26</ele>
        <time>2018-11-18T07:15:42Z</time>
      </trkpt>
      <trkpt lat="43.50817" lon="5.88317">
        <ele>273.66</ele>
        <time>2018-11-18T07:15:50Z</time>
      </trkpt>
      <trkpt lat="43.50817" lon="5.88344">
        <ele>278.92</ele>
        <time>2018-11-18T07:15:59Z</time>
      </trkpt>
      <trkpt lat="43.50817" lon="5.8837">
        <ele>280.93</ele>
        <time>2018-11-18T07:16:06Z</time>
      </trkpt>
      <trkpt lat="43.50825" lon="5.88394">
        <ele>282.04</ele>
        <time>2018-11-18T07:16:14Z</time>
      </trkpt>
      <trkpt lat="43.50841" lon="5.88409">
        <ele>282.87</ele>
        <time>2018-11-18T07:16:22Z</time>
      </trkpt>
      <trkpt lat="43.50856" lon="5.88422">
        <ele>281.2</ele>
        <time>2018-11-18T07:16:29Z</time>
      </trkpt>
      <trkpt lat="43.50874" lon="5.88435">
        <ele>282.52</ele>
        <time>2018-11-18T07:16:39Z</time>
      </trkpt>
      <trkpt lat="43.50892" lon="5.88448">
        <ele>283.44</ele>
        <time>2018-11-18T07:16:47Z</time>
      </trkpt>
      <trkpt lat="43.50905" lon="5.88464">
        <ele>284.22</ele>
        <time>2018-11-18T07:16:55Z</time>
      </trkpt>
      <trkpt lat="43.5092" lon="5.88481">
        <ele>285.72</ele>
        <time>2018-11-18T07:17:04Z</time>
      </trkpt>
      <trkpt lat="43.50938" lon="5.8849">
        <ele>286.69</ele>
        <time>2018-11-18T07:17:12Z</time>
      </trkpt>
      <trkpt lat="43.50956" lon="5.88493">
        <ele>286.2</ele>
        <time>2018-11-18T07:17:19Z</time>
      </trkpt>
      <trkpt lat="43.50976" lon="5.88494">
        <ele>284.56</ele>
        <time>2018-11-18T07:17:27Z</time>
      </trkpt>
      <trkpt lat="43.50995" lon="5.88495">
        <ele>283.29</ele>
        <time>2018-11-18T07:17:35Z</time>
      </trkpt>
      <trkpt lat="43.51013" lon="5.88497">
        <ele>283.94</ele>
        <time>2018-11-18T07:17:43Z</time>
      </trkpt>
      <trkpt lat="43.51031" lon="5.88504">
        <ele>285.5</ele>
        <time>2018-11-18T07:17:52Z</time>
      </trkpt>
      <trkpt lat="43.51048" lon="5.88515">
        <ele>289.98</ele>
        <time>2018-11-18T07:18:02Z</time>
      </trkpt>
      <trkpt lat="43.51065" lon="5.88525">
        <ele>294.4</ele>
        <time>2018-11-18T07:18:11Z</time>
      </trkpt>
      <trkpt lat="43.51079" lon="5.88543">
        <ele>299.62</ele>
        <time>2018-11-18T07:18:20Z</time>
      </trkpt>
      <trkpt lat="43.51089" lon="5.88565">
        <ele>301.99</ele>
        <time>2018-11-18T07:18:27Z</time>
      </trkpt>
      <trkpt lat="43.51096" lon="5.88589">
        <ele>304.57</ele>
        <time>2018-11-18T07:18:35Z</time>
      </trkpt>
      <trkpt lat="43.51097" lon="5.88615">
        <ele>307.78</ele>
        <time>2018-11-18T07:18:44Z</time>
      </trkpt>
      <trkpt lat="43.51098" lon="5.88641">
        <ele>311.03</ele>
        <time>2018-11-18T07:18:53Z</time>
      </trkpt>
      <trkpt lat="43.51106" lon="5.88664">
        <ele>311.64</ele>
        <time>2018-11-18T07:19:03Z</time>
      </trkpt>
      <trkpt lat="43.51126" lon="5.88666">
        <ele>310.94</ele>
        <time>2018-11-18T07:19:14Z</time>
      </trkpt>
      <trkpt lat="43.51142" lon="5.8868">
        <ele>310.04</ele>
        <time>2018-11-18T07:19:24Z</time>
      </trkpt>
      <trkpt lat="43.51155" lon="5.88698">
        <ele>311.26</ele>
        <time>2018-11-18T07:19:34Z</time>
      </trkpt>
      <trkpt lat="43.51173" lon="5.88697">
        <ele>310.19</ele>
        <time>2018-11-18T07:19:43Z</time>
      </trkpt>
      <trkpt lat="43.51192" lon="5.88703">
        <ele>305.51</ele>
        <time>2018-11-18T07:19:52Z</time>
      </trkpt>
      <trkpt lat="43.51211" lon="5.8871">
        <ele>305.03</ele>
        <time>2018-11-18T07:20:02Z</time>
      </trkpt>
      <trkpt lat="43.51231" lon="5.88713">
        <ele>305.71</ele>
        <time>2018-11-18T07:20:13Z</time>
      </trkpt>
      <trkpt lat="43.51247" lon="5.88726">
        <ele>307.92</ele>
        <time>2018-11-18T07:20:24Z</time>
      </trkpt>
      <trkpt lat="43.51264" lon="5.88734">
        <ele>309.4</ele>
        <time>2018-11-18T07:20:36Z</time>
      </trkpt>
      <trkpt lat="43.51277" lon="5.88753">
        <ele>312.67</ele>
        <time>2018-11-18T07:20:47Z</time>
      </trkpt>
      <trkpt lat="43.5128" lon="5.88779">
        <ele>315.53</ele>
        <time>2018-11-18T07:20:58Z</time>
      </trkpt>
      <trkpt lat="43.51288" lon="5.88803">
        <ele>319.15</ele>
        <time>2018-11-18T07:21:10Z</time>
      </trkpt>
      <trkpt lat="43.51306" lon="5.88813">
        <ele>318.04</ele>
        <time>2018-11-18T07:21:20Z</time>
      </trkpt>
      <trkpt lat="43.51318" lon="5.88831">
        <ele>320.4</ele>
        <time>2018-11-18T07:21:33Z</time>
      </trkpt>
      <trkpt lat="43.51323" lon="5.88856">
        <ele>323.84</ele>
        <time>2018-11-18T07:21:47Z</time>
      </trkpt>
      <trkpt lat="43.51321" lon="5.88881">
        <ele>327.01</ele>
        <time>2018-11-18T07:22:00Z</time>
      </trkpt>
      <trkpt lat="43.51319" lon="5.88906">
        <ele>329.39</ele>
        <time>2018-11-18T07:22:13Z</time>
      </trkpt>
      <trkpt lat="43.51315" lon="5.88931">
        <ele>332</ele>
        <time>2018-11-18T07:22:24Z</time>
      </trkpt>
      <trkpt lat="43.51307" lon="5.88954">
        <ele>335.67</ele>
        <time>2018-11-18T07:22:38Z</time>
      </trkpt>
      <trkpt lat="43.51296" lon="5.88976">
        <ele>339.79</ele>
        <time>2018-11-18T07:22:51Z</time>
      </trkpt>
      <trkpt lat="43.51286" lon="5.88998">
        <ele>341.94</ele>
        <time>2018-11-18T07:23:03Z</time>
      </trkpt>
      <trkpt lat="43.51277" lon="5.89022">
        <ele>343.84</ele>
        <time>2018-11-18T07:23:17Z</time>
      </trkpt>
      <trkpt lat="43.51264" lon="5.8904">
        <ele>344.17</ele>
        <time>2018-11-18T07:23:30Z</time>
      </trkpt>
      <trkpt lat="43.51249" lon="5.89055">
        <ele>344.54</ele>
        <time>2018-11-18T07:23:43Z</time>
      </trkpt>
      <trkpt lat="43.51235" lon="5.89071">
        <ele>346.04</ele>
        <time>2018-11-18T07:23:55Z</time>
      </trkpt>
      <trkpt lat="43.51221" lon="5.89089">
        <ele>347.74</ele>
        <time>2018-11-18T07:24:09Z</time>
      </trkpt>
      <trkpt lat="43.51205" lon="5.89105">
        <ele>348.79</ele>
        <time>2018-11-18T07:24:23Z</time>
      </trkpt>
      <trkpt lat="43.5119" lon="5.89122">
        <ele>350.12</ele>
        <time>2018-11-18T07:24:35Z</time>
      </trkpt>
      <trkpt lat="43.51176" lon="5.89139">
        <ele>351.14</ele>
        <time>2018-11-18T07:24:48Z</time>
      </trkpt>
      <trkpt lat="43.5116" lon="5.89152">
        <ele>352.06</ele>
        <time>2018-11-18T07:25:00Z</time>
      </trkpt>
      <trkpt lat="43.51144" lon="5.89164">
        <ele>352.74</ele>
        <time>2018-11-18T07:25:12Z</time>
      </trkpt>
      <trkpt lat="43.51127" lon="5.89178">
        <ele>353.74</ele>
        <time>2018-11-18T07:25:24Z</time>
      </trkpt>
      <trkpt lat="43.51112" lon="5.89196">
        <ele>355.14</ele>
        <time>2018-11-18T07:25:36Z</time>
      </trkpt>
      <trkpt lat="43.51099" lon="5.89215">
        <ele>355.37</ele>
        <time>2018-11-18T07:25:47Z</time>
      </trkpt>
      <trkpt lat="43.51091" lon="5.89239">
        <ele>355.37</ele>
        <time>2018-11-18T07:25:57Z</time>
      </trkpt>
      <trkpt lat="43.51081" lon="5.89259">
        <ele>355.59</ele>
        <time>2018-11-18T07:26:08Z</time>
      </trkpt>
      <trkpt lat="43.51092" lon="5.89279">
        <ele>355.83</ele>
        <time>2018-11-18T07:27:50Z</time>
      </trkpt>
      <trkpt lat="43.5111" lon="5.89289">
        <ele>354.88</ele>
        <time>2018-11-18T07:31:23Z</time>
      </trkpt>
      <trkpt lat="43.51128" lon="5.89296">
        <ele>355.3</ele>
        <time>2018-11-18T07:31:32Z</time>
      </trkpt>
      <trkpt lat="43.51147" lon="5.89303">
        <ele>354.16</ele>
        <time>2018-11-18T07:31:40Z</time>
      </trkpt>
      <trkpt lat="43.51167" lon="5.89305">
        <ele>355.62</ele>
        <time>2018-11-18T07:31:48Z</time>
      </trkpt>
      <trkpt lat="43.51186" lon="5.89308">
        <ele>357.88</ele>
        <time>2018-11-18T07:31:56Z</time>
      </trkpt>
      <trkpt lat="43.51204" lon="5.89319">
        <ele>358.57</ele>
        <time>2018-11-18T07:32:05Z</time>
      </trkpt>
      <trkpt lat="43.51219" lon="5.89336">
        <ele>358.19</ele>
        <time>2018-11-18T07:32:15Z</time>
      </trkpt>
      <trkpt lat="43.51233" lon="5.89352">
        <ele>360.82</ele>
        <time>2018-11-18T07:32:25Z</time>
      </trkpt>
      <trkpt lat="43.51249" lon="5.89366">
        <ele>362.49</ele>
        <time>2018-11-18T07:32:34Z</time>
      </trkpt>
      <trkpt lat="43.51261" lon="5.89386">
        <ele>364.99</ele>
        <time>2018-11-18T07:32:43Z</time>
      </trkpt>
      <trkpt lat="43.51272" lon="5.89407">
        <ele>367.47</ele>
        <time>2018-11-18T07:32:53Z</time>
      </trkpt>
      <trkpt lat="43.51288" lon="5.89422">
        <ele>370.54</ele>
        <time>2018-11-18T07:33:03Z</time>
      </trkpt>
      <trkpt lat="43.51306" lon="5.89429">
        <ele>371.19</ele>
        <time>2018-11-18T07:33:12Z</time>
      </trkpt>
      <trkpt lat="43.51324" lon="5.89435">
        <ele>370.07</ele>
        <time>2018-11-18T07:33:18Z</time>
      </trkpt>
      <trkpt lat="43.51344" lon="5.89436">
        <ele>368.75</ele>
        <time>2018-11-18T07:33:26Z</time>
      </trkpt>
      <trkpt lat="43.51362" lon="5.89436">
        <ele>366.64</ele>
        <time>2018-11-18T07:33:33Z</time>
      </trkpt>
      <trkpt lat="43.5138" lon="5.89442">
        <ele>361.5</ele>
        <time>2018-11-18T07:33:47Z</time>
      </trkpt>
      <trkpt lat="43.51395" lon="5.89454">
        <ele>359.61</ele>
        <time>2018-11-18T07:34:03Z</time>
      </trkpt>
      <trkpt lat="43.51411" lon="5.89467">
        <ele>358.53</ele>
        <time>2018-11-18T07:34:12Z</time>
      </trkpt>
      <trkpt lat="43.51429" lon="5.89483">
        <ele>356.69</ele>
        <time>2018-11-18T07:34:18Z</time>
      </trkpt>
      <trkpt lat="43.51448" lon="5.89497">
        <ele>354.59</ele>
        <time>2018-11-18T07:34:23Z</time>
      </trkpt>
      <trkpt lat="43.51466" lon="5.89504">
        <ele>354.11</ele>
        <time>2018-11-18T07:34:27Z</time>
      </trkpt>
      <trkpt lat="43.51487" lon="5.89511">
        <ele>352.29</ele>
        <time>2018-11-18T07:34:32Z</time>
      </trkpt>
      <trkpt lat="43.51507" lon="5.89521">
        <ele>350.46</ele>
        <time>2018-11-18T07:34:37Z</time>
      </trkpt>
      <trkpt lat="43.51529" lon="5.89528">
        <ele>348.81</ele>
        <time>2018-11-18T07:34:42Z</time>
      </trkpt>
      <trkpt lat="43.51547" lon="5.89539">
        <ele>347.52</ele>
        <time>2018-11-18T07:34:47Z</time>
      </trkpt>
      <trkpt lat="43.51565" lon="5.89555">
        <ele>347.97</ele>
        <time>2018-11-18T07:34:52Z</time>
      </trkpt>
      <trkpt lat="43.51578" lon="5.89577">
        <ele>347.47</ele>
        <time>2018-11-18T07:34:57Z</time>
      </trkpt>
      <trkpt lat="43.51591" lon="5.89598">
        <ele>345.69</ele>
        <time>2018-11-18T07:35:02Z</time>
      </trkpt>
      <trkpt lat="43.51588" lon="5.89624">
        <ele>345.38</ele>
        <time>2018-11-18T07:35:08Z</time>
      </trkpt>
      <trkpt lat="43.51599" lon="5.89645">
        <ele>345.09</ele>
        <time>2018-11-18T07:35:19Z</time>
      </trkpt>
      <trkpt lat="43.51619" lon="5.8965">
        <ele>345.03</ele>
        <time>2018-11-18T07:35:28Z</time>
      </trkpt>
      <trkpt lat="43.51639" lon="5.89657">
        <ele>345.75</ele>
        <time>2018-11-18T07:35:35Z</time>
      </trkpt>
      <trkpt lat="43.51657" lon="5.89661">
        <ele>345.91</ele>
        <time>2018-11-18T07:35:41Z</time>
      </trkpt>
      <trkpt lat="43.51677" lon="5.89669">
        <ele>344.33</ele>
        <time>2018-11-18T07:35:47Z</time>
      </trkpt>
      <trkpt lat="43.51698" lon="5.89672">
        <ele>343.89</ele>
        <time>2018-11-18T07:35:53Z</time>
      </trkpt>
      <trkpt lat="43.51716" lon="5.89676">
        <ele>342.97</ele>
        <time>2018-11-18T07:35:58Z</time>
      </trkpt>
      <trkpt lat="43.51733" lon="5.89682">
        <ele>341.82</ele>
        <time>2018-11-18T07:36:04Z</time>
      </trkpt>
      <trkpt lat="43.5175" lon="5.89693">
        <ele>340.38</ele>
        <time>2018-11-18T07:36:24Z</time>
      </trkpt>
      <trkpt lat="43.51769" lon="5.897">
        <ele>339.85</ele>
        <time>2018-11-18T07:36:30Z</time>
      </trkpt>
      <trkpt lat="43.5179" lon="5.89703">
        <ele>339.28</ele>
        <time>2018-11-18T07:36:36Z</time>
      </trkpt>
      <trkpt lat="43.51811" lon="5.89703">
        <ele>338.97</ele>
        <time>2018-11-18T07:36:42Z</time>
      </trkpt>
      <trkpt lat="43.51829" lon="5.89703">
        <ele>338.49</ele>
        <time>2018-11-18T07:36:47Z</time>
      </trkpt>
      <trkpt lat="43.51848" lon="5.89701">
        <ele>338.09</ele>
        <time>2018-11-18T07:36:52Z</time>
      </trkpt>
      <trkpt lat="43.51866" lon="5.89698">
        <ele>337.51</ele>
        <time>2018-11-18T07:36:57Z</time>
      </trkpt>
      <trkpt lat="43.51885" lon="5.89695">
        <ele>337.11</ele>
        <time>2018-11-18T07:37:02Z</time>
      </trkpt>
      <trkpt lat="43.51903" lon="5.89692">
        <ele>336.79</ele>
        <time>2018-11-18T07:37:07Z</time>
      </trkpt>
      <trkpt lat="43.51924" lon="5.89689">
        <ele>336.15</ele>
        <time>2018-11-18T07:37:13Z</time>
      </trkpt>
      <trkpt lat="43.51942" lon="5.89683">
        <ele>335.72</ele>
        <time>2018-11-18T07:37:18Z</time>
      </trkpt>
      <trkpt lat="43.51962" lon="5.89674">
        <ele>335.27</ele>
        <time>2018-11-18T07:37:24Z</time>
      </trkpt>
      <trkpt lat="43.5198" lon="5.89667">
        <ele>335.32</ele>
        <time>2018-11-18T07:37:29Z</time>
      </trkpt>
      <trkpt lat="43.52001" lon="5.89658">
        <ele>335.57</ele>
        <time>2018-11-18T07:37:35Z</time>
      </trkpt>
      <trkpt lat="43.5202" lon="5.8965">
        <ele>336.23</ele>
        <time>2018-11-18T07:37:41Z</time>
      </trkpt>
      <trkpt lat="43.52038" lon="5.89645">
        <ele>337.38</ele>
        <time>2018-11-18T07:37:47Z</time>
      </trkpt>
      <trkpt lat="43.52058" lon="5.89638">
        <ele>337.64</ele>
        <time>2018-11-18T07:37:53Z</time>
      </trkpt>
      <trkpt lat="43.52076" lon="5.8963">
        <ele>338.26</ele>
        <time>2018-11-18T07:37:59Z</time>
      </trkpt>
      <trkpt lat="43.52095" lon="5.89622">
        <ele>339.34</ele>
        <time>2018-11-18T07:38:05Z</time>
      </trkpt>
      <trkpt lat="43.52115" lon="5.89613">
        <ele>340.51</ele>
        <time>2018-11-18T07:38:12Z</time>
      </trkpt>
      <trkpt lat="43.52135" lon="5.89606">
        <ele>340.8</ele>
        <time>2018-11-18T07:38:18Z</time>
      </trkpt>
      <trkpt lat="43.52154" lon="5.89596">
        <ele>340.79</ele>
        <time>2018-11-18T07:38:24Z</time>
      </trkpt>
      <trkpt lat="43.52173" lon="5.89587">
        <ele>338.71</ele>
        <time>2018-11-18T07:38:30Z</time>
      </trkpt>
      <trkpt lat="43.52192" lon="5.89578">
        <ele>338.49</ele>
        <time>2018-11-18T07:38:36Z</time>
      </trkpt>
      <trkpt lat="43.5221" lon="5.89569">
        <ele>337.67</ele>
        <time>2018-11-18T07:38:42Z</time>
      </trkpt>
      <trkpt lat="43.52231" lon="5.89558">
        <ele>336.86</ele>
        <time>2018-11-18T07:38:47Z</time>
      </trkpt>
      <trkpt lat="43.52254" lon="5.8955">
        <ele>336.28</ele>
        <time>2018-11-18T07:38:51Z</time>
      </trkpt>
      <trkpt lat="43.52277" lon="5.89549">
        <ele>336.28</ele>
        <time>2018-11-18T07:38:55Z</time>
      </trkpt>
      <trkpt lat="43.52297" lon="5.89549">
        <ele>334.98</ele>
        <time>2018-11-18T07:38:59Z</time>
      </trkpt>
      <trkpt lat="43.52316" lon="5.89552">
        <ele>335.15</ele>
        <time>2018-11-18T07:39:03Z</time>
      </trkpt>
      <trkpt lat="43.52338" lon="5.89552">
        <ele>334.88</ele>
        <time>2018-11-18T07:39:08Z</time>
      </trkpt>
      <trkpt lat="43.52357" lon="5.89548">
        <ele>334.55</ele>
        <time>2018-11-18T07:39:13Z</time>
      </trkpt>
      <trkpt lat="43.52378" lon="5.8955">
        <ele>334.89</ele>
        <time>2018-11-18T07:39:19Z</time>
      </trkpt>
      <trkpt lat="43.52399" lon="5.89552">
        <ele>336.15</ele>
        <time>2018-11-18T07:39:26Z</time>
      </trkpt>
      <trkpt lat="43.5242" lon="5.89554">
        <ele>335.96</ele>
        <time>2018-11-18T07:39:32Z</time>
      </trkpt>
      <trkpt lat="43.5244" lon="5.89556">
        <ele>336.09</ele>
        <time>2018-11-18T07:39:38Z</time>
      </trkpt>
      <trkpt lat="43.52458" lon="5.89557">
        <ele>335.37</ele>
        <time>2018-11-18T07:39:43Z</time>
      </trkpt>
      <trkpt lat="43.52478" lon="5.89557">
        <ele>332.94</ele>
        <time>2018-11-18T07:39:48Z</time>
      </trkpt>
      <trkpt lat="43.52499" lon="5.89557">
        <ele>331.41</ele>
        <time>2018-11-18T07:39:53Z</time>
      </trkpt>
      <trkpt lat="43.52518" lon="5.89558">
        <ele>331.72</ele>
        <time>2018-11-18T07:39:58Z</time>
      </trkpt>
      <trkpt lat="43.52537" lon="5.89559">
        <ele>330.54</ele>
        <time>2018-11-18T07:40:03Z</time>
      </trkpt>
      <trkpt lat="43.52557" lon="5.8956">
        <ele>329.39</ele>
        <time>2018-11-18T07:40:08Z</time>
      </trkpt>
      <trkpt lat="43.52576" lon="5.8956">
        <ele>330.54</ele>
        <time>2018-11-18T07:40:12Z</time>
      </trkpt>
      <trkpt lat="43.52595" lon="5.89562">
        <ele>330.72</ele>
        <time>2018-11-18T07:40:16Z</time>
      </trkpt>
      <trkpt lat="43.52614" lon="5.89563">
        <ele>330.28</ele>
        <time>2018-11-18T07:40:20Z</time>
      </trkpt>
      <trkpt lat="43.52635" lon="5.89562">
        <ele>330.72</ele>
        <time>2018-11-18T07:40:24Z</time>
      </trkpt>
      <trkpt lat="43.52658" lon="5.89562">
        <ele>330.53</ele>
        <time>2018-11-18T07:40:28Z</time>
      </trkpt>
      <trkpt lat="43.52681" lon="5.89563">
        <ele>330.03</ele>
        <time>2018-11-18T07:40:32Z</time>
      </trkpt>
      <trkpt lat="43.52705" lon="5.89567">
        <ele>328.8</ele>
        <time>2018-11-18T07:40:36Z</time>
      </trkpt>
      <trkpt lat="43.52728" lon="5.89569">
        <ele>327.26</ele>
        <time>2018-11-18T07:40:40Z</time>
      </trkpt>
      <trkpt lat="43.52752" lon="5.89569">
        <ele>326.08</ele>
        <time>2018-11-18T07:40:44Z</time>
      </trkpt>
      <trkpt lat="43.5277" lon="5.89569">
        <ele>325.94</ele>
        <time>2018-11-18T07:40:47Z</time>
      </trkpt>
      <trkpt lat="43.52789" lon="5.89564">
        <ele>324.73</ele>
        <time>2018-11-18T07:40:51Z</time>
      </trkpt>
      <trkpt lat="43.52808" lon="5.89555">
        <ele>325.88</ele>
        <time>2018-11-18T07:40:56Z</time>
      </trkpt>
      <trkpt lat="43.52826" lon="5.89546">
        <ele>326.11</ele>
        <time>2018-11-18T07:41:01Z</time>
      </trkpt>
      <trkpt lat="43.52845" lon="5.89536">
        <ele>326.65</ele>
        <time>2018-11-18T07:41:06Z</time>
      </trkpt>
      <trkpt lat="43.52862" lon="5.89526">
        <ele>326.67</ele>
        <time>2018-11-18T07:41:11Z</time>
      </trkpt>
      <trkpt lat="43.52879" lon="5.89516">
        <ele>327.02</ele>
        <time>2018-11-18T07:41:16Z</time>
      </trkpt>
      <trkpt lat="43.529" lon="5.89509">
        <ele>327.38</ele>
        <time>2018-11-18T07:41:22Z</time>
      </trkpt>
      <trkpt lat="43.5292" lon="5.89501">
        <ele>328.44</ele>
        <time>2018-11-18T07:41:28Z</time>
      </trkpt>
      <trkpt lat="43.52939" lon="5.89493">
        <ele>329.95</ele>
        <time>2018-11-18T07:41:34Z</time>
      </trkpt>
      <trkpt lat="43.52957" lon="5.89484">
        <ele>330.19</ele>
        <time>2018-11-18T07:41:40Z</time>
      </trkpt>
      <trkpt lat="43.52974" lon="5.89475">
        <ele>331.3</ele>
        <time>2018-11-18T07:41:46Z</time>
      </trkpt>
      <trkpt lat="43.52992" lon="5.89467">
        <ele>331.13</ele>
        <time>2018-11-18T07:41:52Z</time>
      </trkpt>
      <trkpt lat="43.5301" lon="5.89459">
        <ele>332.01</ele>
        <time>2018-11-18T07:41:58Z</time>
      </trkpt>
      <trkpt lat="43.53028" lon="5.89449">
        <ele>332.74</ele>
        <time>2018-11-18T07:42:05Z</time>
      </trkpt>
      <trkpt lat="43.53047" lon="5.89438">
        <ele>332.96</ele>
        <time>2018-11-18T07:42:12Z</time>
      </trkpt>
      <trkpt lat="43.53063" lon="5.89424">
        <ele>332.65</ele>
        <time>2018-11-18T07:42:18Z</time>
      </trkpt>
      <trkpt lat="43.53078" lon="5.89409">
        <ele>332.39</ele>
        <time>2018-11-18T07:42:24Z</time>
      </trkpt>
      <trkpt lat="43.53093" lon="5.89395">
        <ele>333.03</ele>
        <time>2018-11-18T07:42:30Z</time>
      </trkpt>
      <trkpt lat="43.53109" lon="5.89378">
        <ele>332.47</ele>
        <time>2018-11-18T07:42:37Z</time>
      </trkpt>
      <trkpt lat="43.53124" lon="5.89362">
        <ele>334.12</ele>
        <time>2018-11-18T07:42:45Z</time>
      </trkpt>
      <trkpt lat="43.53141" lon="5.89349">
        <ele>335.53</ele>
        <time>2018-11-18T07:42:53Z</time>
      </trkpt>
      <trkpt lat="43.53158" lon="5.89334">
        <ele>337.19</ele>
        <time>2018-11-18T07:43:01Z</time>
      </trkpt>
      <trkpt lat="43.53176" lon="5.89324">
        <ele>338.14</ele>
        <time>2018-11-18T07:43:09Z</time>
      </trkpt>
      <trkpt lat="43.53195" lon="5.89316">
        <ele>338.78</ele>
        <time>2018-11-18T07:43:17Z</time>
      </trkpt>
      <trkpt lat="43.53213" lon="5.89305">
        <ele>340.4</ele>
        <time>2018-11-18T07:43:25Z</time>
      </trkpt>
      <trkpt lat="43.53229" lon="5.89292">
        <ele>339.72</ele>
        <time>2018-11-18T07:43:32Z</time>
      </trkpt>
      <trkpt lat="43.53246" lon="5.89278">
        <ele>340.61</ele>
        <time>2018-11-18T07:43:40Z</time>
      </trkpt>
      <trkpt lat="43.53264" lon="5.89265">
        <ele>341.16</ele>
        <time>2018-11-18T07:43:48Z</time>
      </trkpt>
      <trkpt lat="43.5328" lon="5.8925">
        <ele>341.57</ele>
        <time>2018-11-18T07:43:56Z</time>
      </trkpt>
      <trkpt lat="43.53296" lon="5.89235">
        <ele>343.59</ele>
        <time>2018-11-18T07:44:04Z</time>
      </trkpt>
      <trkpt lat="43.53313" lon="5.89221">
        <ele>343.55</ele>
        <time>2018-11-18T07:44:12Z</time>
      </trkpt>
      <trkpt lat="43.53331" lon="5.89207">
        <ele>344.54</ele>
        <time>2018-11-18T07:44:20Z</time>
      </trkpt>
      <trkpt lat="43.53348" lon="5.89194">
        <ele>346.19</ele>
        <time>2018-11-18T07:44:28Z</time>
      </trkpt>
      <trkpt lat="43.53365" lon="5.89179">
        <ele>347.79</ele>
        <time>2018-11-18T07:44:37Z</time>
      </trkpt>
      <trkpt lat="43.53381" lon="5.89165">
        <ele>349.73</ele>
        <time>2018-11-18T07:44:45Z</time>
      </trkpt>
      <trkpt lat="43.53397" lon="5.8915">
        <ele>351.22</ele>
        <time>2018-11-18T07:44:54Z</time>
      </trkpt>
      <trkpt lat="43.53413" lon="5.89136">
        <ele>350.93</ele>
        <time>2018-11-18T07:45:03Z</time>
      </trkpt>
      <trkpt lat="43.53428" lon="5.89121">
        <ele>350.67</ele>
        <time>2018-11-18T07:45:11Z</time>
      </trkpt>
      <trkpt lat="43.53444" lon="5.89104">
        <ele>352.97</ele>
        <time>2018-11-18T07:45:20Z</time>
      </trkpt>
      <trkpt lat="43.53457" lon="5.89087">
        <ele>353.71</ele>
        <time>2018-11-18T07:45:28Z</time>
      </trkpt>
      <trkpt lat="43.53466" lon="5.89064">
        <ele>354.29</ele>
        <time>2018-11-18T07:45:37Z</time>
      </trkpt>
      <trkpt lat="43.53468" lon="5.89038">
        <ele>354.89</ele>
        <time>2018-11-18T07:45:48Z</time>
      </trkpt>
      <trkpt lat="43.53459" lon="5.89017">
        <ele>354.25</ele>
        <time>2018-11-18T07:46:01Z</time>
      </trkpt>
      <trkpt lat="43.5344" lon="5.89006">
        <ele>355.07</ele>
        <time>2018-11-18T07:46:11Z</time>
      </trkpt>
      <trkpt lat="43.53422" lon="5.89001">
        <ele>355.86</ele>
        <time>2018-11-18T07:46:20Z</time>
      </trkpt>
      <trkpt lat="43.53404" lon="5.88991">
        <ele>356.24</ele>
        <time>2018-11-18T07:46:30Z</time>
      </trkpt>
      <trkpt lat="43.53388" lon="5.88977">
        <ele>356.95</ele>
        <time>2018-11-18T07:46:39Z</time>
      </trkpt>
      <trkpt lat="43.53375" lon="5.88958">
        <ele>357.93</ele>
        <time>2018-11-18T07:46:48Z</time>
      </trkpt>
      <trkpt lat="43.53364" lon="5.88938">
        <ele>359.53</ele>
        <time>2018-11-18T07:46:57Z</time>
      </trkpt>
      <trkpt lat="43.53352" lon="5.88917">
        <ele>360.84</ele>
        <time>2018-11-18T07:47:06Z</time>
      </trkpt>
      <trkpt lat="43.53341" lon="5.88897">
        <ele>360.88</ele>
        <time>2018-11-18T07:47:14Z</time>
      </trkpt>
      <trkpt lat="43.53329" lon="5.88876">
        <ele>359.98</ele>
        <time>2018-11-18T07:47:22Z</time>
      </trkpt>
      <trkpt lat="43.53318" lon="5.88856">
        <ele>360.62</ele>
        <time>2018-11-18T07:47:30Z</time>
      </trkpt>
      <trkpt lat="43.53304" lon="5.88839">
        <ele>360.61</ele>
        <time>2018-11-18T07:47:38Z</time>
      </trkpt>
      <trkpt lat="43.53288" lon="5.88826">
        <ele>361.3</ele>
        <time>2018-11-18T07:47:46Z</time>
      </trkpt>
      <trkpt lat="43.5327" lon="5.88812">
        <ele>360.28</ele>
        <time>2018-11-18T07:47:54Z</time>
      </trkpt>
      <trkpt lat="43.53253" lon="5.88799">
        <ele>360.72</ele>
        <time>2018-11-18T07:48:01Z</time>
      </trkpt>
      <trkpt lat="43.5324" lon="5.88781">
        <ele>361.75</ele>
        <time>2018-11-18T07:48:07Z</time>
      </trkpt>
      <trkpt lat="43.53246" lon="5.88755">
        <ele>361.73</ele>
        <time>2018-11-18T07:48:13Z</time>
      </trkpt>
      <trkpt lat="43.53264" lon="5.88744">
        <ele>360.5</ele>
        <time>2018-11-18T07:48:19Z</time>
      </trkpt>
      <trkpt lat="43.53278" lon="5.88721">
        <ele>359.63</ele>
        <time>2018-11-18T07:48:25Z</time>
      </trkpt>
      <trkpt lat="43.5328" lon="5.88692">
        <ele>358.54</ele>
        <time>2018-11-18T07:48:30Z</time>
      </trkpt>
      <trkpt lat="43.53292" lon="5.8867">
        <ele>359.12</ele>
        <time>2018-11-18T07:48:36Z</time>
      </trkpt>
      <trkpt lat="43.53311" lon="5.88671">
        <ele>359.79</ele>
        <time>2018-11-18T07:48:43Z</time>
      </trkpt>
      <trkpt lat="43.53326" lon="5.88684">
        <ele>360.62</ele>
        <time>2018-11-18T07:48:50Z</time>
      </trkpt>
      <trkpt lat="43.53343" lon="5.88694">
        <ele>361.65</ele>
        <time>2018-11-18T07:48:57Z</time>
      </trkpt>
      <trkpt lat="43.53361" lon="5.88702">
        <ele>362.15</ele>
        <time>2018-11-18T07:49:04Z</time>
      </trkpt>
      <trkpt lat="43.53378" lon="5.88708">
        <ele>362.84</ele>
        <time>2018-11-18T07:49:11Z</time>
      </trkpt>
      <trkpt lat="43.53396" lon="5.88717">
        <ele>363.76</ele>
        <time>2018-11-18T07:49:19Z</time>
      </trkpt>
      <trkpt lat="43.53413" lon="5.88727">
        <ele>364.84</ele>
        <time>2018-11-18T07:49:28Z</time>
      </trkpt>
      <trkpt lat="43.53431" lon="5.88734">
        <ele>365.62</ele>
        <time>2018-11-18T07:49:37Z</time>
      </trkpt>
      <trkpt lat="43.5345" lon="5.88737">
        <ele>367.02</ele>
        <time>2018-11-18T07:49:45Z</time>
      </trkpt>
      <trkpt lat="43.53469" lon="5.88733">
        <ele>367.99</ele>
        <time>2018-11-18T07:49:56Z</time>
      </trkpt>
      <trkpt lat="43.53487" lon="5.88729">
        <ele>366.82</ele>
        <time>2018-11-18T07:50:46Z</time>
      </trkpt>
      <trkpt lat="43.53504" lon="5.88714">
        <ele>365.43</ele>
        <time>2018-11-18T07:50:53Z</time>
      </trkpt>
      <trkpt lat="43.53519" lon="5.88697">
        <ele>364.9</ele>
        <time>2018-11-18T07:50:58Z</time>
      </trkpt>
      <trkpt lat="43.53534" lon="5.88675">
        <ele>364.3</ele>
        <time>2018-11-18T07:51:03Z</time>
      </trkpt>
      <trkpt lat="43.53547" lon="5.88656">
        <ele>363.76</ele>
        <time>2018-11-18T07:51:08Z</time>
      </trkpt>
      <trkpt lat="43.53562" lon="5.88638">
        <ele>363.9</ele>
        <time>2018-11-18T07:51:14Z</time>
      </trkpt>
      <trkpt lat="43.53581" lon="5.88633">
        <ele>363.75</ele>
        <time>2018-11-18T07:51:19Z</time>
      </trkpt>
      <trkpt lat="43.53599" lon="5.88628">
        <ele>365.59</ele>
        <time>2018-11-18T07:51:24Z</time>
      </trkpt>
      <trkpt lat="43.53616" lon="5.88622">
        <ele>367.22</ele>
        <time>2018-11-18T07:51:30Z</time>
      </trkpt>
      <trkpt lat="43.53632" lon="5.8861">
        <ele>366.77</ele>
        <time>2018-11-18T07:51:36Z</time>
      </trkpt>
      <trkpt lat="43.53649" lon="5.88594">
        <ele>367.56</ele>
        <time>2018-11-18T07:51:43Z</time>
      </trkpt>
      <trkpt lat="43.53666" lon="5.88584">
        <ele>367.3</ele>
        <time>2018-11-18T07:51:48Z</time>
      </trkpt>
      <trkpt lat="43.53682" lon="5.8857">
        <ele>367.35</ele>
        <time>2018-11-18T07:51:53Z</time>
      </trkpt>
      <trkpt lat="43.53698" lon="5.88554">
        <ele>367.5</ele>
        <time>2018-11-18T07:52:00Z</time>
      </trkpt>
      <trkpt lat="43.53712" lon="5.88535">
        <ele>370.32</ele>
        <time>2018-11-18T07:52:08Z</time>
      </trkpt>
      <trkpt lat="43.53727" lon="5.88517">
        <ele>373.57</ele>
        <time>2018-11-18T07:52:16Z</time>
      </trkpt>
      <trkpt lat="43.53739" lon="5.88497">
        <ele>376.29</ele>
        <time>2018-11-18T07:52:25Z</time>
      </trkpt>
      <trkpt lat="43.53748" lon="5.88474">
        <ele>375.65</ele>
        <time>2018-11-18T07:52:33Z</time>
      </trkpt>
      <trkpt lat="43.53754" lon="5.8845">
        <ele>373.88</ele>
        <time>2018-11-18T07:52:43Z</time>
      </trkpt>
      <trkpt lat="43.53771" lon="5.88438">
        <ele>373.72</ele>
        <time>2018-11-18T07:52:50Z</time>
      </trkpt>
      <trkpt lat="43.53787" lon="5.88428">
        <ele>374.56</ele>
        <time>2018-11-18T07:52:56Z</time>
      </trkpt>
      <trkpt lat="43.53805" lon="5.88425">
        <ele>376.29</ele>
        <time>2018-11-18T07:53:05Z</time>
      </trkpt>
      <trkpt lat="43.53821" lon="5.8844">
        <ele>378.22</ele>
        <time>2018-11-18T07:53:16Z</time>
      </trkpt>
      <trkpt lat="43.53838" lon="5.88446">
        <ele>379.32</ele>
        <time>2018-11-18T07:53:25Z</time>
      </trkpt>
      <trkpt lat="43.53857" lon="5.88443">
        <ele>380.02</ele>
        <time>2018-11-18T07:53:35Z</time>
      </trkpt>
      <trkpt lat="43.53874" lon="5.88435">
        <ele>382.01</ele>
        <time>2018-11-18T07:53:46Z</time>
      </trkpt>
      <trkpt lat="43.53894" lon="5.88438">
        <ele>386.15</ele>
        <time>2018-11-18T07:53:58Z</time>
      </trkpt>
      <trkpt lat="43.53913" lon="5.88442">
        <ele>388.42</ele>
        <time>2018-11-18T07:54:08Z</time>
      </trkpt>
      <trkpt lat="43.53933" lon="5.88443">
        <ele>386.72</ele>
        <time>2018-11-18T07:54:17Z</time>
      </trkpt>
      <trkpt lat="43.5395" lon="5.88455">
        <ele>389.09</ele>
        <time>2018-11-18T07:54:28Z</time>
      </trkpt>
      <trkpt lat="43.53969" lon="5.88463">
        <ele>391.02</ele>
        <time>2018-11-18T07:54:38Z</time>
      </trkpt>
      <trkpt lat="43.53987" lon="5.88464">
        <ele>392.09</ele>
        <time>2018-11-18T07:54:47Z</time>
      </trkpt>
      <trkpt lat="43.54005" lon="5.88455">
        <ele>392.88</ele>
        <time>2018-11-18T07:54:57Z</time>
      </trkpt>
      <trkpt lat="43.54023" lon="5.88445">
        <ele>395.65</ele>
        <time>2018-11-18T07:55:07Z</time>
      </trkpt>
      <trkpt lat="43.54042" lon="5.88438">
        <ele>396.24</ele>
        <time>2018-11-18T07:55:17Z</time>
      </trkpt>
      <trkpt lat="43.54059" lon="5.88427">
        <ele>396.17</ele>
        <time>2018-11-18T07:55:28Z</time>
      </trkpt>
      <trkpt lat="43.54076" lon="5.88419">
        <ele>395.05</ele>
        <time>2018-11-18T07:55:35Z</time>
      </trkpt>
      <trkpt lat="43.54092" lon="5.88404">
        <ele>393.13</ele>
        <time>2018-11-18T07:55:42Z</time>
      </trkpt>
      <trkpt lat="43.54107" lon="5.8839">
        <ele>392.26</ele>
        <time>2018-11-18T07:55:48Z</time>
      </trkpt>
      <trkpt lat="43.54123" lon="5.88374">
        <ele>392.36</ele>
        <time>2018-11-18T07:55:55Z</time>
      </trkpt>
      <trkpt lat="43.54139" lon="5.88361">
        <ele>392.98</ele>
        <time>2018-11-18T07:56:03Z</time>
      </trkpt>
      <trkpt lat="43.54156" lon="5.88348">
        <ele>393.53</ele>
        <time>2018-11-18T07:56:12Z</time>
      </trkpt>
      <trkpt lat="43.54173" lon="5.88338">
        <ele>394.63</ele>
        <time>2018-11-18T07:56:20Z</time>
      </trkpt>
      <trkpt lat="43.54192" lon="5.88337">
        <ele>395.34</ele>
        <time>2018-11-18T07:56:28Z</time>
      </trkpt>
      <trkpt lat="43.5421" lon="5.88334">
        <ele>396.8</ele>
        <time>2018-11-18T07:56:36Z</time>
      </trkpt>
      <trkpt lat="43.54228" lon="5.88329">
        <ele>398.5</ele>
        <time>2018-11-18T07:56:44Z</time>
      </trkpt>
      <trkpt lat="43.54245" lon="5.88319">
        <ele>401.18</ele>
        <time>2018-11-18T07:56:53Z</time>
      </trkpt>
      <trkpt lat="43.54263" lon="5.88308">
        <ele>400.43</ele>
        <time>2018-11-18T07:57:02Z</time>
      </trkpt>
      <trkpt lat="43.5428" lon="5.88296">
        <ele>400.57</ele>
        <time>2018-11-18T07:57:11Z</time>
      </trkpt>
      <trkpt lat="43.54295" lon="5.88284">
        <ele>401.32</ele>
        <time>2018-11-18T07:57:20Z</time>
      </trkpt>
      <trkpt lat="43.54312" lon="5.88272">
        <ele>402</ele>
        <time>2018-11-18T07:57:32Z</time>
      </trkpt>
      <trkpt lat="43.5433" lon="5.88262">
        <ele>401.64</ele>
        <time>2018-11-18T07:57:44Z</time>
      </trkpt>
      <trkpt lat="43.54347" lon="5.88249">
        <ele>402.3</ele>
        <time>2018-11-18T07:57:53Z</time>
      </trkpt>
      <trkpt lat="43.54364" lon="5.88238">
        <ele>401.79</ele>
        <time>2018-11-18T07:58:00Z</time>
      </trkpt>
      <trkpt lat="43.5438" lon="5.88226">
        <ele>402.34</ele>
        <time>2018-11-18T07:58:08Z</time>
      </trkpt>
      <trkpt lat="43.54395" lon="5.88211">
        <ele>403.33</ele>
        <time>2018-11-18T07:58:16Z</time>
      </trkpt>
      <trkpt lat="43.54411" lon="5.88196">
        <ele>403.62</ele>
        <time>2018-11-18T07:58:24Z</time>
      </trkpt>
      <trkpt lat="43.5443" lon="5.88188">
        <ele>404.99</ele>
        <time>2018-11-18T07:58:33Z</time>
      </trkpt>
      <trkpt lat="43.54446" lon="5.88175">
        <ele>404.87</ele>
        <time>2018-11-18T07:58:41Z</time>
      </trkpt>
      <trkpt lat="43.54447" lon="5.8815">
        <ele>405.7</ele>
        <time>2018-11-18T07:58:50Z</time>
      </trkpt>
      <trkpt lat="43.54458" lon="5.88126">
        <ele>407.64</ele>
        <time>2018-11-18T07:59:00Z</time>
      </trkpt>
      <trkpt lat="43.54471" lon="5.88109">
        <ele>408.48</ele>
        <time>2018-11-18T07:59:08Z</time>
      </trkpt>
      <trkpt lat="43.54484" lon="5.8809">
        <ele>410.42</ele>
        <time>2018-11-18T07:59:16Z</time>
      </trkpt>
      <trkpt lat="43.54496" lon="5.8807">
        <ele>412.2</ele>
        <time>2018-11-18T07:59:25Z</time>
      </trkpt>
      <trkpt lat="43.5451" lon="5.8805">
        <ele>411.71</ele>
        <time>2018-11-18T07:59:34Z</time>
      </trkpt>
      <trkpt lat="43.54523" lon="5.88032">
        <ele>410.58</ele>
        <time>2018-11-18T07:59:41Z</time>
      </trkpt>
      <trkpt lat="43.54534" lon="5.88008">
        <ele>411.5</ele>
        <time>2018-11-18T07:59:48Z</time>
      </trkpt>
      <trkpt lat="43.54548" lon="5.87991">
        <ele>412.41</ele>
        <time>2018-11-18T07:59:54Z</time>
      </trkpt>
      <trkpt lat="43.54567" lon="5.87983">
        <ele>410.41</ele>
        <time>2018-11-18T08:00:03Z</time>
      </trkpt>
      <trkpt lat="43.54582" lon="5.87966">
        <ele>409.29</ele>
        <time>2018-11-18T08:00:13Z</time>
      </trkpt>
      <trkpt lat="43.54599" lon="5.87954">
        <ele>411.52</ele>
        <time>2018-11-18T08:00:24Z</time>
      </trkpt>
      <trkpt lat="43.54613" lon="5.87935">
        <ele>412.7</ele>
        <time>2018-11-18T08:00:34Z</time>
      </trkpt>
      <trkpt lat="43.5463" lon="5.87922">
        <ele>413.14</ele>
        <time>2018-11-18T08:00:44Z</time>
      </trkpt>
      <trkpt lat="43.54643" lon="5.87904">
        <ele>413.09</ele>
        <time>2018-11-18T08:00:53Z</time>
      </trkpt>
      <trkpt lat="43.54655" lon="5.87883">
        <ele>413.06</ele>
        <time>2018-11-18T08:01:03Z</time>
      </trkpt>
      <trkpt lat="43.54669" lon="5.87864">
        <ele>412.42</ele>
        <time>2018-11-18T08:01:11Z</time>
      </trkpt>
      <trkpt lat="43.54682" lon="5.87885">
        <ele>405.43</ele>
        <time>2018-11-18T08:07:48Z</time>
      </trkpt>
      <trkpt lat="43.54698" lon="5.87899">
        <ele>405.96</ele>
        <time>2018-11-18T08:07:57Z</time>
      </trkpt>
      <trkpt lat="43.54712" lon="5.87918">
        <ele>408.07</ele>
        <time>2018-11-18T08:08:06Z</time>
      </trkpt>
      <trkpt lat="43.54727" lon="5.87938">
        <ele>408.6</ele>
        <time>2018-11-18T08:08:14Z</time>
      </trkpt>
      <trkpt lat="43.5474" lon="5.87957">
        <ele>407.79</ele>
        <time>2018-11-18T08:08:21Z</time>
      </trkpt>
      <trkpt lat="43.54752" lon="5.8798">
        <ele>407.98</ele>
        <time>2018-11-18T08:08:28Z</time>
      </trkpt>
      <trkpt lat="43.54754" lon="5.88009">
        <ele>408.06</ele>
        <time>2018-11-18T08:08:34Z</time>
      </trkpt>
      <trkpt lat="43.54762" lon="5.88036">
        <ele>408.86</ele>
        <time>2018-11-18T08:08:40Z</time>
      </trkpt>
      <trkpt lat="43.5476" lon="5.8806">
        <ele>408.47</ele>
        <time>2018-11-18T08:08:45Z</time>
      </trkpt>
      <trkpt lat="43.54761" lon="5.88086">
        <ele>408.8</ele>
        <time>2018-11-18T08:08:50Z</time>
      </trkpt>
      <trkpt lat="43.54763" lon="5.88114">
        <ele>406.95</ele>
        <time>2018-11-18T08:08:56Z</time>
      </trkpt>
      <trkpt lat="43.54762" lon="5.88141">
        <ele>407.37</ele>
        <time>2018-11-18T08:09:03Z</time>
      </trkpt>
      <trkpt lat="43.54767" lon="5.88167">
        <ele>408.11</ele>
        <time>2018-11-18T08:09:10Z</time>
      </trkpt>
      <trkpt lat="43.54768" lon="5.88192">
        <ele>408.35</ele>
        <time>2018-11-18T08:09:16Z</time>
      </trkpt>
      <trkpt lat="43.54769" lon="5.88218">
        <ele>407.78</ele>
        <time>2018-11-18T08:09:21Z</time>
      </trkpt>
      <trkpt lat="43.54766" lon="5.88248">
        <ele>406.72</ele>
        <time>2018-11-18T08:09:26Z</time>
      </trkpt>
      <trkpt lat="43.54766" lon="5.88275">
        <ele>405.02</ele>
        <time>2018-11-18T08:09:31Z</time>
      </trkpt>
      <trkpt lat="43.54774" lon="5.88301">
        <ele>404.6</ele>
        <time>2018-11-18T08:09:36Z</time>
      </trkpt>
      <trkpt lat="43.54786" lon="5.88327">
        <ele>401.83</ele>
        <time>2018-11-18T08:09:41Z</time>
      </trkpt>
      <trkpt lat="43.54797" lon="5.8835">
        <ele>399.69</ele>
        <time>2018-11-18T08:09:45Z</time>
      </trkpt>
      <trkpt lat="43.54808" lon="5.88378">
        <ele>397.22</ele>
        <time>2018-11-18T08:09:49Z</time>
      </trkpt>
      <trkpt lat="43.54823" lon="5.88405">
        <ele>393.74</ele>
        <time>2018-11-18T08:09:53Z</time>
      </trkpt>
      <trkpt lat="43.54835" lon="5.88429">
        <ele>390.93</ele>
        <time>2018-11-18T08:09:56Z</time>
      </trkpt>
      <trkpt lat="43.54845" lon="5.88452">
        <ele>387.85</ele>
        <time>2018-11-18T08:09:59Z</time>
      </trkpt>
      <trkpt lat="43.54843" lon="5.88481">
        <ele>384.12</ele>
        <time>2018-11-18T08:10:03Z</time>
      </trkpt>
      <trkpt lat="43.54831" lon="5.88503">
        <ele>381.27</ele>
        <time>2018-11-18T08:10:07Z</time>
      </trkpt>
      <trkpt lat="43.54835" lon="5.88529">
        <ele>377.54</ele>
        <time>2018-11-18T08:10:12Z</time>
      </trkpt>
      <trkpt lat="43.54851" lon="5.88541">
        <ele>375.45</ele>
        <time>2018-11-18T08:10:16Z</time>
      </trkpt>
      <trkpt lat="43.54863" lon="5.8857">
        <ele>371.94</ele>
        <time>2018-11-18T08:10:20Z</time>
      </trkpt>
      <trkpt lat="43.5487" lon="5.88598">
        <ele>370.54</ele>
        <time>2018-11-18T08:10:23Z</time>
      </trkpt>
      <trkpt lat="43.54876" lon="5.88625">
        <ele>368.58</ele>
        <time>2018-11-18T08:10:26Z</time>
      </trkpt>
      <trkpt lat="43.54881" lon="5.88655">
        <ele>366.4</ele>
        <time>2018-11-18T08:10:30Z</time>
      </trkpt>
      <trkpt lat="43.54886" lon="5.88683">
        <ele>363.52</ele>
        <time>2018-11-18T08:10:34Z</time>
      </trkpt>
      <trkpt lat="43.54893" lon="5.88706">
        <ele>361.2</ele>
        <time>2018-11-18T08:10:37Z</time>
      </trkpt>
      <trkpt lat="43.54903" lon="5.88732">
        <ele>358.63</ele>
        <time>2018-11-18T08:10:40Z</time>
      </trkpt>
      <trkpt lat="43.5491" lon="5.8876">
        <ele>356.01</ele>
        <time>2018-11-18T08:10:43Z</time>
      </trkpt>
      <trkpt lat="43.54915" lon="5.88789">
        <ele>353.13</ele>
        <time>2018-11-18T08:10:46Z</time>
      </trkpt>
      <trkpt lat="43.54919" lon="5.88813">
        <ele>350.94</ele>
        <time>2018-11-18T08:10:49Z</time>
      </trkpt>
      <trkpt lat="43.54933" lon="5.88831">
        <ele>348.28</ele>
        <time>2018-11-18T08:11:23Z</time>
      </trkpt>
      <trkpt lat="43.54951" lon="5.88827">
        <ele>349.81</ele>
        <time>2018-11-18T08:11:31Z</time>
      </trkpt>
      <trkpt lat="43.54964" lon="5.8881">
        <ele>350.35</ele>
        <time>2018-11-18T08:11:38Z</time>
      </trkpt>
      <trkpt lat="43.54978" lon="5.8879">
        <ele>352.19</ele>
        <time>2018-11-18T08:11:46Z</time>
      </trkpt>
      <trkpt lat="43.54993" lon="5.88773">
        <ele>353.89</ele>
        <time>2018-11-18T08:11:53Z</time>
      </trkpt>
      <trkpt lat="43.55005" lon="5.88751">
        <ele>356.11</ele>
        <time>2018-11-18T08:12:01Z</time>
      </trkpt>
      <trkpt lat="43.55023" lon="5.88745">
        <ele>359.39</ele>
        <time>2018-11-18T08:12:12Z</time>
      </trkpt>
      <trkpt lat="43.55039" lon="5.88755">
        <ele>360.94</ele>
        <time>2018-11-18T08:12:24Z</time>
      </trkpt>
      <trkpt lat="43.55053" lon="5.8877">
        <ele>363.68</ele>
        <time>2018-11-18T08:12:37Z</time>
      </trkpt>
      <trkpt lat="43.55069" lon="5.88784">
        <ele>366.62</ele>
        <time>2018-11-18T08:12:50Z</time>
      </trkpt>
      <trkpt lat="43.55086" lon="5.88795">
        <ele>369.61</ele>
        <time>2018-11-18T08:13:04Z</time>
      </trkpt>
      <trkpt lat="43.55104" lon="5.88807">
        <ele>373.89</ele>
        <time>2018-11-18T08:13:19Z</time>
      </trkpt>
      <trkpt lat="43.55121" lon="5.88816">
        <ele>377.83</ele>
        <time>2018-11-18T08:13:33Z</time>
      </trkpt>
      <trkpt lat="43.55138" lon="5.88828">
        <ele>381.12</ele>
        <time>2018-11-18T08:13:47Z</time>
      </trkpt>
      <trkpt lat="43.55155" lon="5.88837">
        <ele>384.22</ele>
        <time>2018-11-18T08:13:59Z</time>
      </trkpt>
      <trkpt lat="43.55168" lon="5.88854">
        <ele>387.2</ele>
        <time>2018-11-18T08:14:13Z</time>
      </trkpt>
      <trkpt lat="43.55169" lon="5.88884">
        <ele>384.39</ele>
        <time>2018-11-18T08:16:15Z</time>
      </trkpt>
      <trkpt lat="43.55187" lon="5.88886">
        <ele>383.97</ele>
        <time>2018-11-18T08:16:24Z</time>
      </trkpt>
      <trkpt lat="43.55207" lon="5.88895">
        <ele>384.25</ele>
        <time>2018-11-18T08:16:32Z</time>
      </trkpt>
      <trkpt lat="43.55224" lon="5.88917">
        <ele>384.47</ele>
        <time>2018-11-18T08:16:37Z</time>
      </trkpt>
      <trkpt lat="43.55236" lon="5.88935">
        <ele>383.74</ele>
        <time>2018-11-18T08:16:41Z</time>
      </trkpt>
      <trkpt lat="43.5524" lon="5.88959">
        <ele>382.06</ele>
        <time>2018-11-18T08:16:45Z</time>
      </trkpt>
      <trkpt lat="43.55242" lon="5.88986">
        <ele>379.97</ele>
        <time>2018-11-18T08:16:50Z</time>
      </trkpt>
      <trkpt lat="43.55249" lon="5.89011">
        <ele>377.41</ele>
        <time>2018-11-18T08:16:58Z</time>
      </trkpt>
      <trkpt lat="43.5526" lon="5.89034">
        <ele>376.73</ele>
        <time>2018-11-18T08:17:06Z</time>
      </trkpt>
      <trkpt lat="43.55272" lon="5.89053">
        <ele>377.92</ele>
        <time>2018-11-18T08:17:13Z</time>
      </trkpt>
      <trkpt lat="43.55289" lon="5.89064">
        <ele>379.36</ele>
        <time>2018-11-18T08:17:20Z</time>
      </trkpt>
      <trkpt lat="43.55308" lon="5.8906">
        <ele>379.74</ele>
        <time>2018-11-18T08:17:35Z</time>
      </trkpt>
      <trkpt lat="43.55326" lon="5.89056">
        <ele>380.37</ele>
        <time>2018-11-18T08:17:42Z</time>
      </trkpt>
      <trkpt lat="43.55342" lon="5.89044">
        <ele>381.47</ele>
        <time>2018-11-18T08:17:49Z</time>
      </trkpt>
      <trkpt lat="43.55361" lon="5.89036">
        <ele>382.63</ele>
        <time>2018-11-18T08:17:57Z</time>
      </trkpt>
      <trkpt lat="43.5538" lon="5.89027">
        <ele>384.75</ele>
        <time>2018-11-18T08:18:06Z</time>
      </trkpt>
      <trkpt lat="43.55397" lon="5.89018">
        <ele>386.25</ele>
        <time>2018-11-18T08:18:14Z</time>
      </trkpt>
      <trkpt lat="43.55415" lon="5.89004">
        <ele>386.17</ele>
        <time>2018-11-18T08:18:23Z</time>
      </trkpt>
      <trkpt lat="43.55432" lon="5.88993">
        <ele>386.86</ele>
        <time>2018-11-18T08:18:32Z</time>
      </trkpt>
      <trkpt lat="43.55447" lon="5.88977">
        <ele>388.85</ele>
        <time>2018-11-18T08:18:40Z</time>
      </trkpt>
      <trkpt lat="43.55464" lon="5.88964">
        <ele>389.82</ele>
        <time>2018-11-18T08:18:49Z</time>
      </trkpt>
      <trkpt lat="43.55483" lon="5.88955">
        <ele>390.35</ele>
        <time>2018-11-18T08:18:58Z</time>
      </trkpt>
      <trkpt lat="43.555" lon="5.88943">
        <ele>394.47</ele>
        <time>2018-11-18T08:19:07Z</time>
      </trkpt>
      <trkpt lat="43.55519" lon="5.88938">
        <ele>398.3</ele>
        <time>2018-11-18T08:19:16Z</time>
      </trkpt>
      <trkpt lat="43.55539" lon="5.8894">
        <ele>399.6</ele>
        <time>2018-11-18T08:19:25Z</time>
      </trkpt>
      <trkpt lat="43.55557" lon="5.8893">
        <ele>400.15</ele>
        <time>2018-11-18T08:19:33Z</time>
      </trkpt>
      <trkpt lat="43.55572" lon="5.88917">
        <ele>402.02</ele>
        <time>2018-11-18T08:19:41Z</time>
      </trkpt>
      <trkpt lat="43.55587" lon="5.88902">
        <ele>403.49</ele>
        <time>2018-11-18T08:19:49Z</time>
      </trkpt>
      <trkpt lat="43.55599" lon="5.88883">
        <ele>404.76</ele>
        <time>2018-11-18T08:19:57Z</time>
      </trkpt>
      <trkpt lat="43.55614" lon="5.88867">
        <ele>404.95</ele>
        <time>2018-11-18T08:20:05Z</time>
      </trkpt>
      <trkpt lat="43.55631" lon="5.88858">
        <ele>405.85</ele>
        <time>2018-11-18T08:20:13Z</time>
      </trkpt>
      <trkpt lat="43.55645" lon="5.88841">
        <ele>407.39</ele>
        <time>2018-11-18T08:20:21Z</time>
      </trkpt>
      <trkpt lat="43.5566" lon="5.88825">
        <ele>408.58</ele>
        <time>2018-11-18T08:20:29Z</time>
      </trkpt>
      <trkpt lat="43.55677" lon="5.88811">
        <ele>409.7</ele>
        <time>2018-11-18T08:20:38Z</time>
      </trkpt>
      <trkpt lat="43.55696" lon="5.88811">
        <ele>412.87</ele>
        <time>2018-11-18T08:20:47Z</time>
      </trkpt>
      <trkpt lat="43.55715" lon="5.88813">
        <ele>415.1</ele>
        <time>2018-11-18T08:20:56Z</time>
      </trkpt>
      <trkpt lat="43.55734" lon="5.88808">
        <ele>414.77</ele>
        <time>2018-11-18T08:21:04Z</time>
      </trkpt>
      <trkpt lat="43.55753" lon="5.88802">
        <ele>413.79</ele>
        <time>2018-11-18T08:21:11Z</time>
      </trkpt>
      <trkpt lat="43.55772" lon="5.88795">
        <ele>414.09</ele>
        <time>2018-11-18T08:21:18Z</time>
      </trkpt>
      <trkpt lat="43.55791" lon="5.8879">
        <ele>416.9</ele>
        <time>2018-11-18T08:21:26Z</time>
      </trkpt>
      <trkpt lat="43.55808" lon="5.88781">
        <ele>416.31</ele>
        <time>2018-11-18T08:21:34Z</time>
      </trkpt>
      <trkpt lat="43.55826" lon="5.88772">
        <ele>416.72</ele>
        <time>2018-11-18T08:21:42Z</time>
      </trkpt>
      <trkpt lat="43.55843" lon="5.88758">
        <ele>416.91</ele>
        <time>2018-11-18T08:21:49Z</time>
      </trkpt>
      <trkpt lat="43.55858" lon="5.88746">
        <ele>418.2</ele>
        <time>2018-11-18T08:21:55Z</time>
      </trkpt>
      <trkpt lat="43.55876" lon="5.88736">
        <ele>419.04</ele>
        <time>2018-11-18T08:22:02Z</time>
      </trkpt>
      <trkpt lat="43.55894" lon="5.88726">
        <ele>420.92</ele>
        <time>2018-11-18T08:22:09Z</time>
      </trkpt>
      <trkpt lat="43.55912" lon="5.8872">
        <ele>419.64</ele>
        <time>2018-11-18T08:22:16Z</time>
      </trkpt>
      <trkpt lat="43.5593" lon="5.88726">
        <ele>420.44</ele>
        <time>2018-11-18T08:22:23Z</time>
      </trkpt>
      <trkpt lat="43.55948" lon="5.88731">
        <ele>422.29</ele>
        <time>2018-11-18T08:22:30Z</time>
      </trkpt>
      <trkpt lat="43.55966" lon="5.8873">
        <ele>424.35</ele>
        <time>2018-11-18T08:22:37Z</time>
      </trkpt>
      <trkpt lat="43.55986" lon="5.88727">
        <ele>427.28</ele>
        <time>2018-11-18T08:22:44Z</time>
      </trkpt>
      <trkpt lat="43.56006" lon="5.88721">
        <ele>427.6</ele>
        <time>2018-11-18T08:22:51Z</time>
      </trkpt>
      <trkpt lat="43.56024" lon="5.88724">
        <ele>427.93</ele>
        <time>2018-11-18T08:22:57Z</time>
      </trkpt>
      <trkpt lat="43.56044" lon="5.88723">
        <ele>423.64</ele>
        <time>2018-11-18T08:23:03Z</time>
      </trkpt>
      <trkpt lat="43.56064" lon="5.88714">
        <ele>421.25</ele>
        <time>2018-11-18T08:23:10Z</time>
      </trkpt>
      <trkpt lat="43.56046" lon="5.88708">
        <ele>406.1</ele>
        <time>2018-11-18T08:29:08Z</time>
      </trkpt>
      <trkpt lat="43.56027" lon="5.88707">
        <ele>406.07</ele>
        <time>2018-11-18T08:29:21Z</time>
      </trkpt>
      <trkpt lat="43.56008" lon="5.88706">
        <ele>407.82</ele>
        <time>2018-11-18T08:29:33Z</time>
      </trkpt>
      <trkpt lat="43.5599" lon="5.88701">
        <ele>409.67</ele>
        <time>2018-11-18T08:29:40Z</time>
      </trkpt>
      <trkpt lat="43.5597" lon="5.88692">
        <ele>410.16</ele>
        <time>2018-11-18T08:29:48Z</time>
      </trkpt>
      <trkpt lat="43.55954" lon="5.8868">
        <ele>411.3</ele>
        <time>2018-11-18T08:29:55Z</time>
      </trkpt>
      <trkpt lat="43.55935" lon="5.88667">
        <ele>412.25</ele>
        <time>2018-11-18T08:30:03Z</time>
      </trkpt>
      <trkpt lat="43.55916" lon="5.88661">
        <ele>413.96</ele>
        <time>2018-11-18T08:30:10Z</time>
      </trkpt>
      <trkpt lat="43.559" lon="5.88649">
        <ele>413.03</ele>
        <time>2018-11-18T08:30:17Z</time>
      </trkpt>
      <trkpt lat="43.55881" lon="5.88637">
        <ele>411.82</ele>
        <time>2018-11-18T08:30:24Z</time>
      </trkpt>
      <trkpt lat="43.55864" lon="5.88625">
        <ele>411.55</ele>
        <time>2018-11-18T08:30:31Z</time>
      </trkpt>
      <trkpt lat="43.55848" lon="5.88614">
        <ele>409.17</ele>
        <time>2018-11-18T08:31:26Z</time>
      </trkpt>
      <trkpt lat="43.55832" lon="5.88593">
        <ele>406.87</ele>
        <time>2018-11-18T08:31:35Z</time>
      </trkpt>
      <trkpt lat="43.55812" lon="5.88582">
        <ele>403.41</ele>
        <time>2018-11-18T08:31:39Z</time>
      </trkpt>
      <trkpt lat="43.55793" lon="5.88575">
        <ele>400.7</ele>
        <time>2018-11-18T08:31:42Z</time>
      </trkpt>
      <trkpt lat="43.55778" lon="5.88562">
        <ele>399.16</ele>
        <time>2018-11-18T08:31:45Z</time>
      </trkpt>
      <trkpt lat="43.55767" lon="5.88537">
        <ele>398.51</ele>
        <time>2018-11-18T08:31:49Z</time>
      </trkpt>
      <trkpt lat="43.55759" lon="5.88509">
        <ele>397.23</ele>
        <time>2018-11-18T08:31:53Z</time>
      </trkpt>
      <trkpt lat="43.55753" lon="5.88479">
        <ele>396.57</ele>
        <time>2018-11-18T08:31:57Z</time>
      </trkpt>
      <trkpt lat="43.55748" lon="5.8845">
        <ele>395.51</ele>
        <time>2018-11-18T08:32:01Z</time>
      </trkpt>
      <trkpt lat="43.55742" lon="5.88421">
        <ele>394.96</ele>
        <time>2018-11-18T08:32:05Z</time>
      </trkpt>
      <trkpt lat="43.55739" lon="5.88395">
        <ele>395.42</ele>
        <time>2018-11-18T08:32:09Z</time>
      </trkpt>
      <trkpt lat="43.55735" lon="5.88371">
        <ele>395.72</ele>
        <time>2018-11-18T08:32:13Z</time>
      </trkpt>
      <trkpt lat="43.55734" lon="5.88345">
        <ele>395.88</ele>
        <time>2018-11-18T08:32:17Z</time>
      </trkpt>
      <trkpt lat="43.55723" lon="5.88323">
        <ele>395.37</ele>
        <time>2018-11-18T08:32:22Z</time>
      </trkpt>
      <trkpt lat="43.55706" lon="5.88304">
        <ele>393.31</ele>
        <time>2018-11-18T08:32:27Z</time>
      </trkpt>
      <trkpt lat="43.55695" lon="5.88279">
        <ele>389.57</ele>
        <time>2018-11-18T08:32:32Z</time>
      </trkpt>
      <trkpt lat="43.55681" lon="5.8826">
        <ele>387.67</ele>
        <time>2018-11-18T08:32:37Z</time>
      </trkpt>
      <trkpt lat="43.55666" lon="5.8824">
        <ele>386.15</ele>
        <time>2018-11-18T08:32:41Z</time>
      </trkpt>
      <trkpt lat="43.55666" lon="5.88211">
        <ele>385.26</ele>
        <time>2018-11-18T08:32:45Z</time>
      </trkpt>
      <trkpt lat="43.55662" lon="5.88182">
        <ele>384.57</ele>
        <time>2018-11-18T08:32:49Z</time>
      </trkpt>
      <trkpt lat="43.55656" lon="5.88156">
        <ele>383.25</ele>
        <time>2018-11-18T08:32:53Z</time>
      </trkpt>
      <trkpt lat="43.55647" lon="5.88131">
        <ele>382.89</ele>
        <time>2018-11-18T08:32:57Z</time>
      </trkpt>
      <trkpt lat="43.55638" lon="5.88108">
        <ele>383.14</ele>
        <time>2018-11-18T08:33:01Z</time>
      </trkpt>
      <trkpt lat="43.55626" lon="5.88087">
        <ele>383.42</ele>
        <time>2018-11-18T08:33:06Z</time>
      </trkpt>
      <trkpt lat="43.55609" lon="5.88086">
        <ele>380.64</ele>
        <time>2018-11-18T08:35:35Z</time>
      </trkpt>
      <trkpt lat="43.55589" lon="5.88084">
        <ele>379.81</ele>
        <time>2018-11-18T08:35:40Z</time>
      </trkpt>
      <trkpt lat="43.55574" lon="5.88068">
        <ele>380.16</ele>
        <time>2018-11-18T08:35:45Z</time>
      </trkpt>
      <trkpt lat="43.55559" lon="5.8805">
        <ele>380.84</ele>
        <time>2018-11-18T08:35:52Z</time>
      </trkpt>
      <trkpt lat="43.55548" lon="5.8803">
        <ele>381.13</ele>
        <time>2018-11-18T08:35:58Z</time>
      </trkpt>
      <trkpt lat="43.5554" lon="5.88005">
        <ele>381.47</ele>
        <time>2018-11-18T08:36:05Z</time>
      </trkpt>
      <trkpt lat="43.55532" lon="5.87982">
        <ele>381.61</ele>
        <time>2018-11-18T08:36:11Z</time>
      </trkpt>
      <trkpt lat="43.55526" lon="5.87957">
        <ele>383.73</ele>
        <time>2018-11-18T08:36:17Z</time>
      </trkpt>
      <trkpt lat="43.55523" lon="5.87933">
        <ele>383.63</ele>
        <time>2018-11-18T08:36:25Z</time>
      </trkpt>
      <trkpt lat="43.55528" lon="5.87908">
        <ele>382.53</ele>
        <time>2018-11-18T08:36:35Z</time>
      </trkpt>
      <trkpt lat="43.55531" lon="5.87883">
        <ele>381.69</ele>
        <time>2018-11-18T08:36:41Z</time>
      </trkpt>
      <trkpt lat="43.55542" lon="5.8786">
        <ele>379.86</ele>
        <time>2018-11-18T08:36:49Z</time>
      </trkpt>
      <trkpt lat="43.55553" lon="5.87839">
        <ele>378.09</ele>
        <time>2018-11-18T08:36:54Z</time>
      </trkpt>
      <trkpt lat="43.55563" lon="5.87815">
        <ele>375.32</ele>
        <time>2018-11-18T08:36:58Z</time>
      </trkpt>
      <trkpt lat="43.55572" lon="5.87787">
        <ele>373.06</ele>
        <time>2018-11-18T08:37:02Z</time>
      </trkpt>
      <trkpt lat="43.55581" lon="5.87763">
        <ele>372.47</ele>
        <time>2018-11-18T08:37:06Z</time>
      </trkpt>
      <trkpt lat="43.55591" lon="5.8774">
        <ele>373.37</ele>
        <time>2018-11-18T08:37:10Z</time>
      </trkpt>
      <trkpt lat="43.55601" lon="5.87713">
        <ele>373.47</ele>
        <time>2018-11-18T08:37:14Z</time>
      </trkpt>
      <trkpt lat="43.55608" lon="5.87688">
        <ele>371.96</ele>
        <time>2018-11-18T08:37:18Z</time>
      </trkpt>
      <trkpt lat="43.55609" lon="5.87659">
        <ele>371.79</ele>
        <time>2018-11-18T08:37:22Z</time>
      </trkpt>
      <trkpt lat="43.55612" lon="5.87634">
        <ele>371.99</ele>
        <time>2018-11-18T08:37:26Z</time>
      </trkpt>
      <trkpt lat="43.55623" lon="5.87612">
        <ele>372.94</ele>
        <time>2018-11-18T08:37:31Z</time>
      </trkpt>
      <trkpt lat="43.55623" lon="5.87587">
        <ele>373.43</ele>
        <time>2018-11-18T08:37:36Z</time>
      </trkpt>
      <trkpt lat="43.55631" lon="5.87565">
        <ele>373.99</ele>
        <time>2018-11-18T08:37:41Z</time>
      </trkpt>
      <trkpt lat="43.55642" lon="5.87545">
        <ele>375.06</ele>
        <time>2018-11-18T08:37:46Z</time>
      </trkpt>
      <trkpt lat="43.55652" lon="5.87521">
        <ele>376.92</ele>
        <time>2018-11-18T08:37:52Z</time>
      </trkpt>
      <trkpt lat="43.55652" lon="5.87495">
        <ele>379.21</ele>
        <time>2018-11-18T08:37:58Z</time>
      </trkpt>
      <trkpt lat="43.55658" lon="5.8747">
        <ele>381.64</ele>
        <time>2018-11-18T08:38:06Z</time>
      </trkpt>
      <trkpt lat="43.55675" lon="5.87458">
        <ele>381.12</ele>
        <time>2018-11-18T08:38:15Z</time>
      </trkpt>
      <trkpt lat="43.55691" lon="5.87446">
        <ele>380.59</ele>
        <time>2018-11-18T08:38:23Z</time>
      </trkpt>
      <trkpt lat="43.55707" lon="5.87431">
        <ele>380.13</ele>
        <time>2018-11-18T08:38:31Z</time>
      </trkpt>
      <trkpt lat="43.55725" lon="5.87428">
        <ele>380.67</ele>
        <time>2018-11-18T08:38:42Z</time>
      </trkpt>
      <trkpt lat="43.55741" lon="5.8744">
        <ele>381.24</ele>
        <time>2018-11-18T08:38:51Z</time>
      </trkpt>
      <trkpt lat="43.55758" lon="5.87451">
        <ele>382.92</ele>
        <time>2018-11-18T08:39:01Z</time>
      </trkpt>
      <trkpt lat="43.55777" lon="5.87445">
        <ele>385.25</ele>
        <time>2018-11-18T08:39:11Z</time>
      </trkpt>
      <trkpt lat="43.55797" lon="5.87437">
        <ele>386.49</ele>
        <time>2018-11-18T08:39:20Z</time>
      </trkpt>
      <trkpt lat="43.55815" lon="5.87431">
        <ele>387.06</ele>
        <time>2018-11-18T08:39:28Z</time>
      </trkpt>
      <trkpt lat="43.55833" lon="5.87421">
        <ele>387.56</ele>
        <time>2018-11-18T08:39:36Z</time>
      </trkpt>
      <trkpt lat="43.55846" lon="5.87404">
        <ele>388.22</ele>
        <time>2018-11-18T08:39:44Z</time>
      </trkpt>
      <trkpt lat="43.55858" lon="5.87383">
        <ele>390.16</ele>
        <time>2018-11-18T08:39:53Z</time>
      </trkpt>
      <trkpt lat="43.55873" lon="5.87368">
        <ele>391.42</ele>
        <time>2018-11-18T08:40:01Z</time>
      </trkpt>
      <trkpt lat="43.55885" lon="5.87349">
        <ele>392.52</ele>
        <time>2018-11-18T08:40:09Z</time>
      </trkpt>
      <trkpt lat="43.55903" lon="5.87343">
        <ele>393.6</ele>
        <time>2018-11-18T08:40:17Z</time>
      </trkpt>
      <trkpt lat="43.55921" lon="5.87332">
        <ele>395.12</ele>
        <time>2018-11-18T08:40:26Z</time>
      </trkpt>
      <trkpt lat="43.55939" lon="5.87326">
        <ele>396.04</ele>
        <time>2018-11-18T08:40:35Z</time>
      </trkpt>
      <trkpt lat="43.55954" lon="5.87311">
        <ele>398.32</ele>
        <time>2018-11-18T08:40:46Z</time>
      </trkpt>
      <trkpt lat="43.55967" lon="5.87291">
        <ele>400.24</ele>
        <time>2018-11-18T08:40:58Z</time>
      </trkpt>
      <trkpt lat="43.55982" lon="5.87277">
        <ele>401.21</ele>
        <time>2018-11-18T08:41:08Z</time>
      </trkpt>
      <trkpt lat="43.55998" lon="5.87264">
        <ele>401.74</ele>
        <time>2018-11-18T08:41:16Z</time>
      </trkpt>
      <trkpt lat="43.56014" lon="5.87252">
        <ele>403.22</ele>
        <time>2018-11-18T08:41:24Z</time>
      </trkpt>
      <trkpt lat="43.56026" lon="5.87233">
        <ele>404.54</ele>
        <time>2018-11-18T08:41:33Z</time>
      </trkpt>
      <trkpt lat="43.56042" lon="5.87217">
        <ele>407.9</ele>
        <time>2018-11-18T08:41:43Z</time>
      </trkpt>
      <trkpt lat="43.56055" lon="5.87198">
        <ele>409.92</ele>
        <time>2018-11-18T08:41:54Z</time>
      </trkpt>
      <trkpt lat="43.56062" lon="5.87174">
        <ele>412.6</ele>
        <time>2018-11-18T08:42:06Z</time>
      </trkpt>
      <trkpt lat="43.56065" lon="5.87149">
        <ele>415.84</ele>
        <time>2018-11-18T08:42:17Z</time>
      </trkpt>
      <trkpt lat="43.56067" lon="5.87124">
        <ele>418.13</ele>
        <time>2018-11-18T08:42:28Z</time>
      </trkpt>
      <trkpt lat="43.56066" lon="5.87098">
        <ele>419.63</ele>
        <time>2018-11-18T08:42:39Z</time>
      </trkpt>
      <trkpt lat="43.56084" lon="5.87095">
        <ele>419.47</ele>
        <time>2018-11-18T08:42:52Z</time>
      </trkpt>
      <trkpt lat="43.56101" lon="5.87108">
        <ele>421.03</ele>
        <time>2018-11-18T08:43:03Z</time>
      </trkpt>
      <trkpt lat="43.56113" lon="5.87127">
        <ele>421.67</ele>
        <time>2018-11-18T08:43:13Z</time>
      </trkpt>
      <trkpt lat="43.5613" lon="5.87139">
        <ele>418.65</ele>
        <time>2018-11-18T08:46:52Z</time>
      </trkpt>
      <trkpt lat="43.56145" lon="5.87154">
        <ele>419.27</ele>
        <time>2018-11-18T08:47:02Z</time>
      </trkpt>
      <trkpt lat="43.56162" lon="5.87166">
        <ele>420.73</ele>
        <time>2018-11-18T08:47:11Z</time>
      </trkpt>
      <trkpt lat="43.5618" lon="5.87172">
        <ele>422.41</ele>
        <time>2018-11-18T08:47:21Z</time>
      </trkpt>
      <trkpt lat="43.56182" lon="5.87196">
        <ele>421.6</ele>
        <time>2018-11-18T08:47:50Z</time>
      </trkpt>
      <trkpt lat="43.56182" lon="5.87224">
        <ele>421.99</ele>
        <time>2018-11-18T08:47:59Z</time>
      </trkpt>
      <trkpt lat="43.56184" lon="5.87252">
        <ele>421.91</ele>
        <time>2018-11-18T08:48:08Z</time>
      </trkpt>
      <trkpt lat="43.56198" lon="5.87268">
        <ele>424.12</ele>
        <time>2018-11-18T08:48:15Z</time>
      </trkpt>
      <trkpt lat="43.56213" lon="5.87285">
        <ele>425.03</ele>
        <time>2018-11-18T08:48:22Z</time>
      </trkpt>
      <trkpt lat="43.56226" lon="5.87307">
        <ele>425.65</ele>
        <time>2018-11-18T08:48:30Z</time>
      </trkpt>
      <trkpt lat="43.5624" lon="5.87325">
        <ele>426.21</ele>
        <time>2018-11-18T08:48:38Z</time>
      </trkpt>
      <trkpt lat="43.56254" lon="5.87344">
        <ele>427.48</ele>
        <time>2018-11-18T08:48:46Z</time>
      </trkpt>
      <trkpt lat="43.56261" lon="5.87368">
        <ele>427.18</ele>
        <time>2018-11-18T08:48:54Z</time>
      </trkpt>
      <trkpt lat="43.5627" lon="5.8739">
        <ele>427.94</ele>
        <time>2018-11-18T08:49:02Z</time>
      </trkpt>
      <trkpt lat="43.56277" lon="5.87415">
        <ele>429.25</ele>
        <time>2018-11-18T08:49:11Z</time>
      </trkpt>
      <trkpt lat="43.56288" lon="5.87435">
        <ele>430.34</ele>
        <time>2018-11-18T08:49:18Z</time>
      </trkpt>
      <trkpt lat="43.56304" lon="5.87451">
        <ele>431.54</ele>
        <time>2018-11-18T08:49:26Z</time>
      </trkpt>
      <trkpt lat="43.56321" lon="5.87462">
        <ele>431.3</ele>
        <time>2018-11-18T08:49:34Z</time>
      </trkpt>
      <trkpt lat="43.56337" lon="5.8748">
        <ele>430.01</ele>
        <time>2018-11-18T08:49:41Z</time>
      </trkpt>
      <trkpt lat="43.5635" lon="5.87499">
        <ele>427.77</ele>
        <time>2018-11-18T08:49:59Z</time>
      </trkpt>
      <trkpt lat="43.56366" lon="5.87509">
        <ele>429.92</ele>
        <time>2018-11-18T08:50:17Z</time>
      </trkpt>
      <trkpt lat="43.56382" lon="5.87521">
        <ele>430.87</ele>
        <time>2018-11-18T08:50:30Z</time>
      </trkpt>
      <trkpt lat="43.56401" lon="5.87515">
        <ele>432.2</ele>
        <time>2018-11-18T08:50:40Z</time>
      </trkpt>
      <trkpt lat="43.5642" lon="5.87513">
        <ele>434.41</ele>
        <time>2018-11-18T08:50:50Z</time>
      </trkpt>
      <trkpt lat="43.56438" lon="5.8752">
        <ele>434.04</ele>
        <time>2018-11-18T08:51:26Z</time>
      </trkpt>
      <trkpt lat="43.56456" lon="5.87515">
        <ele>435.51</ele>
        <time>2018-11-18T08:51:36Z</time>
      </trkpt>
      <trkpt lat="43.56476" lon="5.8751">
        <ele>438.11</ele>
        <time>2018-11-18T08:51:46Z</time>
      </trkpt>
      <trkpt lat="43.56494" lon="5.87507">
        <ele>440.41</ele>
        <time>2018-11-18T08:51:54Z</time>
      </trkpt>
      <trkpt lat="43.56512" lon="5.87515">
        <ele>440.03</ele>
        <time>2018-11-18T08:52:02Z</time>
      </trkpt>
      <trkpt lat="43.56532" lon="5.8752">
        <ele>437</ele>
        <time>2018-11-18T08:52:10Z</time>
      </trkpt>
      <trkpt lat="43.5655" lon="5.87526">
        <ele>436.45</ele>
        <time>2018-11-18T08:52:21Z</time>
      </trkpt>
      <trkpt lat="43.56564" lon="5.87543">
        <ele>438.62</ele>
        <time>2018-11-18T08:52:33Z</time>
      </trkpt>
      <trkpt lat="43.56581" lon="5.87533">
        <ele>442.37</ele>
        <time>2018-11-18T08:52:43Z</time>
      </trkpt>
      <trkpt lat="43.566" lon="5.8753">
        <ele>444.87</ele>
        <time>2018-11-18T08:52:52Z</time>
      </trkpt>
      <trkpt lat="43.56618" lon="5.87532">
        <ele>445.36</ele>
        <time>2018-11-18T08:53:00Z</time>
      </trkpt>
      <trkpt lat="43.56636" lon="5.87538">
        <ele>445.02</ele>
        <time>2018-11-18T08:53:09Z</time>
      </trkpt>
      <trkpt lat="43.56655" lon="5.8754">
        <ele>447.09</ele>
        <time>2018-11-18T08:53:20Z</time>
      </trkpt>
      <trkpt lat="43.56672" lon="5.87527">
        <ele>450.52</ele>
        <time>2018-11-18T08:53:31Z</time>
      </trkpt>
      <trkpt lat="43.56691" lon="5.87528">
        <ele>451.35</ele>
        <time>2018-11-18T08:53:43Z</time>
      </trkpt>
      <trkpt lat="43.56708" lon="5.87537">
        <ele>451.51</ele>
        <time>2018-11-18T08:53:53Z</time>
      </trkpt>
      <trkpt lat="43.56724" lon="5.87525">
        <ele>453.23</ele>
        <time>2018-11-18T08:54:03Z</time>
      </trkpt>
      <trkpt lat="43.5674" lon="5.87512">
        <ele>457.08</ele>
        <time>2018-11-18T08:54:13Z</time>
      </trkpt>
      <trkpt lat="43.56758" lon="5.87512">
        <ele>455.02</ele>
        <time>2018-11-18T08:54:24Z</time>
      </trkpt>
      <trkpt lat="43.56776" lon="5.87519">
        <ele>453.97</ele>
        <time>2018-11-18T08:54:34Z</time>
      </trkpt>
      <trkpt lat="43.56795" lon="5.87523">
        <ele>454.69</ele>
        <time>2018-11-18T08:54:44Z</time>
      </trkpt>
      <trkpt lat="43.56813" lon="5.87529">
        <ele>455.4</ele>
        <time>2018-11-18T08:54:53Z</time>
      </trkpt>
      <trkpt lat="43.56831" lon="5.87528">
        <ele>454.62</ele>
        <time>2018-11-18T08:55:02Z</time>
      </trkpt>
      <trkpt lat="43.56849" lon="5.87533">
        <ele>458.89</ele>
        <time>2018-11-18T08:59:13Z</time>
      </trkpt>
      <trkpt lat="43.56868" lon="5.87539">
        <ele>459.95</ele>
        <time>2018-11-18T08:59:21Z</time>
      </trkpt>
      <trkpt lat="43.56885" lon="5.8755">
        <ele>460.43</ele>
        <time>2018-11-18T08:59:28Z</time>
      </trkpt>
      <trkpt lat="43.56905" lon="5.87557">
        <ele>460.46</ele>
        <time>2018-11-18T08:59:35Z</time>
      </trkpt>
      <trkpt lat="43.56923" lon="5.87561">
        <ele>461.09</ele>
        <time>2018-11-18T08:59:42Z</time>
      </trkpt>
      <trkpt lat="43.56942" lon="5.87562">
        <ele>460.31</ele>
        <time>2018-11-18T08:59:48Z</time>
      </trkpt>
      <trkpt lat="43.56959" lon="5.87575">
        <ele>460.42</ele>
        <time>2018-11-18T08:59:54Z</time>
      </trkpt>
      <trkpt lat="43.56975" lon="5.87592">
        <ele>461.34</ele>
        <time>2018-11-18T09:00:00Z</time>
      </trkpt>
      <trkpt lat="43.5699" lon="5.87609">
        <ele>462.83</ele>
        <time>2018-11-18T09:00:05Z</time>
      </trkpt>
      <trkpt lat="43.57006" lon="5.8763">
        <ele>464.37</ele>
        <time>2018-11-18T09:00:11Z</time>
      </trkpt>
      <trkpt lat="43.57023" lon="5.87645">
        <ele>465.02</ele>
        <time>2018-11-18T09:00:17Z</time>
      </trkpt>
      <trkpt lat="43.57037" lon="5.87662">
        <ele>463.95</ele>
        <time>2018-11-18T09:00:22Z</time>
      </trkpt>
      <trkpt lat="43.57053" lon="5.87677">
        <ele>462.89</ele>
        <time>2018-11-18T09:00:29Z</time>
      </trkpt>
      <trkpt lat="43.57068" lon="5.87693">
        <ele>461.22</ele>
        <time>2018-11-18T09:00:34Z</time>
      </trkpt>
      <trkpt lat="43.57083" lon="5.87707">
        <ele>459.46</ele>
        <time>2018-11-18T09:00:39Z</time>
      </trkpt>
      <trkpt lat="43.57103" lon="5.87713">
        <ele>457.63</ele>
        <time>2018-11-18T09:00:45Z</time>
      </trkpt>
      <trkpt lat="43.57124" lon="5.87716">
        <ele>455.82</ele>
        <time>2018-11-18T09:00:51Z</time>
      </trkpt>
      <trkpt lat="43.57144" lon="5.87713">
        <ele>454.43</ele>
        <time>2018-11-18T09:00:56Z</time>
      </trkpt>
      <trkpt lat="43.57163" lon="5.87723">
        <ele>453.66</ele>
        <time>2018-11-18T09:01:01Z</time>
      </trkpt>
      <trkpt lat="43.57179" lon="5.8771">
        <ele>452.95</ele>
        <time>2018-11-18T09:02:34Z</time>
      </trkpt>
      <trkpt lat="43.57179" lon="5.87683">
        <ele>453.69</ele>
        <time>2018-11-18T09:02:42Z</time>
      </trkpt>
      <trkpt lat="43.57176" lon="5.87657">
        <ele>453.87</ele>
        <time>2018-11-18T09:02:49Z</time>
      </trkpt>
      <trkpt lat="43.57172" lon="5.87633">
        <ele>452.71</ele>
        <time>2018-11-18T09:02:55Z</time>
      </trkpt>
      <trkpt lat="43.5717" lon="5.87605">
        <ele>451.6</ele>
        <time>2018-11-18T09:03:01Z</time>
      </trkpt>
      <trkpt lat="43.57163" lon="5.87582">
        <ele>451.09</ele>
        <time>2018-11-18T09:03:06Z</time>
      </trkpt>
      <trkpt lat="43.57153" lon="5.87558">
        <ele>451.28</ele>
        <time>2018-11-18T09:03:11Z</time>
      </trkpt>
      <trkpt lat="43.57142" lon="5.87536">
        <ele>452.22</ele>
        <time>2018-11-18T09:03:16Z</time>
      </trkpt>
      <trkpt lat="43.57131" lon="5.87514">
        <ele>453.1</ele>
        <time>2018-11-18T09:03:21Z</time>
      </trkpt>
      <trkpt lat="43.57122" lon="5.87488">
        <ele>452.66</ele>
        <time>2018-11-18T09:03:28Z</time>
      </trkpt>
      <trkpt lat="43.57116" lon="5.87464">
        <ele>451.5</ele>
        <time>2018-11-18T09:03:36Z</time>
      </trkpt>
      <trkpt lat="43.57098" lon="5.87461">
        <ele>449.34</ele>
        <time>2018-11-18T09:04:19Z</time>
      </trkpt>
      <trkpt lat="43.57083" lon="5.87445">
        <ele>448.58</ele>
        <time>2018-11-18T09:04:24Z</time>
      </trkpt>
      <trkpt lat="43.57068" lon="5.87425">
        <ele>448.75</ele>
        <time>2018-11-18T09:04:29Z</time>
      </trkpt>
      <trkpt lat="43.57053" lon="5.87408">
        <ele>448.54</ele>
        <time>2018-11-18T09:04:34Z</time>
      </trkpt>
      <trkpt lat="43.5704" lon="5.87389">
        <ele>448.17</ele>
        <time>2018-11-18T09:04:46Z</time>
      </trkpt>
      <trkpt lat="43.57031" lon="5.87366">
        <ele>449.47</ele>
        <time>2018-11-18T09:05:04Z</time>
      </trkpt>
      <trkpt lat="43.57016" lon="5.8735">
        <ele>449.87</ele>
        <time>2018-11-18T09:05:19Z</time>
      </trkpt>
      <trkpt lat="43.57007" lon="5.87327">
        <ele>449.79</ele>
        <time>2018-11-18T09:05:32Z</time>
      </trkpt>
      <trkpt lat="43.57001" lon="5.87302">
        <ele>448.89</ele>
        <time>2018-11-18T09:05:42Z</time>
      </trkpt>
      <trkpt lat="43.56996" lon="5.87274">
        <ele>447.59</ele>
        <time>2018-11-18T09:05:49Z</time>
      </trkpt>
      <trkpt lat="43.56989" lon="5.87248">
        <ele>446.72</ele>
        <time>2018-11-18T09:05:56Z</time>
      </trkpt>
      <trkpt lat="43.56986" lon="5.8722">
        <ele>446.26</ele>
        <time>2018-11-18T09:06:04Z</time>
      </trkpt>
      <trkpt lat="43.5698" lon="5.87194">
        <ele>444.29</ele>
        <time>2018-11-18T09:06:11Z</time>
      </trkpt>
      <trkpt lat="43.56975" lon="5.87169">
        <ele>442.92</ele>
        <time>2018-11-18T09:06:17Z</time>
      </trkpt>
      <trkpt lat="43.56976" lon="5.87141">
        <ele>442.18</ele>
        <time>2018-11-18T09:06:23Z</time>
      </trkpt>
      <trkpt lat="43.56974" lon="5.87115">
        <ele>441.58</ele>
        <time>2018-11-18T09:06:29Z</time>
      </trkpt>
      <trkpt lat="43.56968" lon="5.87088">
        <ele>441.18</ele>
        <time>2018-11-18T09:06:35Z</time>
      </trkpt>
      <trkpt lat="43.5696" lon="5.87064">
        <ele>440.96</ele>
        <time>2018-11-18T09:06:40Z</time>
      </trkpt>
      <trkpt lat="43.56952" lon="5.87037">
        <ele>440.57</ele>
        <time>2018-11-18T09:06:45Z</time>
      </trkpt>
      <trkpt lat="43.56946" lon="5.87007">
        <ele>439.02</ele>
        <time>2018-11-18T09:06:50Z</time>
      </trkpt>
      <trkpt lat="43.56943" lon="5.86981">
        <ele>437.56</ele>
        <time>2018-11-18T09:06:54Z</time>
      </trkpt>
      <trkpt lat="43.56939" lon="5.86952">
        <ele>435.9</ele>
        <time>2018-11-18T09:06:58Z</time>
      </trkpt>
      <trkpt lat="43.56936" lon="5.86921">
        <ele>434.25</ele>
        <time>2018-11-18T09:07:02Z</time>
      </trkpt>
      <trkpt lat="43.56933" lon="5.8689">
        <ele>433.15</ele>
        <time>2018-11-18T09:07:06Z</time>
      </trkpt>
      <trkpt lat="43.56927" lon="5.8686">
        <ele>432.25</ele>
        <time>2018-11-18T09:07:10Z</time>
      </trkpt>
      <trkpt lat="43.56922" lon="5.86831">
        <ele>432.01</ele>
        <time>2018-11-18T09:07:14Z</time>
      </trkpt>
      <trkpt lat="43.56919" lon="5.86805">
        <ele>431.08</ele>
        <time>2018-11-18T09:07:18Z</time>
      </trkpt>
      <trkpt lat="43.56916" lon="5.86779">
        <ele>430.89</ele>
        <time>2018-11-18T09:07:22Z</time>
      </trkpt>
      <trkpt lat="43.56912" lon="5.86754">
        <ele>430.41</ele>
        <time>2018-11-18T09:07:26Z</time>
      </trkpt>
      <trkpt lat="43.56911" lon="5.86729">
        <ele>429.76</ele>
        <time>2018-11-18T09:07:30Z</time>
      </trkpt>
      <trkpt lat="43.56909" lon="5.86704">
        <ele>430.5</ele>
        <time>2018-11-18T09:07:34Z</time>
      </trkpt>
      <trkpt lat="43.56915" lon="5.86675">
        <ele>430.29</ele>
        <time>2018-11-18T09:07:39Z</time>
      </trkpt>
      <trkpt lat="43.56919" lon="5.86649">
        <ele>430.65</ele>
        <time>2018-11-18T09:07:46Z</time>
      </trkpt>
      <trkpt lat="43.56918" lon="5.86624">
        <ele>427.96</ele>
        <time>2018-11-18T09:08:07Z</time>
      </trkpt>
      <trkpt lat="43.56912" lon="5.86601">
        <ele>427.57</ele>
        <time>2018-11-18T09:08:30Z</time>
      </trkpt>
      <trkpt lat="43.56896" lon="5.86587">
        <ele>428.22</ele>
        <time>2018-11-18T09:08:42Z</time>
      </trkpt>
      <trkpt lat="43.5688" lon="5.86576">
        <ele>430.29</ele>
        <time>2018-11-18T09:08:51Z</time>
      </trkpt>
      <trkpt lat="43.56869" lon="5.86554">
        <ele>427.22</ele>
        <time>2018-11-18T09:10:04Z</time>
      </trkpt>
      <trkpt lat="43.56855" lon="5.86537">
        <ele>425.99</ele>
        <time>2018-11-18T09:10:16Z</time>
      </trkpt>
      <trkpt lat="43.56838" lon="5.86529">
        <ele>425.67</ele>
        <time>2018-11-18T09:10:27Z</time>
      </trkpt>
      <trkpt lat="43.56838" lon="5.86503">
        <ele>426.26</ele>
        <time>2018-11-18T09:10:35Z</time>
      </trkpt>
      <trkpt lat="43.56843" lon="5.86477">
        <ele>426.57</ele>
        <time>2018-11-18T09:10:43Z</time>
      </trkpt>
      <trkpt lat="43.5685" lon="5.86452">
        <ele>426.86</ele>
        <time>2018-11-18T09:10:52Z</time>
      </trkpt>
      <trkpt lat="43.56853" lon="5.86424">
        <ele>426.18</ele>
        <time>2018-11-18T09:11:00Z</time>
      </trkpt>
      <trkpt lat="43.56848" lon="5.86398">
        <ele>426.27</ele>
        <time>2018-11-18T09:11:07Z</time>
      </trkpt>
      <trkpt lat="43.56848" lon="5.86371">
        <ele>427.3</ele>
        <time>2018-11-18T09:11:14Z</time>
      </trkpt>
      <trkpt lat="43.56849" lon="5.86345">
        <ele>426.7</ele>
        <time>2018-11-18T09:11:20Z</time>
      </trkpt>
      <trkpt lat="43.56847" lon="5.8632">
        <ele>427.55</ele>
        <time>2018-11-18T09:11:26Z</time>
      </trkpt>
      <trkpt lat="43.56847" lon="5.86292">
        <ele>427.17</ele>
        <time>2018-11-18T09:11:33Z</time>
      </trkpt>
      <trkpt lat="43.56849" lon="5.86266">
        <ele>427.65</ele>
        <time>2018-11-18T09:11:40Z</time>
      </trkpt>
      <trkpt lat="43.5685" lon="5.86239">
        <ele>428.34</ele>
        <time>2018-11-18T09:11:47Z</time>
      </trkpt>
      <trkpt lat="43.5685" lon="5.86212">
        <ele>428.95</ele>
        <time>2018-11-18T09:11:54Z</time>
      </trkpt>
      <trkpt lat="43.5685" lon="5.86187">
        <ele>429.35</ele>
        <time>2018-11-18T09:12:01Z</time>
      </trkpt>
      <trkpt lat="43.56832" lon="5.86183">
        <ele>431.14</ele>
        <time>2018-11-18T09:12:53Z</time>
      </trkpt>
      <trkpt lat="43.56813" lon="5.86186">
        <ele>431.69</ele>
        <time>2018-11-18T09:13:00Z</time>
      </trkpt>
      <trkpt lat="43.56795" lon="5.86185">
        <ele>432.89</ele>
        <time>2018-11-18T09:13:06Z</time>
      </trkpt>
      <trkpt lat="43.56777" lon="5.86185">
        <ele>432.4</ele>
        <time>2018-11-18T09:13:11Z</time>
      </trkpt>
      <trkpt lat="43.56757" lon="5.86186">
        <ele>432.07</ele>
        <time>2018-11-18T09:13:15Z</time>
      </trkpt>
      <trkpt lat="43.56738" lon="5.86179">
        <ele>431.75</ele>
        <time>2018-11-18T09:13:20Z</time>
      </trkpt>
      <trkpt lat="43.56719" lon="5.86174">
        <ele>432.15</ele>
        <time>2018-11-18T09:13:25Z</time>
      </trkpt>
      <trkpt lat="43.567" lon="5.86171">
        <ele>432.58</ele>
        <time>2018-11-18T09:13:30Z</time>
      </trkpt>
      <trkpt lat="43.56681" lon="5.86164">
        <ele>432.96</ele>
        <time>2018-11-18T09:13:35Z</time>
      </trkpt>
      <trkpt lat="43.56661" lon="5.86158">
        <ele>434.56</ele>
        <time>2018-11-18T09:13:41Z</time>
      </trkpt>
      <trkpt lat="43.56642" lon="5.86162">
        <ele>434.3</ele>
        <time>2018-11-18T09:13:47Z</time>
      </trkpt>
      <trkpt lat="43.56624" lon="5.86169">
        <ele>435.96</ele>
        <time>2018-11-18T09:13:53Z</time>
      </trkpt>
      <trkpt lat="43.56604" lon="5.86179">
        <ele>438.69</ele>
        <time>2018-11-18T09:14:00Z</time>
      </trkpt>
      <trkpt lat="43.56586" lon="5.86183">
        <ele>441.36</ele>
        <time>2018-11-18T09:14:06Z</time>
      </trkpt>
      <trkpt lat="43.56568" lon="5.86188">
        <ele>442.87</ele>
        <time>2018-11-18T09:14:12Z</time>
      </trkpt>
      <trkpt lat="43.56552" lon="5.86204">
        <ele>445.56</ele>
        <time>2018-11-18T09:14:18Z</time>
      </trkpt>
      <trkpt lat="43.56534" lon="5.86218">
        <ele>444.35</ele>
        <time>2018-11-18T09:14:24Z</time>
      </trkpt>
      <trkpt lat="43.56518" lon="5.86229">
        <ele>443.92</ele>
        <time>2018-11-18T09:14:29Z</time>
      </trkpt>
      <trkpt lat="43.56504" lon="5.86245">
        <ele>441.18</ele>
        <time>2018-11-18T09:14:36Z</time>
      </trkpt>
      <trkpt lat="43.56486" lon="5.86255">
        <ele>436.59</ele>
        <time>2018-11-18T09:17:22Z</time>
      </trkpt>
      <trkpt lat="43.56467" lon="5.86267">
        <ele>436.48</ele>
        <time>2018-11-18T09:17:28Z</time>
      </trkpt>
      <trkpt lat="43.56446" lon="5.86276">
        <ele>436.03</ele>
        <time>2018-11-18T09:17:34Z</time>
      </trkpt>
      <trkpt lat="43.56424" lon="5.8628">
        <ele>435.4</ele>
        <time>2018-11-18T09:17:39Z</time>
      </trkpt>
      <trkpt lat="43.56402" lon="5.86287">
        <ele>434.56</ele>
        <time>2018-11-18T09:17:44Z</time>
      </trkpt>
      <trkpt lat="43.56384" lon="5.86285">
        <ele>433.6</ele>
        <time>2018-11-18T09:17:48Z</time>
      </trkpt>
      <trkpt lat="43.56365" lon="5.86285">
        <ele>432.54</ele>
        <time>2018-11-18T09:17:52Z</time>
      </trkpt>
      <trkpt lat="43.56346" lon="5.86291">
        <ele>431.84</ele>
        <time>2018-11-18T09:17:56Z</time>
      </trkpt>
      <trkpt lat="43.56327" lon="5.8629">
        <ele>430.94</ele>
        <time>2018-11-18T09:18:00Z</time>
      </trkpt>
      <trkpt lat="43.56307" lon="5.8629">
        <ele>429.75</ele>
        <time>2018-11-18T09:18:04Z</time>
      </trkpt>
      <trkpt lat="43.56287" lon="5.86286">
        <ele>427.72</ele>
        <time>2018-11-18T09:18:08Z</time>
      </trkpt>
      <trkpt lat="43.56269" lon="5.8628">
        <ele>425.42</ele>
        <time>2018-11-18T09:18:23Z</time>
      </trkpt>
      <trkpt lat="43.56251" lon="5.86281">
        <ele>425.5</ele>
        <time>2018-11-18T09:18:49Z</time>
      </trkpt>
      <trkpt lat="43.56233" lon="5.8628">
        <ele>426.91</ele>
        <time>2018-11-18T09:18:58Z</time>
      </trkpt>
      <trkpt lat="43.56214" lon="5.86284">
        <ele>427.94</ele>
        <time>2018-11-18T09:19:05Z</time>
      </trkpt>
      <trkpt lat="43.56197" lon="5.86291">
        <ele>428.25</ele>
        <time>2018-11-18T09:19:10Z</time>
      </trkpt>
      <trkpt lat="43.56178" lon="5.86299">
        <ele>428.09</ele>
        <time>2018-11-18T09:19:16Z</time>
      </trkpt>
      <trkpt lat="43.56161" lon="5.86307">
        <ele>427.17</ele>
        <time>2018-11-18T09:19:21Z</time>
      </trkpt>
      <trkpt lat="43.5614" lon="5.86314">
        <ele>425.5</ele>
        <time>2018-11-18T09:19:26Z</time>
      </trkpt>
      <trkpt lat="43.56121" lon="5.86317">
        <ele>422.92</ele>
        <time>2018-11-18T09:19:31Z</time>
      </trkpt>
      <trkpt lat="43.56103" lon="5.86315">
        <ele>419.1</ele>
        <time>2018-11-18T09:19:35Z</time>
      </trkpt>
      <trkpt lat="43.56081" lon="5.86307">
        <ele>415.81</ele>
        <time>2018-11-18T09:19:39Z</time>
      </trkpt>
      <trkpt lat="43.56062" lon="5.86302">
        <ele>412.75</ele>
        <time>2018-11-18T09:19:43Z</time>
      </trkpt>
      <trkpt lat="43.56043" lon="5.86293">
        <ele>409.72</ele>
        <time>2018-11-18T09:19:46Z</time>
      </trkpt>
      <trkpt lat="43.56023" lon="5.86283">
        <ele>408.28</ele>
        <time>2018-11-18T09:19:49Z</time>
      </trkpt>
      <trkpt lat="43.56002" lon="5.86275">
        <ele>406.15</ele>
        <time>2018-11-18T09:19:53Z</time>
      </trkpt>
      <trkpt lat="43.55982" lon="5.86268">
        <ele>402.72</ele>
        <time>2018-11-18T09:19:59Z</time>
      </trkpt>
      <trkpt lat="43.55964" lon="5.86261">
        <ele>399.1</ele>
        <time>2018-11-18T09:20:04Z</time>
      </trkpt>
      <trkpt lat="43.55945" lon="5.86257">
        <ele>395.36</ele>
        <time>2018-11-18T09:20:09Z</time>
      </trkpt>
      <trkpt lat="43.55929" lon="5.86245">
        <ele>390.47</ele>
        <time>2018-11-18T09:20:18Z</time>
      </trkpt>
      <trkpt lat="43.55942" lon="5.86228">
        <ele>388.59</ele>
        <time>2018-11-18T09:20:31Z</time>
      </trkpt>
      <trkpt lat="43.55958" lon="5.86212">
        <ele>389.44</ele>
        <time>2018-11-18T09:20:39Z</time>
      </trkpt>
      <trkpt lat="43.55974" lon="5.86196">
        <ele>390.16</ele>
        <time>2018-11-18T09:20:47Z</time>
      </trkpt>
      <trkpt lat="43.5598" lon="5.86169">
        <ele>391.43</ele>
        <time>2018-11-18T09:20:55Z</time>
      </trkpt>
      <trkpt lat="43.55989" lon="5.86146">
        <ele>390.93</ele>
        <time>2018-11-18T09:21:04Z</time>
      </trkpt>
      <trkpt lat="43.56004" lon="5.86131">
        <ele>391.31</ele>
        <time>2018-11-18T09:21:11Z</time>
      </trkpt>
      <trkpt lat="43.56002" lon="5.86104">
        <ele>390.48</ele>
        <time>2018-11-18T09:21:18Z</time>
      </trkpt>
      <trkpt lat="43.55997" lon="5.86078">
        <ele>389.23</ele>
        <time>2018-11-18T09:21:24Z</time>
      </trkpt>
      <trkpt lat="43.56001" lon="5.86052">
        <ele>388.72</ele>
        <time>2018-11-18T09:21:39Z</time>
      </trkpt>
      <trkpt lat="43.55994" lon="5.86027">
        <ele>388.19</ele>
        <time>2018-11-18T09:21:48Z</time>
      </trkpt>
      <trkpt lat="43.55986" lon="5.86003">
        <ele>388.92</ele>
        <time>2018-11-18T09:21:55Z</time>
      </trkpt>
      <trkpt lat="43.55983" lon="5.85978">
        <ele>389.05</ele>
        <time>2018-11-18T09:22:02Z</time>
      </trkpt>
      <trkpt lat="43.55987" lon="5.85949">
        <ele>390.41</ele>
        <time>2018-11-18T09:22:10Z</time>
      </trkpt>
      <trkpt lat="43.55995" lon="5.85923">
        <ele>390.42</ele>
        <time>2018-11-18T09:22:17Z</time>
      </trkpt>
      <trkpt lat="43.56011" lon="5.8591">
        <ele>391.03</ele>
        <time>2018-11-18T09:22:23Z</time>
      </trkpt>
      <trkpt lat="43.56029" lon="5.85902">
        <ele>393.12</ele>
        <time>2018-11-18T09:22:29Z</time>
      </trkpt>
      <trkpt lat="43.56046" lon="5.85892">
        <ele>394.78</ele>
        <time>2018-11-18T09:22:35Z</time>
      </trkpt>
      <trkpt lat="43.56062" lon="5.85876">
        <ele>396.63</ele>
        <time>2018-11-18T09:22:41Z</time>
      </trkpt>
      <trkpt lat="43.56071" lon="5.85852">
        <ele>397.34</ele>
        <time>2018-11-18T09:22:48Z</time>
      </trkpt>
      <trkpt lat="43.56081" lon="5.85829">
        <ele>396.54</ele>
        <time>2018-11-18T09:22:57Z</time>
      </trkpt>
      <trkpt lat="43.56084" lon="5.85803">
        <ele>395.67</ele>
        <time>2018-11-18T09:23:04Z</time>
      </trkpt>
      <trkpt lat="43.56083" lon="5.85774">
        <ele>393.73</ele>
        <time>2018-11-18T09:23:11Z</time>
      </trkpt>
      <trkpt lat="43.56079" lon="5.85748">
        <ele>393.45</ele>
        <time>2018-11-18T09:23:17Z</time>
      </trkpt>
      <trkpt lat="43.56072" lon="5.85722">
        <ele>394.58</ele>
        <time>2018-11-18T09:23:23Z</time>
      </trkpt>
      <trkpt lat="43.56062" lon="5.85698">
        <ele>396.07</ele>
        <time>2018-11-18T09:23:29Z</time>
      </trkpt>
      <trkpt lat="43.56061" lon="5.85669">
        <ele>397.04</ele>
        <time>2018-11-18T09:23:35Z</time>
      </trkpt>
      <trkpt lat="43.56059" lon="5.85642">
        <ele>396.81</ele>
        <time>2018-11-18T09:23:41Z</time>
      </trkpt>
      <trkpt lat="43.56053" lon="5.85616">
        <ele>398.68</ele>
        <time>2018-11-18T09:23:48Z</time>
      </trkpt>
      <trkpt lat="43.56055" lon="5.85589">
        <ele>399.48</ele>
        <time>2018-11-18T09:23:55Z</time>
      </trkpt>
      <trkpt lat="43.56054" lon="5.85562">
        <ele>399.57</ele>
        <time>2018-11-18T09:24:02Z</time>
      </trkpt>
      <trkpt lat="43.56055" lon="5.85537">
        <ele>399.82</ele>
        <time>2018-11-18T09:24:09Z</time>
      </trkpt>
      <trkpt lat="43.56057" lon="5.85511">
        <ele>401.49</ele>
        <time>2018-11-18T09:24:17Z</time>
      </trkpt>
      <trkpt lat="43.56057" lon="5.85484">
        <ele>399.99</ele>
        <time>2018-11-18T09:24:24Z</time>
      </trkpt>
      <trkpt lat="43.5606" lon="5.85456">
        <ele>401.29</ele>
        <time>2018-11-18T09:24:31Z</time>
      </trkpt>
      <trkpt lat="43.56062" lon="5.85431">
        <ele>401.46</ele>
        <time>2018-11-18T09:24:37Z</time>
      </trkpt>
      <trkpt lat="43.5607" lon="5.85405">
        <ele>403.11</ele>
        <time>2018-11-18T09:24:45Z</time>
      </trkpt>
      <trkpt lat="43.56077" lon="5.85382">
        <ele>402.85</ele>
        <time>2018-11-18T09:24:52Z</time>
      </trkpt>
      <trkpt lat="43.5607" lon="5.85358">
        <ele>402.16</ele>
        <time>2018-11-18T09:24:58Z</time>
      </trkpt>
      <trkpt lat="43.5608" lon="5.85336">
        <ele>403.04</ele>
        <time>2018-11-18T09:25:05Z</time>
      </trkpt>
      <trkpt lat="43.56091" lon="5.85313">
        <ele>403.96</ele>
        <time>2018-11-18T09:25:14Z</time>
      </trkpt>
      <trkpt lat="43.56089" lon="5.85287">
        <ele>405.05</ele>
        <time>2018-11-18T09:25:22Z</time>
      </trkpt>
      <trkpt lat="43.56076" lon="5.85267">
        <ele>405.81</ele>
        <time>2018-11-18T09:25:29Z</time>
      </trkpt>
      <trkpt lat="43.56059" lon="5.85255">
        <ele>407.24</ele>
        <time>2018-11-18T09:25:36Z</time>
      </trkpt>
      <trkpt lat="43.56045" lon="5.85238">
        <ele>407.77</ele>
        <time>2018-11-18T09:25:43Z</time>
      </trkpt>
      <trkpt lat="43.56033" lon="5.85217">
        <ele>409.36</ele>
        <time>2018-11-18T09:25:51Z</time>
      </trkpt>
      <trkpt lat="43.56021" lon="5.85198">
        <ele>408.99</ele>
        <time>2018-11-18T09:25:58Z</time>
      </trkpt>
      <trkpt lat="43.56011" lon="5.85176">
        <ele>410.23</ele>
        <time>2018-11-18T09:26:05Z</time>
      </trkpt>
      <trkpt lat="43.55996" lon="5.85157">
        <ele>411.62</ele>
        <time>2018-11-18T09:26:13Z</time>
      </trkpt>
      <trkpt lat="43.5598" lon="5.85143">
        <ele>412.88</ele>
        <time>2018-11-18T09:26:20Z</time>
      </trkpt>
      <trkpt lat="43.55965" lon="5.85129">
        <ele>412.89</ele>
        <time>2018-11-18T09:26:27Z</time>
      </trkpt>
      <trkpt lat="43.55954" lon="5.85105">
        <ele>412.28</ele>
        <time>2018-11-18T09:26:35Z</time>
      </trkpt>
      <trkpt lat="43.55944" lon="5.85081">
        <ele>412.82</ele>
        <time>2018-11-18T09:26:43Z</time>
      </trkpt>
      <trkpt lat="43.55935" lon="5.85056">
        <ele>413.75</ele>
        <time>2018-11-18T09:26:51Z</time>
      </trkpt>
      <trkpt lat="43.55954" lon="5.85065">
        <ele>419.56</ele>
        <time>2018-11-18T09:27:10Z</time>
      </trkpt>
      <trkpt lat="43.5597" lon="5.85081">
        <ele>422.37</ele>
        <time>2018-11-18T09:27:17Z</time>
      </trkpt>
      <trkpt lat="43.55989" lon="5.85086">
        <ele>422.05</ele>
        <time>2018-11-18T09:27:24Z</time>
      </trkpt>
      <trkpt lat="43.56008" lon="5.85095">
        <ele>423.11</ele>
        <time>2018-11-18T09:27:32Z</time>
      </trkpt>
      <trkpt lat="43.56026" lon="5.85087">
        <ele>422.88</ele>
        <time>2018-11-18T09:27:40Z</time>
      </trkpt>
      <trkpt lat="43.56022" lon="5.85062">
        <ele>424.58</ele>
        <time>2018-11-18T09:27:50Z</time>
      </trkpt>
      <trkpt lat="43.56012" lon="5.85039">
        <ele>425.7</ele>
        <time>2018-11-18T09:27:59Z</time>
      </trkpt>
      <trkpt lat="43.56001" lon="5.85015">
        <ele>427.82</ele>
        <time>2018-11-18T09:28:08Z</time>
      </trkpt>
      <trkpt lat="43.55995" lon="5.84991">
        <ele>428.06</ele>
        <time>2018-11-18T09:28:16Z</time>
      </trkpt>
      <trkpt lat="43.55987" lon="5.84968">
        <ele>427.97</ele>
        <time>2018-11-18T09:28:24Z</time>
      </trkpt>
      <trkpt lat="43.5597" lon="5.84955">
        <ele>429.28</ele>
        <time>2018-11-18T09:28:32Z</time>
      </trkpt>
      <trkpt lat="43.55955" lon="5.84939">
        <ele>430.54</ele>
        <time>2018-11-18T09:28:40Z</time>
      </trkpt>
      <trkpt lat="43.55944" lon="5.84918">
        <ele>432.15</ele>
        <time>2018-11-18T09:28:48Z</time>
      </trkpt>
      <trkpt lat="43.55942" lon="5.84891">
        <ele>432.9</ele>
        <time>2018-11-18T09:28:56Z</time>
      </trkpt>
      <trkpt lat="43.5595" lon="5.84869">
        <ele>433.67</ele>
        <time>2018-11-18T09:29:03Z</time>
      </trkpt>
      <trkpt lat="43.55948" lon="5.84842">
        <ele>433.38</ele>
        <time>2018-11-18T09:29:10Z</time>
      </trkpt>
      <trkpt lat="43.55952" lon="5.84814">
        <ele>435.3</ele>
        <time>2018-11-18T09:29:18Z</time>
      </trkpt>
      <trkpt lat="43.55962" lon="5.84791">
        <ele>436.46</ele>
        <time>2018-11-18T09:29:25Z</time>
      </trkpt>
      <trkpt lat="43.55969" lon="5.84767">
        <ele>441.83</ele>
        <time>2018-11-18T09:35:00Z</time>
      </trkpt>
      <trkpt lat="43.55981" lon="5.84742">
        <ele>439.5</ele>
        <time>2018-11-18T09:35:06Z</time>
      </trkpt>
      <trkpt lat="43.55992" lon="5.84718">
        <ele>437.5</ele>
        <time>2018-11-18T09:35:10Z</time>
      </trkpt>
      <trkpt lat="43.56004" lon="5.8469">
        <ele>434.2</ele>
        <time>2018-11-18T09:35:14Z</time>
      </trkpt>
      <trkpt lat="43.56016" lon="5.84666">
        <ele>432.34</ele>
        <time>2018-11-18T09:35:17Z</time>
      </trkpt>
      <trkpt lat="43.56028" lon="5.84642">
        <ele>430.7</ele>
        <time>2018-11-18T09:35:20Z</time>
      </trkpt>
      <trkpt lat="43.56042" lon="5.84618">
        <ele>429.28</ele>
        <time>2018-11-18T09:35:23Z</time>
      </trkpt>
      <trkpt lat="43.5606" lon="5.846">
        <ele>428.28</ele>
        <time>2018-11-18T09:35:26Z</time>
      </trkpt>
      <trkpt lat="43.56079" lon="5.84585">
        <ele>427.07</ele>
        <time>2018-11-18T09:35:29Z</time>
      </trkpt>
      <trkpt lat="43.56099" lon="5.84573">
        <ele>426.16</ele>
        <time>2018-11-18T09:35:32Z</time>
      </trkpt>
      <trkpt lat="43.56119" lon="5.84563">
        <ele>425.4</ele>
        <time>2018-11-18T09:35:35Z</time>
      </trkpt>
      <trkpt lat="43.56139" lon="5.84556">
        <ele>424.35</ele>
        <time>2018-11-18T09:35:38Z</time>
      </trkpt>
      <trkpt lat="43.56159" lon="5.84544">
        <ele>423.87</ele>
        <time>2018-11-18T09:35:42Z</time>
      </trkpt>
      <trkpt lat="43.56173" lon="5.84525">
        <ele>423.87</ele>
        <time>2018-11-18T09:35:47Z</time>
      </trkpt>
      <trkpt lat="43.56188" lon="5.84505">
        <ele>424.09</ele>
        <time>2018-11-18T09:35:52Z</time>
      </trkpt>
      <trkpt lat="43.56196" lon="5.84481">
        <ele>425.59</ele>
        <time>2018-11-18T09:35:57Z</time>
      </trkpt>
      <trkpt lat="43.56207" lon="5.84459">
        <ele>425.36</ele>
        <time>2018-11-18T09:36:02Z</time>
      </trkpt>
      <trkpt lat="43.56208" lon="5.8443">
        <ele>425.73</ele>
        <time>2018-11-18T09:36:07Z</time>
      </trkpt>
      <trkpt lat="43.56204" lon="5.844">
        <ele>426.61</ele>
        <time>2018-11-18T09:36:12Z</time>
      </trkpt>
      <trkpt lat="43.56198" lon="5.84374">
        <ele>426.96</ele>
        <time>2018-11-18T09:36:17Z</time>
      </trkpt>
      <trkpt lat="43.56194" lon="5.84349">
        <ele>427.51</ele>
        <time>2018-11-18T09:36:22Z</time>
      </trkpt>
      <trkpt lat="43.56189" lon="5.8432">
        <ele>427.05</ele>
        <time>2018-11-18T09:36:28Z</time>
      </trkpt>
      <trkpt lat="43.5618" lon="5.84295">
        <ele>427.85</ele>
        <time>2018-11-18T09:36:34Z</time>
      </trkpt>
      <trkpt lat="43.56173" lon="5.84271">
        <ele>429.32</ele>
        <time>2018-11-18T09:36:40Z</time>
      </trkpt>
      <trkpt lat="43.56169" lon="5.84243">
        <ele>429.75</ele>
        <time>2018-11-18T09:36:47Z</time>
      </trkpt>
      <trkpt lat="43.56173" lon="5.84216">
        <ele>431.09</ele>
        <time>2018-11-18T09:36:54Z</time>
      </trkpt>
      <trkpt lat="43.5618" lon="5.84189">
        <ele>431.69</ele>
        <time>2018-11-18T09:37:01Z</time>
      </trkpt>
      <trkpt lat="43.56181" lon="5.84163">
        <ele>432.1</ele>
        <time>2018-11-18T09:37:10Z</time>
      </trkpt>
      <trkpt lat="43.56183" lon="5.84136">
        <ele>436.97</ele>
        <time>2018-11-18T09:37:20Z</time>
      </trkpt>
      <trkpt lat="43.56189" lon="5.84111">
        <ele>436.39</ele>
        <time>2018-11-18T09:37:27Z</time>
      </trkpt>
      <trkpt lat="43.56188" lon="5.84084">
        <ele>436.83</ele>
        <time>2018-11-18T09:37:34Z</time>
      </trkpt>
      <trkpt lat="43.56186" lon="5.84058">
        <ele>436.87</ele>
        <time>2018-11-18T09:37:41Z</time>
      </trkpt>
      <trkpt lat="43.56183" lon="5.84031">
        <ele>437.12</ele>
        <time>2018-11-18T09:37:48Z</time>
      </trkpt>
      <trkpt lat="43.56172" lon="5.84007">
        <ele>437.61</ele>
        <time>2018-11-18T09:37:55Z</time>
      </trkpt>
      <trkpt lat="43.5617" lon="5.83979">
        <ele>438.8</ele>
        <time>2018-11-18T09:38:02Z</time>
      </trkpt>
      <trkpt lat="43.56164" lon="5.83952">
        <ele>440.02</ele>
        <time>2018-11-18T09:38:09Z</time>
      </trkpt>
      <trkpt lat="43.56161" lon="5.83925">
        <ele>441.09</ele>
        <time>2018-11-18T09:38:16Z</time>
      </trkpt>
      <trkpt lat="43.56159" lon="5.83898">
        <ele>441.94</ele>
        <time>2018-11-18T09:38:23Z</time>
      </trkpt>
      <trkpt lat="43.56151" lon="5.83873">
        <ele>443.18</ele>
        <time>2018-11-18T09:38:30Z</time>
      </trkpt>
      <trkpt lat="43.56139" lon="5.8385">
        <ele>444.32</ele>
        <time>2018-11-18T09:38:37Z</time>
      </trkpt>
      <trkpt lat="43.56124" lon="5.83831">
        <ele>444.57</ele>
        <time>2018-11-18T09:38:44Z</time>
      </trkpt>
      <trkpt lat="43.5611" lon="5.83815">
        <ele>444.98</ele>
        <time>2018-11-18T09:38:51Z</time>
      </trkpt>
      <trkpt lat="43.56093" lon="5.83803">
        <ele>446.04</ele>
        <time>2018-11-18T09:39:01Z</time>
      </trkpt>
      <trkpt lat="43.56077" lon="5.83789">
        <ele>447.55</ele>
        <time>2018-11-18T09:39:12Z</time>
      </trkpt>
      <trkpt lat="43.56065" lon="5.8377">
        <ele>448.72</ele>
        <time>2018-11-18T09:39:23Z</time>
      </trkpt>
      <trkpt lat="43.56052" lon="5.8375">
        <ele>449.74</ele>
        <time>2018-11-18T09:39:33Z</time>
      </trkpt>
      <trkpt lat="43.56036" lon="5.83733">
        <ele>450.89</ele>
        <time>2018-11-18T09:39:42Z</time>
      </trkpt>
      <trkpt lat="43.56019" lon="5.83717">
        <ele>451.58</ele>
        <time>2018-11-18T09:39:50Z</time>
      </trkpt>
      <trkpt lat="43.56002" lon="5.83706">
        <ele>451.45</ele>
        <time>2018-11-18T09:39:57Z</time>
      </trkpt>
      <trkpt lat="43.55996" lon="5.83679">
        <ele>451.64</ele>
        <time>2018-11-18T09:40:04Z</time>
      </trkpt>
      <trkpt lat="43.55982" lon="5.83661">
        <ele>451.54</ele>
        <time>2018-11-18T09:40:11Z</time>
      </trkpt>
      <trkpt lat="43.55971" lon="5.83636">
        <ele>452.6</ele>
        <time>2018-11-18T09:40:19Z</time>
      </trkpt>
      <trkpt lat="43.55959" lon="5.83615">
        <ele>454.17</ele>
        <time>2018-11-18T09:40:26Z</time>
      </trkpt>
      <trkpt lat="43.55948" lon="5.83593">
        <ele>455.84</ele>
        <time>2018-11-18T09:40:34Z</time>
      </trkpt>
      <trkpt lat="43.55935" lon="5.83573">
        <ele>456.83</ele>
        <time>2018-11-18T09:40:43Z</time>
      </trkpt>
      <trkpt lat="43.55925" lon="5.83551">
        <ele>456.79</ele>
        <time>2018-11-18T09:40:54Z</time>
      </trkpt>
      <trkpt lat="43.55921" lon="5.83525">
        <ele>457.02</ele>
        <time>2018-11-18T09:41:02Z</time>
      </trkpt>
      <trkpt lat="43.55914" lon="5.83501">
        <ele>457.29</ele>
        <time>2018-11-18T09:41:09Z</time>
      </trkpt>
      <trkpt lat="43.55903" lon="5.83477">
        <ele>457.57</ele>
        <time>2018-11-18T09:41:17Z</time>
      </trkpt>
      <trkpt lat="43.5589" lon="5.83459">
        <ele>457.66</ele>
        <time>2018-11-18T09:41:25Z</time>
      </trkpt>
      <trkpt lat="43.55877" lon="5.83442">
        <ele>457.95</ele>
        <time>2018-11-18T09:41:32Z</time>
      </trkpt>
      <trkpt lat="43.55864" lon="5.83422">
        <ele>459.06</ele>
        <time>2018-11-18T09:41:41Z</time>
      </trkpt>
      <trkpt lat="43.55858" lon="5.83397">
        <ele>459.46</ele>
        <time>2018-11-18T09:41:49Z</time>
      </trkpt>
      <trkpt lat="43.55852" lon="5.83374">
        <ele>459.95</ele>
        <time>2018-11-18T09:41:57Z</time>
      </trkpt>
      <trkpt lat="43.5585" lon="5.83347">
        <ele>459.34</ele>
        <time>2018-11-18T09:42:06Z</time>
      </trkpt>
      <trkpt lat="43.55843" lon="5.83322">
        <ele>459.76</ele>
        <time>2018-11-18T09:43:23Z</time>
      </trkpt>
      <trkpt lat="43.55831" lon="5.83302">
        <ele>460.07</ele>
        <time>2018-11-18T09:43:33Z</time>
      </trkpt>
      <trkpt lat="43.55831" lon="5.83277">
        <ele>459.16</ele>
        <time>2018-11-18T09:43:40Z</time>
      </trkpt>
      <trkpt lat="43.55818" lon="5.83258">
        <ele>458.59</ele>
        <time>2018-11-18T09:43:47Z</time>
      </trkpt>
      <trkpt lat="43.55799" lon="5.83253">
        <ele>459.54</ele>
        <time>2018-11-18T09:43:58Z</time>
      </trkpt>
      <trkpt lat="43.55781" lon="5.83251">
        <ele>460.92</ele>
        <time>2018-11-18T09:44:07Z</time>
      </trkpt>
      <trkpt lat="43.55764" lon="5.83243">
        <ele>462.63</ele>
        <time>2018-11-18T09:44:16Z</time>
      </trkpt>
      <trkpt lat="43.55747" lon="5.83235">
        <ele>463.75</ele>
        <time>2018-11-18T09:44:24Z</time>
      </trkpt>
      <trkpt lat="43.55728" lon="5.83224">
        <ele>464.25</ele>
        <time>2018-11-18T09:44:33Z</time>
      </trkpt>
      <trkpt lat="43.55713" lon="5.8321">
        <ele>464.27</ele>
        <time>2018-11-18T09:44:41Z</time>
      </trkpt>
      <trkpt lat="43.55698" lon="5.83193">
        <ele>463.12</ele>
        <time>2018-11-18T09:44:48Z</time>
      </trkpt>
      <trkpt lat="43.5568" lon="5.83185">
        <ele>462.67</ele>
        <time>2018-11-18T09:44:55Z</time>
      </trkpt>
      <trkpt lat="43.55661" lon="5.83177">
        <ele>462.37</ele>
        <time>2018-11-18T09:45:03Z</time>
      </trkpt>
      <trkpt lat="43.55643" lon="5.83171">
        <ele>462.27</ele>
        <time>2018-11-18T09:45:11Z</time>
      </trkpt>
      <trkpt lat="43.55627" lon="5.83158">
        <ele>461.68</ele>
        <time>2018-11-18T09:45:19Z</time>
      </trkpt>
      <trkpt lat="43.55616" lon="5.83137">
        <ele>460.8</ele>
        <time>2018-11-18T09:45:26Z</time>
      </trkpt>
      <trkpt lat="43.55608" lon="5.83112">
        <ele>459.54</ele>
        <time>2018-11-18T09:45:32Z</time>
      </trkpt>
      <trkpt lat="43.55617" lon="5.83087">
        <ele>458.08</ele>
        <time>2018-11-18T09:45:39Z</time>
      </trkpt>
      <trkpt lat="43.55612" lon="5.83063">
        <ele>457.97</ele>
        <time>2018-11-18T09:45:44Z</time>
      </trkpt>
      <trkpt lat="43.55604" lon="5.83041">
        <ele>457.04</ele>
        <time>2018-11-18T09:45:49Z</time>
      </trkpt>
      <trkpt lat="43.55605" lon="5.83015">
        <ele>456.37</ele>
        <time>2018-11-18T09:45:54Z</time>
      </trkpt>
      <trkpt lat="43.55597" lon="5.82987">
        <ele>454.95</ele>
        <time>2018-11-18T09:45:59Z</time>
      </trkpt>
      <trkpt lat="43.55594" lon="5.82962">
        <ele>454.13</ele>
        <time>2018-11-18T09:46:03Z</time>
      </trkpt>
      <trkpt lat="43.55599" lon="5.82937">
        <ele>453.45</ele>
        <time>2018-11-18T09:46:07Z</time>
      </trkpt>
      <trkpt lat="43.5561" lon="5.82914">
        <ele>452.81</ele>
        <time>2018-11-18T09:46:11Z</time>
      </trkpt>
      <trkpt lat="43.55613" lon="5.82885">
        <ele>451.28</ele>
        <time>2018-11-18T09:46:15Z</time>
      </trkpt>
      <trkpt lat="43.55627" lon="5.82865">
        <ele>450.23</ele>
        <time>2018-11-18T09:46:19Z</time>
      </trkpt>
      <trkpt lat="43.55642" lon="5.8285">
        <ele>449.32</ele>
        <time>2018-11-18T09:46:23Z</time>
      </trkpt>
      <trkpt lat="43.55659" lon="5.8284">
        <ele>448.22</ele>
        <time>2018-11-18T09:46:27Z</time>
      </trkpt>
      <trkpt lat="43.55678" lon="5.82833">
        <ele>447.78</ele>
        <time>2018-11-18T09:46:31Z</time>
      </trkpt>
      <trkpt lat="43.55697" lon="5.82828">
        <ele>447.13</ele>
        <time>2018-11-18T09:46:35Z</time>
      </trkpt>
      <trkpt lat="43.55714" lon="5.82821">
        <ele>446.32</ele>
        <time>2018-11-18T09:46:39Z</time>
      </trkpt>
      <trkpt lat="43.55735" lon="5.82811">
        <ele>445.77</ele>
        <time>2018-11-18T09:46:44Z</time>
      </trkpt>
      <trkpt lat="43.5575" lon="5.82795">
        <ele>445.2</ele>
        <time>2018-11-18T09:46:48Z</time>
      </trkpt>
      <trkpt lat="43.55768" lon="5.8279">
        <ele>445.05</ele>
        <time>2018-11-18T09:46:52Z</time>
      </trkpt>
      <trkpt lat="43.55787" lon="5.8278">
        <ele>444.97</ele>
        <time>2018-11-18T09:46:57Z</time>
      </trkpt>
      <trkpt lat="43.55798" lon="5.82759">
        <ele>444.77</ele>
        <time>2018-11-18T09:47:02Z</time>
      </trkpt>
      <trkpt lat="43.55809" lon="5.82738">
        <ele>444.29</ele>
        <time>2018-11-18T09:47:08Z</time>
      </trkpt>
      <trkpt lat="43.55828" lon="5.82725">
        <ele>444.89</ele>
        <time>2018-11-18T09:48:06Z</time>
      </trkpt>
      <trkpt lat="43.55844" lon="5.82715">
        <ele>444.51</ele>
        <time>2018-11-18T09:48:13Z</time>
      </trkpt>
      <trkpt lat="43.55863" lon="5.8271">
        <ele>445.06</ele>
        <time>2018-11-18T09:48:20Z</time>
      </trkpt>
      <trkpt lat="43.55881" lon="5.82711">
        <ele>444.87</ele>
        <time>2018-11-18T09:48:27Z</time>
      </trkpt>
      <trkpt lat="43.55892" lon="5.82733">
        <ele>445.78</ele>
        <time>2018-11-18T09:49:11Z</time>
      </trkpt>
      <trkpt lat="43.55895" lon="5.82762">
        <ele>446.44</ele>
        <time>2018-11-18T09:49:18Z</time>
      </trkpt>
      <trkpt lat="43.55906" lon="5.82782">
        <ele>447.15</ele>
        <time>2018-11-18T09:49:24Z</time>
      </trkpt>
      <trkpt lat="43.55912" lon="5.8281">
        <ele>447.82</ele>
        <time>2018-11-18T09:49:30Z</time>
      </trkpt>
      <trkpt lat="43.55918" lon="5.82834">
        <ele>448.36</ele>
        <time>2018-11-18T09:49:35Z</time>
      </trkpt>
      <trkpt lat="43.55924" lon="5.82858">
        <ele>449.12</ele>
        <time>2018-11-18T09:49:40Z</time>
      </trkpt>
      <trkpt lat="43.55932" lon="5.8288">
        <ele>449.45</ele>
        <time>2018-11-18T09:49:45Z</time>
      </trkpt>
      <trkpt lat="43.5594" lon="5.82903">
        <ele>449.86</ele>
        <time>2018-11-18T09:49:50Z</time>
      </trkpt>
      <trkpt lat="43.55947" lon="5.8293">
        <ele>450.25</ele>
        <time>2018-11-18T09:49:56Z</time>
      </trkpt>
      <trkpt lat="43.55956" lon="5.82958">
        <ele>450.84</ele>
        <time>2018-11-18T09:50:02Z</time>
      </trkpt>
      <trkpt lat="43.55965" lon="5.82984">
        <ele>451.72</ele>
        <time>2018-11-18T09:50:08Z</time>
      </trkpt>
      <trkpt lat="43.55962" lon="5.8301">
        <ele>451.97</ele>
        <time>2018-11-18T09:50:14Z</time>
      </trkpt>
      <trkpt lat="43.55967" lon="5.83034">
        <ele>453.12</ele>
        <time>2018-11-18T09:50:20Z</time>
      </trkpt>
      <trkpt lat="43.55975" lon="5.83061">
        <ele>454.26</ele>
        <time>2018-11-18T09:50:27Z</time>
      </trkpt>
      <trkpt lat="43.55989" lon="5.83078">
        <ele>454.64</ele>
        <time>2018-11-18T09:50:33Z</time>
      </trkpt>
      <trkpt lat="43.56" lon="5.83098">
        <ele>454.94</ele>
        <time>2018-11-18T09:50:39Z</time>
      </trkpt>
      <trkpt lat="43.5601" lon="5.83122">
        <ele>455.57</ele>
        <time>2018-11-18T09:50:47Z</time>
      </trkpt>
      <trkpt lat="43.56022" lon="5.83141">
        <ele>456.14</ele>
        <time>2018-11-18T09:50:55Z</time>
      </trkpt>
      <trkpt lat="43.56033" lon="5.83161">
        <ele>456.76</ele>
        <time>2018-11-18T09:51:03Z</time>
      </trkpt>
      <trkpt lat="43.56041" lon="5.83184">
        <ele>457.17</ele>
        <time>2018-11-18T09:51:11Z</time>
      </trkpt>
      <trkpt lat="43.56046" lon="5.83211">
        <ele>457.35</ele>
        <time>2018-11-18T09:51:20Z</time>
      </trkpt>
      <trkpt lat="43.56049" lon="5.83237">
        <ele>457.65</ele>
        <time>2018-11-18T09:51:27Z</time>
      </trkpt>
      <trkpt lat="43.56059" lon="5.83262">
        <ele>458.06</ele>
        <time>2018-11-18T09:51:34Z</time>
      </trkpt>
      <trkpt lat="43.56064" lon="5.83287">
        <ele>458.17</ele>
        <time>2018-11-18T09:51:40Z</time>
      </trkpt>
      <trkpt lat="43.56068" lon="5.83313">
        <ele>458.27</ele>
        <time>2018-11-18T09:51:46Z</time>
      </trkpt>
      <trkpt lat="43.56078" lon="5.83334">
        <ele>457.85</ele>
        <time>2018-11-18T09:51:51Z</time>
      </trkpt>
      <trkpt lat="43.56095" lon="5.83354">
        <ele>458.14</ele>
        <time>2018-11-18T09:51:57Z</time>
      </trkpt>
      <trkpt lat="43.56107" lon="5.83375">
        <ele>457.39</ele>
        <time>2018-11-18T09:52:02Z</time>
      </trkpt>
      <trkpt lat="43.56126" lon="5.83392">
        <ele>456.21</ele>
        <time>2018-11-18T09:52:07Z</time>
      </trkpt>
      <trkpt lat="43.56139" lon="5.8341">
        <ele>456.36</ele>
        <time>2018-11-18T09:52:11Z</time>
      </trkpt>
      <trkpt lat="43.5615" lon="5.83431">
        <ele>456.02</ele>
        <time>2018-11-18T09:52:15Z</time>
      </trkpt>
      <trkpt lat="43.56165" lon="5.83445">
        <ele>455.14</ele>
        <time>2018-11-18T09:52:19Z</time>
      </trkpt>
      <trkpt lat="43.56185" lon="5.83455">
        <ele>454.89</ele>
        <time>2018-11-18T09:52:24Z</time>
      </trkpt>
      <trkpt lat="43.56205" lon="5.83454">
        <ele>455.36</ele>
        <time>2018-11-18T09:52:31Z</time>
      </trkpt>
      <trkpt lat="43.56221" lon="5.83467">
        <ele>455.56</ele>
        <time>2018-11-18T09:52:39Z</time>
      </trkpt>
      <trkpt lat="43.56233" lon="5.83486">
        <ele>455.67</ele>
        <time>2018-11-18T09:52:53Z</time>
      </trkpt>
      <trkpt lat="43.56248" lon="5.83502">
        <ele>456.91</ele>
        <time>2018-11-18T09:53:04Z</time>
      </trkpt>
      <trkpt lat="43.56265" lon="5.83513">
        <ele>456.65</ele>
        <time>2018-11-18T09:53:21Z</time>
      </trkpt>
      <trkpt lat="43.56279" lon="5.83532">
        <ele>455.99</ele>
        <time>2018-11-18T09:53:37Z</time>
      </trkpt>
      <trkpt lat="43.5629" lon="5.83555">
        <ele>454.99</ele>
        <time>2018-11-18T09:53:46Z</time>
      </trkpt>
      <trkpt lat="43.56302" lon="5.83577">
        <ele>454.24</ele>
        <time>2018-11-18T09:53:53Z</time>
      </trkpt>
      <trkpt lat="43.56317" lon="5.83596">
        <ele>452.74</ele>
        <time>2018-11-18T09:54:00Z</time>
      </trkpt>
      <trkpt lat="43.56332" lon="5.83617">
        <ele>451.09</ele>
        <time>2018-11-18T09:54:06Z</time>
      </trkpt>
      <trkpt lat="43.56338" lon="5.83645">
        <ele>450.17</ele>
        <time>2018-11-18T09:54:12Z</time>
      </trkpt>
      <trkpt lat="43.56349" lon="5.8367">
        <ele>449.01</ele>
        <time>2018-11-18T09:54:16Z</time>
      </trkpt>
      <trkpt lat="43.56364" lon="5.83691">
        <ele>448.15</ele>
        <time>2018-11-18T09:54:20Z</time>
      </trkpt>
      <trkpt lat="43.5638" lon="5.8371">
        <ele>446.7</ele>
        <time>2018-11-18T09:54:24Z</time>
      </trkpt>
      <trkpt lat="43.56395" lon="5.83732">
        <ele>446.31</ele>
        <time>2018-11-18T09:54:29Z</time>
      </trkpt>
      <trkpt lat="43.56407" lon="5.83755">
        <ele>446.76</ele>
        <time>2018-11-18T09:54:34Z</time>
      </trkpt>
      <trkpt lat="43.56426" lon="5.83754">
        <ele>446.39</ele>
        <time>2018-11-18T09:54:40Z</time>
      </trkpt>
      <trkpt lat="43.56445" lon="5.8375">
        <ele>446.93</ele>
        <time>2018-11-18T09:54:48Z</time>
      </trkpt>
      <trkpt lat="43.56463" lon="5.8376">
        <ele>445.17</ele>
        <time>2018-11-18T09:54:56Z</time>
      </trkpt>
      <trkpt lat="43.56471" lon="5.83782">
        <ele>443.78</ele>
        <time>2018-11-18T09:55:04Z</time>
      </trkpt>
      <trkpt lat="43.56478" lon="5.83807">
        <ele>441.47</ele>
        <time>2018-11-18T09:55:50Z</time>
      </trkpt>
      <trkpt lat="43.56485" lon="5.83831">
        <ele>441.92</ele>
        <time>2018-11-18T09:56:02Z</time>
      </trkpt>
      <trkpt lat="43.5649" lon="5.83856">
        <ele>442.09</ele>
        <time>2018-11-18T09:56:13Z</time>
      </trkpt>
      <trkpt lat="43.56496" lon="5.83881">
        <ele>442.17</ele>
        <time>2018-11-18T09:56:22Z</time>
      </trkpt>
      <trkpt lat="43.56506" lon="5.83901">
        <ele>442.93</ele>
        <time>2018-11-18T09:56:29Z</time>
      </trkpt>
      <trkpt lat="43.56514" lon="5.83924">
        <ele>443.92</ele>
        <time>2018-11-18T09:56:35Z</time>
      </trkpt>
      <trkpt lat="43.56524" lon="5.83951">
        <ele>445.02</ele>
        <time>2018-11-18T09:56:41Z</time>
      </trkpt>
      <trkpt lat="43.56532" lon="5.83975">
        <ele>445.49</ele>
        <time>2018-11-18T09:56:46Z</time>
      </trkpt>
      <trkpt lat="43.56532" lon="5.84002">
        <ele>444.43</ele>
        <time>2018-11-18T09:56:51Z</time>
      </trkpt>
      <trkpt lat="43.56535" lon="5.8403">
        <ele>443.68</ele>
        <time>2018-11-18T09:56:56Z</time>
      </trkpt>
      <trkpt lat="43.56539" lon="5.84057">
        <ele>442.7</ele>
        <time>2018-11-18T09:57:00Z</time>
      </trkpt>
      <trkpt lat="43.56539" lon="5.84087">
        <ele>441.07</ele>
        <time>2018-11-18T09:57:04Z</time>
      </trkpt>
      <trkpt lat="43.56548" lon="5.84109">
        <ele>441.04</ele>
        <time>2018-11-18T09:57:08Z</time>
      </trkpt>
      <trkpt lat="43.56558" lon="5.84135">
        <ele>440.99</ele>
        <time>2018-11-18T09:57:12Z</time>
      </trkpt>
      <trkpt lat="43.56557" lon="5.84161">
        <ele>440.54</ele>
        <time>2018-11-18T09:57:16Z</time>
      </trkpt>
      <trkpt lat="43.5655" lon="5.84186">
        <ele>438.96</ele>
        <time>2018-11-18T09:57:24Z</time>
      </trkpt>
      <trkpt lat="43.56556" lon="5.84212">
        <ele>437.63</ele>
        <time>2018-11-18T09:57:32Z</time>
      </trkpt>
      <trkpt lat="43.56562" lon="5.84238">
        <ele>437.67</ele>
        <time>2018-11-18T09:57:40Z</time>
      </trkpt>
      <trkpt lat="43.56568" lon="5.84265">
        <ele>437.53</ele>
        <time>2018-11-18T09:57:47Z</time>
      </trkpt>
      <trkpt lat="43.56574" lon="5.84291">
        <ele>437.37</ele>
        <time>2018-11-18T09:57:53Z</time>
      </trkpt>
      <trkpt lat="43.5658" lon="5.84316">
        <ele>437.98</ele>
        <time>2018-11-18T09:57:59Z</time>
      </trkpt>
      <trkpt lat="43.56585" lon="5.84342">
        <ele>438</ele>
        <time>2018-11-18T09:58:05Z</time>
      </trkpt>
      <trkpt lat="43.56587" lon="5.84369">
        <ele>438.22</ele>
        <time>2018-11-18T09:58:11Z</time>
      </trkpt>
      <trkpt lat="43.56589" lon="5.84397">
        <ele>437.95</ele>
        <time>2018-11-18T09:58:17Z</time>
      </trkpt>
      <trkpt lat="43.56594" lon="5.84422">
        <ele>438.75</ele>
        <time>2018-11-18T09:58:23Z</time>
      </trkpt>
      <trkpt lat="43.56596" lon="5.84449">
        <ele>439.08</ele>
        <time>2018-11-18T09:58:31Z</time>
      </trkpt>
      <trkpt lat="43.56599" lon="5.84474">
        <ele>439.39</ele>
        <time>2018-11-18T09:58:37Z</time>
      </trkpt>
      <trkpt lat="43.566" lon="5.84499">
        <ele>439.03</ele>
        <time>2018-11-18T09:58:43Z</time>
      </trkpt>
      <trkpt lat="43.56607" lon="5.84523">
        <ele>440.21</ele>
        <time>2018-11-18T09:58:49Z</time>
      </trkpt>
      <trkpt lat="43.56608" lon="5.84551">
        <ele>439.74</ele>
        <time>2018-11-18T09:58:55Z</time>
      </trkpt>
      <trkpt lat="43.56615" lon="5.84579">
        <ele>440.81</ele>
        <time>2018-11-18T09:59:01Z</time>
      </trkpt>
      <trkpt lat="43.56622" lon="5.84606">
        <ele>440.84</ele>
        <time>2018-11-18T09:59:07Z</time>
      </trkpt>
      <trkpt lat="43.56627" lon="5.84631">
        <ele>441.07</ele>
        <time>2018-11-18T09:59:14Z</time>
      </trkpt>
      <trkpt lat="43.56628" lon="5.84657">
        <ele>444.42</ele>
        <time>2018-11-18T09:59:22Z</time>
      </trkpt>
      <trkpt lat="43.56621" lon="5.8468">
        <ele>443.74</ele>
        <time>2018-11-18T09:59:29Z</time>
      </trkpt>
      <trkpt lat="43.56625" lon="5.84708">
        <ele>440.25</ele>
        <time>2018-11-18T09:59:36Z</time>
      </trkpt>
      <trkpt lat="43.56638" lon="5.84727">
        <ele>437.65</ele>
        <time>2018-11-18T09:59:41Z</time>
      </trkpt>
      <trkpt lat="43.5665" lon="5.84748">
        <ele>436.33</ele>
        <time>2018-11-18T09:59:45Z</time>
      </trkpt>
      <trkpt lat="43.5666" lon="5.84769">
        <ele>435.35</ele>
        <time>2018-11-18T09:59:52Z</time>
      </trkpt>
      <trkpt lat="43.56672" lon="5.84788">
        <ele>438.42</ele>
        <time>2018-11-18T10:00:24Z</time>
      </trkpt>
      <trkpt lat="43.56682" lon="5.84811">
        <ele>439.26</ele>
        <time>2018-11-18T10:00:30Z</time>
      </trkpt>
      <trkpt lat="43.56692" lon="5.84834">
        <ele>438.02</ele>
        <time>2018-11-18T10:00:35Z</time>
      </trkpt>
      <trkpt lat="43.56705" lon="5.84858">
        <ele>436.04</ele>
        <time>2018-11-18T10:00:40Z</time>
      </trkpt>
      <trkpt lat="43.5672" lon="5.84873">
        <ele>433.17</ele>
        <time>2018-11-18T10:00:44Z</time>
      </trkpt>
      <trkpt lat="43.56737" lon="5.84893">
        <ele>430.53</ele>
        <time>2018-11-18T10:00:49Z</time>
      </trkpt>
      <trkpt lat="43.56751" lon="5.84912">
        <ele>429.6</ele>
        <time>2018-11-18T10:00:53Z</time>
      </trkpt>
      <trkpt lat="43.56769" lon="5.84928">
        <ele>429.66</ele>
        <time>2018-11-18T10:00:57Z</time>
      </trkpt>
      <trkpt lat="43.56792" lon="5.84933">
        <ele>428.82</ele>
        <time>2018-11-18T10:01:01Z</time>
      </trkpt>
      <trkpt lat="43.5681" lon="5.84928">
        <ele>428.04</ele>
        <time>2018-11-18T10:01:04Z</time>
      </trkpt>
      <trkpt lat="43.5683" lon="5.84913">
        <ele>426.86</ele>
        <time>2018-11-18T10:01:08Z</time>
      </trkpt>
      <trkpt lat="43.56848" lon="5.84895">
        <ele>425</ele>
        <time>2018-11-18T10:01:12Z</time>
      </trkpt>
      <trkpt lat="43.56868" lon="5.84891">
        <ele>422.25</ele>
        <time>2018-11-18T10:01:16Z</time>
      </trkpt>
      <trkpt lat="43.56882" lon="5.84915">
        <ele>421.6</ele>
        <time>2018-11-18T10:01:20Z</time>
      </trkpt>
      <trkpt lat="43.56887" lon="5.8494">
        <ele>421.94</ele>
        <time>2018-11-18T10:01:23Z</time>
      </trkpt>
      <trkpt lat="43.56897" lon="5.84965">
        <ele>422.96</ele>
        <time>2018-11-18T10:01:26Z</time>
      </trkpt>
      <trkpt lat="43.56907" lon="5.84986">
        <ele>423.4</ele>
        <time>2018-11-18T10:01:29Z</time>
      </trkpt>
      <trkpt lat="43.56919" lon="5.85006">
        <ele>423.55</ele>
        <time>2018-11-18T10:01:33Z</time>
      </trkpt>
      <trkpt lat="43.56929" lon="5.8503">
        <ele>425.38</ele>
        <time>2018-11-18T10:01:42Z</time>
      </trkpt>
      <trkpt lat="43.56933" lon="5.85057">
        <ele>424.18</ele>
        <time>2018-11-18T10:01:48Z</time>
      </trkpt>
      <trkpt lat="43.56936" lon="5.85082">
        <ele>424.19</ele>
        <time>2018-11-18T10:01:52Z</time>
      </trkpt>
      <trkpt lat="43.56939" lon="5.85109">
        <ele>423.97</ele>
        <time>2018-11-18T10:01:56Z</time>
      </trkpt>
      <trkpt lat="43.56942" lon="5.85138">
        <ele>424.62</ele>
        <time>2018-11-18T10:02:01Z</time>
      </trkpt>
      <trkpt lat="43.56942" lon="5.85165">
        <ele>424.99</ele>
        <time>2018-11-18T10:02:07Z</time>
      </trkpt>
      <trkpt lat="43.56929" lon="5.85187">
        <ele>423.77</ele>
        <time>2018-11-18T10:02:12Z</time>
      </trkpt>
      <trkpt lat="43.56918" lon="5.85211">
        <ele>423.4</ele>
        <time>2018-11-18T10:02:16Z</time>
      </trkpt>
      <trkpt lat="43.5691" lon="5.85237">
        <ele>423.32</ele>
        <time>2018-11-18T10:02:20Z</time>
      </trkpt>
      <trkpt lat="43.569" lon="5.85263">
        <ele>423.56</ele>
        <time>2018-11-18T10:02:25Z</time>
      </trkpt>
      <trkpt lat="43.56889" lon="5.85285">
        <ele>423.25</ele>
        <time>2018-11-18T10:02:30Z</time>
      </trkpt>
      <trkpt lat="43.56879" lon="5.85308">
        <ele>423.17</ele>
        <time>2018-11-18T10:02:36Z</time>
      </trkpt>
      <trkpt lat="43.56865" lon="5.8533">
        <ele>421.49</ele>
        <time>2018-11-18T10:02:41Z</time>
      </trkpt>
      <trkpt lat="43.56861" lon="5.85357">
        <ele>420.41</ele>
        <time>2018-11-18T10:02:45Z</time>
      </trkpt>
      <trkpt lat="43.56859" lon="5.85385">
        <ele>421.03</ele>
        <time>2018-11-18T10:02:49Z</time>
      </trkpt>
      <trkpt lat="43.56846" lon="5.85405">
        <ele>420.6</ele>
        <time>2018-11-18T10:02:53Z</time>
      </trkpt>
      <trkpt lat="43.56829" lon="5.85422">
        <ele>420.04</ele>
        <time>2018-11-18T10:02:57Z</time>
      </trkpt>
      <trkpt lat="43.56822" lon="5.85447">
        <ele>419.85</ele>
        <time>2018-11-18T10:03:01Z</time>
      </trkpt>
      <trkpt lat="43.56826" lon="5.85475">
        <ele>420.25</ele>
        <time>2018-11-18T10:03:05Z</time>
      </trkpt>
      <trkpt lat="43.56828" lon="5.85504">
        <ele>420.64</ele>
        <time>2018-11-18T10:03:09Z</time>
      </trkpt>
      <trkpt lat="43.5683" lon="5.85534">
        <ele>420.65</ele>
        <time>2018-11-18T10:03:13Z</time>
      </trkpt>
      <trkpt lat="43.56834" lon="5.85558">
        <ele>420.49</ele>
        <time>2018-11-18T10:03:17Z</time>
      </trkpt>
      <trkpt lat="43.56833" lon="5.85585">
        <ele>420.51</ele>
        <time>2018-11-18T10:03:22Z</time>
      </trkpt>
      <trkpt lat="43.56834" lon="5.85612">
        <ele>420.07</ele>
        <time>2018-11-18T10:03:27Z</time>
      </trkpt>
      <trkpt lat="43.56836" lon="5.85638">
        <ele>420.07</ele>
        <time>2018-11-18T10:03:33Z</time>
      </trkpt>
      <trkpt lat="43.56834" lon="5.85663">
        <ele>420.44</ele>
        <time>2018-11-18T10:03:41Z</time>
      </trkpt>
      <trkpt lat="43.56816" lon="5.85672">
        <ele>422.8</ele>
        <time>2018-11-18T10:03:53Z</time>
      </trkpt>
      <trkpt lat="43.56798" lon="5.8568">
        <ele>425.18</ele>
        <time>2018-11-18T10:04:05Z</time>
      </trkpt>
      <trkpt lat="43.56782" lon="5.85691">
        <ele>427.54</ele>
        <time>2018-11-18T10:04:16Z</time>
      </trkpt>
      <trkpt lat="43.56765" lon="5.85703">
        <ele>429.24</ele>
        <time>2018-11-18T10:04:27Z</time>
      </trkpt>
      <trkpt lat="43.56757" lon="5.85727">
        <ele>431.77</ele>
        <time>2018-11-18T10:04:39Z</time>
      </trkpt>
      <trkpt lat="43.56752" lon="5.85752">
        <ele>431.89</ele>
        <time>2018-11-18T10:05:25Z</time>
      </trkpt>
      <trkpt lat="43.56741" lon="5.85774">
        <ele>432.62</ele>
        <time>2018-11-18T10:05:34Z</time>
      </trkpt>
      <trkpt lat="43.56731" lon="5.85798">
        <ele>434.68</ele>
        <time>2018-11-18T10:05:42Z</time>
      </trkpt>
      <trkpt lat="43.56715" lon="5.85816">
        <ele>436.06</ele>
        <time>2018-11-18T10:05:50Z</time>
      </trkpt>
      <trkpt lat="43.56696" lon="5.85816">
        <ele>435.81</ele>
        <time>2018-11-18T10:05:58Z</time>
      </trkpt>
      <trkpt lat="43.5668" lon="5.85833">
        <ele>435.59</ele>
        <time>2018-11-18T10:06:05Z</time>
      </trkpt>
      <trkpt lat="43.56671" lon="5.85856">
        <ele>436.6</ele>
        <time>2018-11-18T10:06:12Z</time>
      </trkpt>
      <trkpt lat="43.56659" lon="5.85874">
        <ele>436.29</ele>
        <time>2018-11-18T10:06:19Z</time>
      </trkpt>
      <trkpt lat="43.5664" lon="5.85878">
        <ele>435.42</ele>
        <time>2018-11-18T10:06:28Z</time>
      </trkpt>
      <trkpt lat="43.56626" lon="5.85895">
        <ele>434.86</ele>
        <time>2018-11-18T10:06:36Z</time>
      </trkpt>
      <trkpt lat="43.56621" lon="5.8592">
        <ele>436.32</ele>
        <time>2018-11-18T10:06:44Z</time>
      </trkpt>
      <trkpt lat="43.56606" lon="5.85936">
        <ele>436.86</ele>
        <time>2018-11-18T10:06:50Z</time>
      </trkpt>
      <trkpt lat="43.56589" lon="5.85946">
        <ele>436.67</ele>
        <time>2018-11-18T10:06:56Z</time>
      </trkpt>
      <trkpt lat="43.56571" lon="5.85962">
        <ele>436.47</ele>
        <time>2018-11-18T10:07:02Z</time>
      </trkpt>
      <trkpt lat="43.56556" lon="5.85979">
        <ele>435.92</ele>
        <time>2018-11-18T10:07:08Z</time>
      </trkpt>
      <trkpt lat="43.56556" lon="5.85977">
        <ele>435.92</ele>
        <time>2018-11-18T10:08:06Z</time>
      </trkpt>
      <trkpt lat="43.56574" lon="5.85991">
        <ele>437.37</ele>
        <time>2018-11-18T10:08:15Z</time>
      </trkpt>
      <trkpt lat="43.56591" lon="5.86004">
        <ele>438.04</ele>
        <time>2018-11-18T10:08:22Z</time>
      </trkpt>
      <trkpt lat="43.56609" lon="5.86011">
        <ele>438.74</ele>
        <time>2018-11-18T10:08:29Z</time>
      </trkpt>
      <trkpt lat="43.56605" lon="5.86036">
        <ele>439.84</ele>
        <time>2018-11-18T10:08:35Z</time>
      </trkpt>
      <trkpt lat="43.56597" lon="5.86062">
        <ele>441.02</ele>
        <time>2018-11-18T10:08:40Z</time>
      </trkpt>
      <trkpt lat="43.56592" lon="5.86089">
        <ele>441.55</ele>
        <time>2018-11-18T10:08:45Z</time>
      </trkpt>
      <trkpt lat="43.56587" lon="5.86117">
        <ele>442.18</ele>
        <time>2018-11-18T10:08:50Z</time>
      </trkpt>
      <trkpt lat="43.56587" lon="5.86145">
        <ele>443.49</ele>
        <time>2018-11-18T10:08:55Z</time>
      </trkpt>
      <trkpt lat="43.56589" lon="5.86172">
        <ele>445.42</ele>
        <time>2018-11-18T10:09:02Z</time>
      </trkpt>
      <trkpt lat="43.56573" lon="5.86183">
        <ele>445.09</ele>
        <time>2018-11-18T10:09:12Z</time>
      </trkpt>
      <trkpt lat="43.56557" lon="5.86195">
        <ele>444.46</ele>
        <time>2018-11-18T10:09:23Z</time>
      </trkpt>
      <trkpt lat="43.5654" lon="5.8621">
        <ele>444.18</ele>
        <time>2018-11-18T10:09:31Z</time>
      </trkpt>
      <trkpt lat="43.56523" lon="5.86224">
        <ele>442.79</ele>
        <time>2018-11-18T10:09:38Z</time>
      </trkpt>
      <trkpt lat="43.56507" lon="5.86239">
        <ele>440.88</ele>
        <time>2018-11-18T10:09:44Z</time>
      </trkpt>
      <trkpt lat="43.56488" lon="5.86253">
        <ele>439.43</ele>
        <time>2018-11-18T10:09:50Z</time>
      </trkpt>
      <trkpt lat="43.56472" lon="5.86264">
        <ele>437.55</ele>
        <time>2018-11-18T10:09:55Z</time>
      </trkpt>
      <trkpt lat="43.56453" lon="5.86273">
        <ele>436.59</ele>
        <time>2018-11-18T10:10:00Z</time>
      </trkpt>
      <trkpt lat="43.56435" lon="5.86278">
        <ele>435.52</ele>
        <time>2018-11-18T10:10:05Z</time>
      </trkpt>
      <trkpt lat="43.56414" lon="5.86282">
        <ele>434.4</ele>
        <time>2018-11-18T10:10:10Z</time>
      </trkpt>
      <trkpt lat="43.56394" lon="5.86287">
        <ele>433.42</ele>
        <time>2018-11-18T10:10:15Z</time>
      </trkpt>
      <trkpt lat="43.56372" lon="5.86284">
        <ele>432.46</ele>
        <time>2018-11-18T10:10:20Z</time>
      </trkpt>
      <trkpt lat="43.56354" lon="5.8629">
        <ele>431.34</ele>
        <time>2018-11-18T10:10:24Z</time>
      </trkpt>
      <trkpt lat="43.56335" lon="5.86291">
        <ele>430.35</ele>
        <time>2018-11-18T10:10:28Z</time>
      </trkpt>
      <trkpt lat="43.56315" lon="5.8629">
        <ele>428.85</ele>
        <time>2018-11-18T10:10:32Z</time>
      </trkpt>
      <trkpt lat="43.56294" lon="5.86287">
        <ele>427.09</ele>
        <time>2018-11-18T10:10:36Z</time>
      </trkpt>
      <trkpt lat="43.56276" lon="5.86281">
        <ele>424.79</ele>
        <time>2018-11-18T10:10:41Z</time>
      </trkpt>
      <trkpt lat="43.56258" lon="5.8628">
        <ele>424.05</ele>
        <time>2018-11-18T10:11:09Z</time>
      </trkpt>
      <trkpt lat="43.56239" lon="5.86281">
        <ele>424.94</ele>
        <time>2018-11-18T10:11:34Z</time>
      </trkpt>
      <trkpt lat="43.5622" lon="5.86283">
        <ele>425.34</ele>
        <time>2018-11-18T10:11:41Z</time>
      </trkpt>
      <trkpt lat="43.56201" lon="5.86291">
        <ele>425.67</ele>
        <time>2018-11-18T10:11:48Z</time>
      </trkpt>
      <trkpt lat="43.56184" lon="5.86298">
        <ele>425.77</ele>
        <time>2018-11-18T10:11:56Z</time>
      </trkpt>
      <trkpt lat="43.56164" lon="5.86307">
        <ele>424.62</ele>
        <time>2018-11-18T10:12:03Z</time>
      </trkpt>
      <trkpt lat="43.56142" lon="5.86313">
        <ele>421.81</ele>
        <time>2018-11-18T10:12:08Z</time>
      </trkpt>
      <trkpt lat="43.56123" lon="5.86317">
        <ele>419.54</ele>
        <time>2018-11-18T10:12:12Z</time>
      </trkpt>
      <trkpt lat="43.56101" lon="5.86315">
        <ele>416.1</ele>
        <time>2018-11-18T10:12:16Z</time>
      </trkpt>
      <trkpt lat="43.56081" lon="5.86308">
        <ele>413.64</ele>
        <time>2018-11-18T10:12:19Z</time>
      </trkpt>
      <trkpt lat="43.56063" lon="5.86302">
        <ele>410.96</ele>
        <time>2018-11-18T10:12:22Z</time>
      </trkpt>
      <trkpt lat="43.56042" lon="5.86291">
        <ele>408.61</ele>
        <time>2018-11-18T10:12:25Z</time>
      </trkpt>
      <trkpt lat="43.5602" lon="5.8628">
        <ele>407.04</ele>
        <time>2018-11-18T10:12:28Z</time>
      </trkpt>
      <trkpt lat="43.55999" lon="5.86272">
        <ele>404.77</ele>
        <time>2018-11-18T10:12:31Z</time>
      </trkpt>
      <trkpt lat="43.55978" lon="5.86264">
        <ele>401.15</ele>
        <time>2018-11-18T10:12:35Z</time>
      </trkpt>
      <trkpt lat="43.55958" lon="5.86259">
        <ele>396.94</ele>
        <time>2018-11-18T10:12:39Z</time>
      </trkpt>
      <trkpt lat="43.55937" lon="5.86252">
        <ele>392.44</ele>
        <time>2018-11-18T10:12:43Z</time>
      </trkpt>
      <trkpt lat="43.55919" lon="5.86259">
        <ele>390.87</ele>
        <time>2018-11-18T10:14:04Z</time>
      </trkpt>
      <trkpt lat="43.5591" lon="5.86284">
        <ele>391.42</ele>
        <time>2018-11-18T10:14:11Z</time>
      </trkpt>
      <trkpt lat="43.55909" lon="5.86309">
        <ele>391.75</ele>
        <time>2018-11-18T10:14:20Z</time>
      </trkpt>
      <trkpt lat="43.55912" lon="5.86337">
        <ele>391.53</ele>
        <time>2018-11-18T10:14:29Z</time>
      </trkpt>
      <trkpt lat="43.55918" lon="5.86362">
        <ele>390.22</ele>
        <time>2018-11-18T10:14:34Z</time>
      </trkpt>
      <trkpt lat="43.55931" lon="5.86385">
        <ele>389.61</ele>
        <time>2018-11-18T10:14:39Z</time>
      </trkpt>
      <trkpt lat="43.55944" lon="5.86405">
        <ele>389.15</ele>
        <time>2018-11-18T10:14:44Z</time>
      </trkpt>
      <trkpt lat="43.55956" lon="5.86427">
        <ele>388.03</ele>
        <time>2018-11-18T10:14:49Z</time>
      </trkpt>
      <trkpt lat="43.55974" lon="5.86441">
        <ele>386.68</ele>
        <time>2018-11-18T10:14:54Z</time>
      </trkpt>
      <trkpt lat="43.55991" lon="5.86454">
        <ele>386.04</ele>
        <time>2018-11-18T10:14:58Z</time>
      </trkpt>
      <trkpt lat="43.56008" lon="5.86463">
        <ele>385.59</ele>
        <time>2018-11-18T10:15:02Z</time>
      </trkpt>
      <trkpt lat="43.56027" lon="5.86473">
        <ele>384.81</ele>
        <time>2018-11-18T10:15:07Z</time>
      </trkpt>
      <trkpt lat="43.56039" lon="5.86491">
        <ele>384.55</ele>
        <time>2018-11-18T10:15:27Z</time>
      </trkpt>
      <trkpt lat="43.56041" lon="5.86516">
        <ele>386.14</ele>
        <time>2018-11-18T10:15:43Z</time>
      </trkpt>
      <trkpt lat="43.56057" lon="5.86528">
        <ele>386.46</ele>
        <time>2018-11-18T10:15:51Z</time>
      </trkpt>
      <trkpt lat="43.56072" lon="5.86547">
        <ele>386.47</ele>
        <time>2018-11-18T10:15:58Z</time>
      </trkpt>
      <trkpt lat="43.56083" lon="5.86573">
        <ele>385.23</ele>
        <time>2018-11-18T10:16:04Z</time>
      </trkpt>
      <trkpt lat="43.56087" lon="5.86601">
        <ele>384.24</ele>
        <time>2018-11-18T10:16:09Z</time>
      </trkpt>
      <trkpt lat="43.56079" lon="5.86625">
        <ele>382.45</ele>
        <time>2018-11-18T10:16:14Z</time>
      </trkpt>
      <trkpt lat="43.56059" lon="5.86627">
        <ele>380.85</ele>
        <time>2018-11-18T10:16:19Z</time>
      </trkpt>
      <trkpt lat="43.56039" lon="5.86621">
        <ele>379.85</ele>
        <time>2018-11-18T10:16:24Z</time>
      </trkpt>
      <trkpt lat="43.56017" lon="5.86624">
        <ele>379.04</ele>
        <time>2018-11-18T10:16:29Z</time>
      </trkpt>
      <trkpt lat="43.55999" lon="5.86616">
        <ele>379</ele>
        <time>2018-11-18T10:16:33Z</time>
      </trkpt>
      <trkpt lat="43.55981" lon="5.86614">
        <ele>378.23</ele>
        <time>2018-11-18T10:16:38Z</time>
      </trkpt>
      <trkpt lat="43.55967" lon="5.86631">
        <ele>377.48</ele>
        <time>2018-11-18T10:16:43Z</time>
      </trkpt>
      <trkpt lat="43.55949" lon="5.86643">
        <ele>377.29</ele>
        <time>2018-11-18T10:16:49Z</time>
      </trkpt>
      <trkpt lat="43.55931" lon="5.86654">
        <ele>377.84</ele>
        <time>2018-11-18T10:16:54Z</time>
      </trkpt>
      <trkpt lat="43.55911" lon="5.86663">
        <ele>378.11</ele>
        <time>2018-11-18T10:16:59Z</time>
      </trkpt>
      <trkpt lat="43.55893" lon="5.86673">
        <ele>377.54</ele>
        <time>2018-11-18T10:17:04Z</time>
      </trkpt>
      <trkpt lat="43.55878" lon="5.86689">
        <ele>377.16</ele>
        <time>2018-11-18T10:17:09Z</time>
      </trkpt>
      <trkpt lat="43.55867" lon="5.86713">
        <ele>377.26</ele>
        <time>2018-11-18T10:17:14Z</time>
      </trkpt>
      <trkpt lat="43.55848" lon="5.86726">
        <ele>377.55</ele>
        <time>2018-11-18T10:17:21Z</time>
      </trkpt>
      <trkpt lat="43.55829" lon="5.86728">
        <ele>377.41</ele>
        <time>2018-11-18T10:17:26Z</time>
      </trkpt>
      <trkpt lat="43.55808" lon="5.86732">
        <ele>378.34</ele>
        <time>2018-11-18T10:17:31Z</time>
      </trkpt>
      <trkpt lat="43.55792" lon="5.86748">
        <ele>379.74</ele>
        <time>2018-11-18T10:17:36Z</time>
      </trkpt>
      <trkpt lat="43.55781" lon="5.86772">
        <ele>381.1</ele>
        <time>2018-11-18T10:17:41Z</time>
      </trkpt>
      <trkpt lat="43.5577" lon="5.86793">
        <ele>380.99</ele>
        <time>2018-11-18T10:17:45Z</time>
      </trkpt>
      <trkpt lat="43.55761" lon="5.86816">
        <ele>381.15</ele>
        <time>2018-11-18T10:17:49Z</time>
      </trkpt>
      <trkpt lat="43.55756" lon="5.8684">
        <ele>380.93</ele>
        <time>2018-11-18T10:17:53Z</time>
      </trkpt>
      <trkpt lat="43.55752" lon="5.86869">
        <ele>380.52</ele>
        <time>2018-11-18T10:17:57Z</time>
      </trkpt>
      <trkpt lat="43.5575" lon="5.86897">
        <ele>379.75</ele>
        <time>2018-11-18T10:18:01Z</time>
      </trkpt>
      <trkpt lat="43.55748" lon="5.86925">
        <ele>379.97</ele>
        <time>2018-11-18T10:18:05Z</time>
      </trkpt>
      <trkpt lat="43.55748" lon="5.86953">
        <ele>379.69</ele>
        <time>2018-11-18T10:18:09Z</time>
      </trkpt>
      <trkpt lat="43.55749" lon="5.86979">
        <ele>379.6</ele>
        <time>2018-11-18T10:18:13Z</time>
      </trkpt>
      <trkpt lat="43.55754" lon="5.87003">
        <ele>380.03</ele>
        <time>2018-11-18T10:18:17Z</time>
      </trkpt>
      <trkpt lat="43.55765" lon="5.87029">
        <ele>380.42</ele>
        <time>2018-11-18T10:18:22Z</time>
      </trkpt>
      <trkpt lat="43.55783" lon="5.87045">
        <ele>381.8</ele>
        <time>2018-11-18T10:18:27Z</time>
      </trkpt>
      <trkpt lat="43.55795" lon="5.87065">
        <ele>383.69</ele>
        <time>2018-11-18T10:18:32Z</time>
      </trkpt>
      <trkpt lat="43.55812" lon="5.87084">
        <ele>385.49</ele>
        <time>2018-11-18T10:18:37Z</time>
      </trkpt>
      <trkpt lat="43.55824" lon="5.87109">
        <ele>387.19</ele>
        <time>2018-11-18T10:18:42Z</time>
      </trkpt>
      <trkpt lat="43.55813" lon="5.87133">
        <ele>388.43</ele>
        <time>2018-11-18T10:18:47Z</time>
      </trkpt>
      <trkpt lat="43.55795" lon="5.8714">
        <ele>388.99</ele>
        <time>2018-11-18T10:18:51Z</time>
      </trkpt>
      <trkpt lat="43.55776" lon="5.87145">
        <ele>384.64</ele>
        <time>2018-11-18T10:19:00Z</time>
      </trkpt>
      <trkpt lat="43.55779" lon="5.8712">
        <ele>376.54</ele>
        <time>2018-11-18T10:24:46Z</time>
      </trkpt>
      <trkpt lat="43.55766" lon="5.87102">
        <ele>377.47</ele>
        <time>2018-11-18T10:25:00Z</time>
      </trkpt>
      <trkpt lat="43.55749" lon="5.87089">
        <ele>378.97</ele>
        <time>2018-11-18T10:25:14Z</time>
      </trkpt>
      <trkpt lat="43.55735" lon="5.87072">
        <ele>381.69</ele>
        <time>2018-11-18T10:25:27Z</time>
      </trkpt>
      <trkpt lat="43.55726" lon="5.87049">
        <ele>384.42</ele>
        <time>2018-11-18T10:25:39Z</time>
      </trkpt>
      <trkpt lat="43.55715" lon="5.87029">
        <ele>385.36</ele>
        <time>2018-11-18T10:25:51Z</time>
      </trkpt>
      <trkpt lat="43.55703" lon="5.8701">
        <ele>386.92</ele>
        <time>2018-11-18T10:26:04Z</time>
      </trkpt>
      <trkpt lat="43.55693" lon="5.86989">
        <ele>387.87</ele>
        <time>2018-11-18T10:26:16Z</time>
      </trkpt>
      <trkpt lat="43.55683" lon="5.86968">
        <ele>389.42</ele>
        <time>2018-11-18T10:26:29Z</time>
      </trkpt>
      <trkpt lat="43.5567" lon="5.86948">
        <ele>390.87</ele>
        <time>2018-11-18T10:26:42Z</time>
      </trkpt>
      <trkpt lat="43.5566" lon="5.86926">
        <ele>393.52</ele>
        <time>2018-11-18T10:26:55Z</time>
      </trkpt>
      <trkpt lat="43.55651" lon="5.86904">
        <ele>396.12</ele>
        <time>2018-11-18T10:27:08Z</time>
      </trkpt>
      <trkpt lat="43.55649" lon="5.86879">
        <ele>399.69</ele>
        <time>2018-11-18T10:27:21Z</time>
      </trkpt>
      <trkpt lat="43.55648" lon="5.86853">
        <ele>402.85</ele>
        <time>2018-11-18T10:27:36Z</time>
      </trkpt>
      <trkpt lat="43.55643" lon="5.86829">
        <ele>406.1</ele>
        <time>2018-11-18T10:27:49Z</time>
      </trkpt>
      <trkpt lat="43.55638" lon="5.86804">
        <ele>410.11</ele>
        <time>2018-11-18T10:28:05Z</time>
      </trkpt>
      <trkpt lat="43.55627" lon="5.86783">
        <ele>412.72</ele>
        <time>2018-11-18T10:28:19Z</time>
      </trkpt>
      <trkpt lat="43.5562" lon="5.8676">
        <ele>415.53</ele>
        <time>2018-11-18T10:28:32Z</time>
      </trkpt>
      <trkpt lat="43.55608" lon="5.86741">
        <ele>418.04</ele>
        <time>2018-11-18T10:28:46Z</time>
      </trkpt>
      <trkpt lat="43.55591" lon="5.86729">
        <ele>418.85</ele>
        <time>2018-11-18T10:28:59Z</time>
      </trkpt>
      <trkpt lat="43.5558" lon="5.86707">
        <ele>420.04</ele>
        <time>2018-11-18T10:29:12Z</time>
      </trkpt>
      <trkpt lat="43.55562" lon="5.867">
        <ele>421.67</ele>
        <time>2018-11-18T10:31:37Z</time>
      </trkpt>
      <trkpt lat="43.55547" lon="5.86686">
        <ele>421.77</ele>
        <time>2018-11-18T10:31:46Z</time>
      </trkpt>
      <trkpt lat="43.55533" lon="5.86667">
        <ele>423.27</ele>
        <time>2018-11-18T10:31:55Z</time>
      </trkpt>
      <trkpt lat="43.55522" lon="5.86647">
        <ele>425.55</ele>
        <time>2018-11-18T10:33:00Z</time>
      </trkpt>
      <trkpt lat="43.55538" lon="5.8663">
        <ele>426.55</ele>
        <time>2018-11-18T10:33:10Z</time>
      </trkpt>
      <trkpt lat="43.55555" lon="5.86621">
        <ele>426.97</ele>
        <time>2018-11-18T10:33:17Z</time>
      </trkpt>
      <trkpt lat="43.55547" lon="5.86599">
        <ele>427.38</ele>
        <time>2018-11-18T10:33:29Z</time>
      </trkpt>
      <trkpt lat="43.55529" lon="5.86588">
        <ele>427.43</ele>
        <time>2018-11-18T10:33:36Z</time>
      </trkpt>
      <trkpt lat="43.55515" lon="5.86571">
        <ele>425.29</ele>
        <time>2018-11-18T10:33:41Z</time>
      </trkpt>
      <trkpt lat="43.55492" lon="5.86569">
        <ele>422.01</ele>
        <time>2018-11-18T10:33:46Z</time>
      </trkpt>
      <trkpt lat="43.55471" lon="5.86562">
        <ele>421.19</ele>
        <time>2018-11-18T10:33:50Z</time>
      </trkpt>
      <trkpt lat="43.55454" lon="5.86549">
        <ele>421.74</ele>
        <time>2018-11-18T10:33:54Z</time>
      </trkpt>
      <trkpt lat="43.55444" lon="5.86526">
        <ele>421.85</ele>
        <time>2018-11-18T10:34:02Z</time>
      </trkpt>
      <trkpt lat="43.55441" lon="5.86499">
        <ele>424.08</ele>
        <time>2018-11-18T10:34:10Z</time>
      </trkpt>
      <trkpt lat="43.5543" lon="5.86478">
        <ele>424.02</ele>
        <time>2018-11-18T10:34:17Z</time>
      </trkpt>
      <trkpt lat="43.55416" lon="5.8646">
        <ele>424.59</ele>
        <time>2018-11-18T10:34:24Z</time>
      </trkpt>
      <trkpt lat="43.55406" lon="5.8644">
        <ele>424.13</ele>
        <time>2018-11-18T10:34:31Z</time>
      </trkpt>
      <trkpt lat="43.55392" lon="5.86421">
        <ele>424.42</ele>
        <time>2018-11-18T10:34:39Z</time>
      </trkpt>
      <trkpt lat="43.55381" lon="5.86397">
        <ele>425.07</ele>
        <time>2018-11-18T10:34:47Z</time>
      </trkpt>
      <trkpt lat="43.55369" lon="5.86378">
        <ele>425.95</ele>
        <time>2018-11-18T10:34:55Z</time>
      </trkpt>
      <trkpt lat="43.55354" lon="5.86358">
        <ele>425.69</ele>
        <time>2018-11-18T10:35:01Z</time>
      </trkpt>
      <trkpt lat="43.55342" lon="5.86338">
        <ele>425.4</ele>
        <time>2018-11-18T10:35:07Z</time>
      </trkpt>
      <trkpt lat="43.55324" lon="5.86327">
        <ele>425.22</ele>
        <time>2018-11-18T10:35:17Z</time>
      </trkpt>
      <trkpt lat="43.55306" lon="5.86328">
        <ele>424.77</ele>
        <time>2018-11-18T10:35:23Z</time>
      </trkpt>
      <trkpt lat="43.55287" lon="5.86324">
        <ele>426.92</ele>
        <time>2018-11-18T10:35:31Z</time>
      </trkpt>
      <trkpt lat="43.55268" lon="5.86322">
        <ele>428.28</ele>
        <time>2018-11-18T10:35:39Z</time>
      </trkpt>
      <trkpt lat="43.5525" lon="5.86328">
        <ele>428.25</ele>
        <time>2018-11-18T10:35:45Z</time>
      </trkpt>
      <trkpt lat="43.55228" lon="5.86333">
        <ele>426.15</ele>
        <time>2018-11-18T10:35:50Z</time>
      </trkpt>
      <trkpt lat="43.55207" lon="5.86335">
        <ele>425.37</ele>
        <time>2018-11-18T10:35:54Z</time>
      </trkpt>
      <trkpt lat="43.55195" lon="5.86356">
        <ele>424.76</ele>
        <time>2018-11-18T10:35:58Z</time>
      </trkpt>
      <trkpt lat="43.55189" lon="5.86383">
        <ele>425.22</ele>
        <time>2018-11-18T10:36:02Z</time>
      </trkpt>
      <trkpt lat="43.55181" lon="5.86407">
        <ele>425.66</ele>
        <time>2018-11-18T10:36:06Z</time>
      </trkpt>
      <trkpt lat="43.5517" lon="5.86428">
        <ele>426.08</ele>
        <time>2018-11-18T10:36:11Z</time>
      </trkpt>
      <trkpt lat="43.55157" lon="5.86446">
        <ele>426.61</ele>
        <time>2018-11-18T10:36:18Z</time>
      </trkpt>
      <trkpt lat="43.55142" lon="5.86462">
        <ele>425.75</ele>
        <time>2018-11-18T10:36:24Z</time>
      </trkpt>
      <trkpt lat="43.55129" lon="5.86485">
        <ele>426.16</ele>
        <time>2018-11-18T10:36:31Z</time>
      </trkpt>
      <trkpt lat="43.5512" lon="5.86507">
        <ele>427.33</ele>
        <time>2018-11-18T10:36:38Z</time>
      </trkpt>
      <trkpt lat="43.55107" lon="5.86527">
        <ele>428.34</ele>
        <time>2018-11-18T10:36:46Z</time>
      </trkpt>
      <trkpt lat="43.55093" lon="5.86546">
        <ele>428.69</ele>
        <time>2018-11-18T10:36:54Z</time>
      </trkpt>
      <trkpt lat="43.55082" lon="5.86568">
        <ele>428.57</ele>
        <time>2018-11-18T10:37:01Z</time>
      </trkpt>
      <trkpt lat="43.55067" lon="5.86582">
        <ele>428.8</ele>
        <time>2018-11-18T10:37:08Z</time>
      </trkpt>
      <trkpt lat="43.55051" lon="5.866">
        <ele>428.55</ele>
        <time>2018-11-18T10:37:14Z</time>
      </trkpt>
      <trkpt lat="43.55035" lon="5.86618">
        <ele>429.02</ele>
        <time>2018-11-18T10:37:20Z</time>
      </trkpt>
      <trkpt lat="43.55018" lon="5.86632">
        <ele>429.66</ele>
        <time>2018-11-18T10:37:26Z</time>
      </trkpt>
      <trkpt lat="43.55002" lon="5.86648">
        <ele>429.62</ele>
        <time>2018-11-18T10:37:32Z</time>
      </trkpt>
      <trkpt lat="43.54986" lon="5.86662">
        <ele>428.95</ele>
        <time>2018-11-18T10:37:38Z</time>
      </trkpt>
      <trkpt lat="43.54968" lon="5.86671">
        <ele>428.34</ele>
        <time>2018-11-18T10:37:44Z</time>
      </trkpt>
      <trkpt lat="43.54949" lon="5.86665">
        <ele>428.33</ele>
        <time>2018-11-18T10:37:50Z</time>
      </trkpt>
      <trkpt lat="43.54933" lon="5.8665">
        <ele>426.71</ele>
        <time>2018-11-18T10:39:24Z</time>
      </trkpt>
      <trkpt lat="43.54914" lon="5.86639">
        <ele>425.44</ele>
        <time>2018-11-18T10:39:31Z</time>
      </trkpt>
      <trkpt lat="43.54894" lon="5.86627">
        <ele>423.75</ele>
        <time>2018-11-18T10:39:36Z</time>
      </trkpt>
      <trkpt lat="43.5488" lon="5.8661">
        <ele>422.12</ele>
        <time>2018-11-18T10:39:40Z</time>
      </trkpt>
      <trkpt lat="43.54859" lon="5.8661">
        <ele>420.42</ele>
        <time>2018-11-18T10:39:45Z</time>
      </trkpt>
      <trkpt lat="43.54847" lon="5.86631">
        <ele>419.56</ele>
        <time>2018-11-18T10:39:51Z</time>
      </trkpt>
      <trkpt lat="43.54842" lon="5.86655">
        <ele>421.01</ele>
        <time>2018-11-18T10:39:58Z</time>
      </trkpt>
      <trkpt lat="43.54838" lon="5.8668">
        <ele>421.87</ele>
        <time>2018-11-18T10:40:06Z</time>
      </trkpt>
      <trkpt lat="43.54832" lon="5.86707">
        <ele>421.99</ele>
        <time>2018-11-18T10:40:13Z</time>
      </trkpt>
      <trkpt lat="43.54824" lon="5.86732">
        <ele>424.39</ele>
        <time>2018-11-18T10:40:22Z</time>
      </trkpt>
      <trkpt lat="43.54819" lon="5.86757">
        <ele>426.79</ele>
        <time>2018-11-18T10:40:32Z</time>
      </trkpt>
      <trkpt lat="43.5482" lon="5.86784">
        <ele>429.34</ele>
        <time>2018-11-18T10:40:43Z</time>
      </trkpt>
      <trkpt lat="43.5482" lon="5.86811">
        <ele>430.84</ele>
        <time>2018-11-18T10:40:54Z</time>
      </trkpt>
      <trkpt lat="43.54821" lon="5.86838">
        <ele>431.85</ele>
        <time>2018-11-18T10:41:04Z</time>
      </trkpt>
      <trkpt lat="43.54811" lon="5.86859">
        <ele>432.92</ele>
        <time>2018-11-18T10:41:12Z</time>
      </trkpt>
      <trkpt lat="43.54804" lon="5.86882">
        <ele>433.71</ele>
        <time>2018-11-18T10:41:20Z</time>
      </trkpt>
      <trkpt lat="43.54793" lon="5.86904">
        <ele>434.14</ele>
        <time>2018-11-18T10:41:28Z</time>
      </trkpt>
      <trkpt lat="43.54781" lon="5.86926">
        <ele>435.14</ele>
        <time>2018-11-18T10:41:36Z</time>
      </trkpt>
      <trkpt lat="43.54769" lon="5.86946">
        <ele>435.27</ele>
        <time>2018-11-18T10:41:44Z</time>
      </trkpt>
      <trkpt lat="43.54757" lon="5.86965">
        <ele>435.07</ele>
        <time>2018-11-18T10:41:51Z</time>
      </trkpt>
      <trkpt lat="43.54743" lon="5.86985">
        <ele>434.59</ele>
        <time>2018-11-18T10:42:01Z</time>
      </trkpt>
      <trkpt lat="43.5473" lon="5.87003">
        <ele>434.01</ele>
        <time>2018-11-18T10:42:08Z</time>
      </trkpt>
      <trkpt lat="43.54713" lon="5.87019">
        <ele>432.72</ele>
        <time>2018-11-18T10:42:16Z</time>
      </trkpt>
      <trkpt lat="43.54695" lon="5.87033">
        <ele>430.66</ele>
        <time>2018-11-18T10:42:24Z</time>
      </trkpt>
      <trkpt lat="43.54677" lon="5.87045">
        <ele>429.77</ele>
        <time>2018-11-18T10:42:30Z</time>
      </trkpt>
      <trkpt lat="43.5466" lon="5.87058">
        <ele>429.13</ele>
        <time>2018-11-18T10:42:37Z</time>
      </trkpt>
      <trkpt lat="43.54641" lon="5.87072">
        <ele>427.94</ele>
        <time>2018-11-18T10:42:43Z</time>
      </trkpt>
      <trkpt lat="43.54622" lon="5.87082">
        <ele>426.64</ele>
        <time>2018-11-18T10:42:48Z</time>
      </trkpt>
      <trkpt lat="43.54601" lon="5.87085">
        <ele>426.29</ele>
        <time>2018-11-18T10:42:54Z</time>
      </trkpt>
      <trkpt lat="43.54581" lon="5.87088">
        <ele>426.96</ele>
        <time>2018-11-18T10:43:01Z</time>
      </trkpt>
      <trkpt lat="43.54569" lon="5.87068">
        <ele>428.58</ele>
        <time>2018-11-18T10:43:10Z</time>
      </trkpt>
      <trkpt lat="43.54555" lon="5.87049">
        <ele>430.01</ele>
        <time>2018-11-18T10:43:19Z</time>
      </trkpt>
      <trkpt lat="43.54541" lon="5.87032">
        <ele>432.28</ele>
        <time>2018-11-18T10:43:28Z</time>
      </trkpt>
      <trkpt lat="43.54534" lon="5.87008">
        <ele>435.02</ele>
        <time>2018-11-18T10:43:38Z</time>
      </trkpt>
      <trkpt lat="43.54536" lon="5.86982">
        <ele>438.47</ele>
        <time>2018-11-18T10:43:49Z</time>
      </trkpt>
      <trkpt lat="43.54534" lon="5.86955">
        <ele>441.72</ele>
        <time>2018-11-18T10:44:01Z</time>
      </trkpt>
      <trkpt lat="43.54535" lon="5.8693">
        <ele>444.79</ele>
        <time>2018-11-18T10:44:12Z</time>
      </trkpt>
      <trkpt lat="43.54544" lon="5.86907">
        <ele>447.8</ele>
        <time>2018-11-18T10:44:25Z</time>
      </trkpt>
      <trkpt lat="43.54558" lon="5.86889">
        <ele>449</ele>
        <time>2018-11-18T10:44:36Z</time>
      </trkpt>
      <trkpt lat="43.54571" lon="5.86872">
        <ele>449.37</ele>
        <time>2018-11-18T10:44:51Z</time>
      </trkpt>
      <trkpt lat="43.54572" lon="5.86847">
        <ele>449.87</ele>
        <time>2018-11-18T10:45:09Z</time>
      </trkpt>
      <trkpt lat="43.54568" lon="5.86822">
        <ele>450.98</ele>
        <time>2018-11-18T10:46:11Z</time>
      </trkpt>
      <trkpt lat="43.54584" lon="5.86809">
        <ele>450.86</ele>
        <time>2018-11-18T10:48:45Z</time>
      </trkpt>
      <trkpt lat="43.54598" lon="5.86789">
        <ele>450.83</ele>
        <time>2018-11-18T10:48:53Z</time>
      </trkpt>
      <trkpt lat="43.54608" lon="5.86767">
        <ele>451.3</ele>
        <time>2018-11-18T10:49:00Z</time>
      </trkpt>
      <trkpt lat="43.54617" lon="5.86745">
        <ele>451.35</ele>
        <time>2018-11-18T10:49:06Z</time>
      </trkpt>
      <trkpt lat="43.5463" lon="5.86721">
        <ele>451.46</ele>
        <time>2018-11-18T10:49:12Z</time>
      </trkpt>
      <trkpt lat="43.5464" lon="5.867">
        <ele>451.75</ele>
        <time>2018-11-18T10:49:17Z</time>
      </trkpt>
      <trkpt lat="43.5465" lon="5.86677">
        <ele>451.75</ele>
        <time>2018-11-18T10:49:22Z</time>
      </trkpt>
      <trkpt lat="43.5466" lon="5.86655">
        <ele>451.57</ele>
        <time>2018-11-18T10:49:27Z</time>
      </trkpt>
      <trkpt lat="43.54666" lon="5.86628">
        <ele>451.76</ele>
        <time>2018-11-18T10:49:32Z</time>
      </trkpt>
      <trkpt lat="43.5467" lon="5.86599">
        <ele>451.85</ele>
        <time>2018-11-18T10:49:37Z</time>
      </trkpt>
      <trkpt lat="43.54683" lon="5.86577">
        <ele>451.88</ele>
        <time>2018-11-18T10:49:42Z</time>
      </trkpt>
      <trkpt lat="43.54692" lon="5.86549">
        <ele>451.69</ele>
        <time>2018-11-18T10:49:47Z</time>
      </trkpt>
      <trkpt lat="43.54693" lon="5.8652">
        <ele>452.21</ele>
        <time>2018-11-18T10:49:52Z</time>
      </trkpt>
      <trkpt lat="43.54687" lon="5.86496">
        <ele>453.07</ele>
        <time>2018-11-18T10:49:58Z</time>
      </trkpt>
      <trkpt lat="43.54669" lon="5.86494">
        <ele>454.25</ele>
        <time>2018-11-18T10:50:10Z</time>
      </trkpt>
      <trkpt lat="43.54651" lon="5.86488">
        <ele>455.81</ele>
        <time>2018-11-18T10:50:28Z</time>
      </trkpt>
      <trkpt lat="43.54636" lon="5.86471">
        <ele>455.57</ele>
        <time>2018-11-18T10:50:35Z</time>
      </trkpt>
      <trkpt lat="43.54621" lon="5.86453">
        <ele>455.77</ele>
        <time>2018-11-18T10:50:42Z</time>
      </trkpt>
      <trkpt lat="43.54603" lon="5.86453">
        <ele>456.54</ele>
        <time>2018-11-18T10:50:54Z</time>
      </trkpt>
      <trkpt lat="43.54593" lon="5.86477">
        <ele>456.77</ele>
        <time>2018-11-18T10:51:00Z</time>
      </trkpt>
      <trkpt lat="43.54585" lon="5.86499">
        <ele>456.75</ele>
        <time>2018-11-18T10:51:05Z</time>
      </trkpt>
      <trkpt lat="43.54576" lon="5.86523">
        <ele>456.55</ele>
        <time>2018-11-18T10:51:10Z</time>
      </trkpt>
      <trkpt lat="43.54565" lon="5.86544">
        <ele>456.55</ele>
        <time>2018-11-18T10:51:15Z</time>
      </trkpt>
      <trkpt lat="43.54553" lon="5.86567">
        <ele>456.49</ele>
        <time>2018-11-18T10:51:20Z</time>
      </trkpt>
      <trkpt lat="43.5454" lon="5.86589">
        <ele>456.25</ele>
        <time>2018-11-18T10:51:25Z</time>
      </trkpt>
      <trkpt lat="43.54531" lon="5.86613">
        <ele>455.51</ele>
        <time>2018-11-18T10:51:30Z</time>
      </trkpt>
      <trkpt lat="43.54514" lon="5.8663">
        <ele>455.19</ele>
        <time>2018-11-18T10:51:35Z</time>
      </trkpt>
      <trkpt lat="43.54502" lon="5.86655">
        <ele>454.95</ele>
        <time>2018-11-18T10:51:40Z</time>
      </trkpt>
      <trkpt lat="43.54492" lon="5.86681">
        <ele>454.7</ele>
        <time>2018-11-18T10:51:45Z</time>
      </trkpt>
      <trkpt lat="43.54479" lon="5.86704">
        <ele>454.18</ele>
        <time>2018-11-18T10:51:50Z</time>
      </trkpt>
      <trkpt lat="43.54468" lon="5.86729">
        <ele>453.72</ele>
        <time>2018-11-18T10:51:55Z</time>
      </trkpt>
      <trkpt lat="43.54455" lon="5.86754">
        <ele>453.19</ele>
        <time>2018-11-18T10:52:00Z</time>
      </trkpt>
      <trkpt lat="43.54441" lon="5.86778">
        <ele>453.71</ele>
        <time>2018-11-18T10:52:05Z</time>
      </trkpt>
      <trkpt lat="43.54429" lon="5.86797">
        <ele>453.82</ele>
        <time>2018-11-18T10:52:09Z</time>
      </trkpt>
      <trkpt lat="43.54419" lon="5.86821">
        <ele>453.15</ele>
        <time>2018-11-18T10:52:14Z</time>
      </trkpt>
      <trkpt lat="43.54404" lon="5.86837">
        <ele>452.5</ele>
        <time>2018-11-18T10:52:18Z</time>
      </trkpt>
      <trkpt lat="43.54387" lon="5.86852">
        <ele>451.7</ele>
        <time>2018-11-18T10:52:22Z</time>
      </trkpt>
      <trkpt lat="43.5437" lon="5.86865">
        <ele>451.63</ele>
        <time>2018-11-18T10:52:26Z</time>
      </trkpt>
      <trkpt lat="43.54348" lon="5.86864">
        <ele>452.05</ele>
        <time>2018-11-18T10:52:31Z</time>
      </trkpt>
      <trkpt lat="43.54329" lon="5.8686">
        <ele>451.93</ele>
        <time>2018-11-18T10:52:35Z</time>
      </trkpt>
      <trkpt lat="43.54316" lon="5.86878">
        <ele>452.2</ele>
        <time>2018-11-18T10:52:39Z</time>
      </trkpt>
      <trkpt lat="43.54296" lon="5.86883">
        <ele>451.96</ele>
        <time>2018-11-18T10:52:44Z</time>
      </trkpt>
      <trkpt lat="43.54277" lon="5.86875">
        <ele>450.66</ele>
        <time>2018-11-18T10:52:48Z</time>
      </trkpt>
      <trkpt lat="43.54257" lon="5.86879">
        <ele>450.02</ele>
        <time>2018-11-18T10:52:52Z</time>
      </trkpt>
      <trkpt lat="43.54239" lon="5.86889">
        <ele>450.27</ele>
        <time>2018-11-18T10:52:56Z</time>
      </trkpt>
      <trkpt lat="43.54221" lon="5.86906">
        <ele>449.54</ele>
        <time>2018-11-18T10:53:01Z</time>
      </trkpt>
      <trkpt lat="43.54207" lon="5.86922">
        <ele>446.27</ele>
        <time>2018-11-18T10:54:45Z</time>
      </trkpt>
      <trkpt lat="43.54192" lon="5.86943">
        <ele>445.99</ele>
        <time>2018-11-18T10:54:52Z</time>
      </trkpt>
      <trkpt lat="43.54177" lon="5.86962">
        <ele>445.87</ele>
        <time>2018-11-18T10:54:58Z</time>
      </trkpt>
      <trkpt lat="43.54163" lon="5.8698">
        <ele>445.67</ele>
        <time>2018-11-18T10:55:03Z</time>
      </trkpt>
      <trkpt lat="43.5415" lon="5.87002">
        <ele>445.46</ele>
        <time>2018-11-18T10:55:08Z</time>
      </trkpt>
      <trkpt lat="43.54135" lon="5.87021">
        <ele>445.66</ele>
        <time>2018-11-18T10:55:13Z</time>
      </trkpt>
      <trkpt lat="43.54121" lon="5.87039">
        <ele>446.04</ele>
        <time>2018-11-18T10:55:17Z</time>
      </trkpt>
      <trkpt lat="43.54104" lon="5.87059">
        <ele>446.18</ele>
        <time>2018-11-18T10:55:21Z</time>
      </trkpt>
      <trkpt lat="43.54089" lon="5.87082">
        <ele>446.48</ele>
        <time>2018-11-18T10:55:25Z</time>
      </trkpt>
      <trkpt lat="43.54074" lon="5.87103">
        <ele>446.74</ele>
        <time>2018-11-18T10:55:29Z</time>
      </trkpt>
      <trkpt lat="43.54061" lon="5.87128">
        <ele>446.85</ele>
        <time>2018-11-18T10:55:33Z</time>
      </trkpt>
      <trkpt lat="43.54049" lon="5.87154">
        <ele>447.24</ele>
        <time>2018-11-18T10:55:37Z</time>
      </trkpt>
      <trkpt lat="43.54037" lon="5.8718">
        <ele>447.55</ele>
        <time>2018-11-18T10:55:41Z</time>
      </trkpt>
      <trkpt lat="43.54026" lon="5.87207">
        <ele>447.75</ele>
        <time>2018-11-18T10:55:45Z</time>
      </trkpt>
      <trkpt lat="43.54017" lon="5.87235">
        <ele>447.95</ele>
        <time>2018-11-18T10:55:49Z</time>
      </trkpt>
      <trkpt lat="43.54008" lon="5.87262">
        <ele>448.06</ele>
        <time>2018-11-18T10:55:53Z</time>
      </trkpt>
      <trkpt lat="43.53999" lon="5.87287">
        <ele>447.99</ele>
        <time>2018-11-18T10:55:57Z</time>
      </trkpt>
      <trkpt lat="43.5399" lon="5.87311">
        <ele>447.79</ele>
        <time>2018-11-18T10:56:02Z</time>
      </trkpt>
      <trkpt lat="43.53979" lon="5.87333">
        <ele>447.29</ele>
        <time>2018-11-18T10:56:07Z</time>
      </trkpt>
      <trkpt lat="43.53969" lon="5.87354">
        <ele>446.32</ele>
        <time>2018-11-18T10:57:43Z</time>
      </trkpt>
      <trkpt lat="43.53962" lon="5.8738">
        <ele>444.32</ele>
        <time>2018-11-18T10:57:52Z</time>
      </trkpt>
      <trkpt lat="43.53952" lon="5.87404">
        <ele>442.97</ele>
        <time>2018-11-18T10:57:57Z</time>
      </trkpt>
      <trkpt lat="43.53938" lon="5.87429">
        <ele>441.27</ele>
        <time>2018-11-18T10:58:01Z</time>
      </trkpt>
      <trkpt lat="43.53925" lon="5.87448">
        <ele>440.24</ele>
        <time>2018-11-18T10:58:04Z</time>
      </trkpt>
      <trkpt lat="43.53906" lon="5.87466">
        <ele>439.25</ele>
        <time>2018-11-18T10:58:08Z</time>
      </trkpt>
      <trkpt lat="43.53884" lon="5.87477">
        <ele>437.94</ele>
        <time>2018-11-18T10:58:12Z</time>
      </trkpt>
      <trkpt lat="43.53874" lon="5.87503">
        <ele>436.57</ele>
        <time>2018-11-18T10:58:16Z</time>
      </trkpt>
      <trkpt lat="43.53861" lon="5.87526">
        <ele>434.97</ele>
        <time>2018-11-18T10:58:20Z</time>
      </trkpt>
      <trkpt lat="43.53841" lon="5.8754">
        <ele>433.48</ele>
        <time>2018-11-18T10:58:24Z</time>
      </trkpt>
      <trkpt lat="43.53825" lon="5.87555">
        <ele>431.99</ele>
        <time>2018-11-18T10:58:27Z</time>
      </trkpt>
      <trkpt lat="43.53814" lon="5.87577">
        <ele>430.49</ele>
        <time>2018-11-18T10:58:30Z</time>
      </trkpt>
      <trkpt lat="43.53797" lon="5.87598">
        <ele>428.54</ele>
        <time>2018-11-18T10:58:34Z</time>
      </trkpt>
      <trkpt lat="43.53777" lon="5.87602">
        <ele>426.81</ele>
        <time>2018-11-18T10:58:38Z</time>
      </trkpt>
      <trkpt lat="43.53768" lon="5.87627">
        <ele>425.7</ele>
        <time>2018-11-18T10:58:42Z</time>
      </trkpt>
      <trkpt lat="43.53778" lon="5.87648">
        <ele>424.7</ele>
        <time>2018-11-18T10:58:45Z</time>
      </trkpt>
      <trkpt lat="43.53785" lon="5.87672">
        <ele>423.75</ele>
        <time>2018-11-18T10:58:48Z</time>
      </trkpt>
      <trkpt lat="43.53782" lon="5.87704">
        <ele>422.62</ele>
        <time>2018-11-18T10:58:52Z</time>
      </trkpt>
      <trkpt lat="43.53781" lon="5.8773">
        <ele>421.47</ele>
        <time>2018-11-18T10:58:55Z</time>
      </trkpt>
      <trkpt lat="43.5378" lon="5.87758">
        <ele>419.7</ele>
        <time>2018-11-18T10:58:58Z</time>
      </trkpt>
      <trkpt lat="43.53782" lon="5.87786">
        <ele>418.4</ele>
        <time>2018-11-18T10:59:01Z</time>
      </trkpt>
      <trkpt lat="43.53785" lon="5.87813">
        <ele>417.19</ele>
        <time>2018-11-18T10:59:04Z</time>
      </trkpt>
      <trkpt lat="43.53785" lon="5.8784">
        <ele>415.78</ele>
        <time>2018-11-18T10:59:07Z</time>
      </trkpt>
      <trkpt lat="43.53782" lon="5.87866">
        <ele>414.29</ele>
        <time>2018-11-18T10:59:10Z</time>
      </trkpt>
      <trkpt lat="43.53779" lon="5.87898">
        <ele>413.38</ele>
        <time>2018-11-18T10:59:14Z</time>
      </trkpt>
      <trkpt lat="43.53779" lon="5.87924">
        <ele>412.5</ele>
        <time>2018-11-18T10:59:17Z</time>
      </trkpt>
      <trkpt lat="43.5378" lon="5.87949">
        <ele>411.72</ele>
        <time>2018-11-18T10:59:20Z</time>
      </trkpt>
      <trkpt lat="43.5378" lon="5.87974">
        <ele>410.94</ele>
        <time>2018-11-18T10:59:23Z</time>
      </trkpt>
      <trkpt lat="43.53778" lon="5.88">
        <ele>410.14</ele>
        <time>2018-11-18T10:59:26Z</time>
      </trkpt>
      <trkpt lat="43.53774" lon="5.88029">
        <ele>409</ele>
        <time>2018-11-18T10:59:29Z</time>
      </trkpt>
      <trkpt lat="43.5377" lon="5.88057">
        <ele>407.49</ele>
        <time>2018-11-18T10:59:32Z</time>
      </trkpt>
      <trkpt lat="43.5377" lon="5.88085">
        <ele>405.99</ele>
        <time>2018-11-18T10:59:35Z</time>
      </trkpt>
      <trkpt lat="43.53771" lon="5.88113">
        <ele>404.41</ele>
        <time>2018-11-18T10:59:38Z</time>
      </trkpt>
      <trkpt lat="43.53772" lon="5.88141">
        <ele>403.27</ele>
        <time>2018-11-18T10:59:41Z</time>
      </trkpt>
      <trkpt lat="43.53771" lon="5.88166">
        <ele>401.89</ele>
        <time>2018-11-18T10:59:44Z</time>
      </trkpt>
      <trkpt lat="43.53766" lon="5.88196">
        <ele>400.72</ele>
        <time>2018-11-18T10:59:48Z</time>
      </trkpt>
      <trkpt lat="43.5376" lon="5.8822">
        <ele>399.84</ele>
        <time>2018-11-18T10:59:51Z</time>
      </trkpt>
      <trkpt lat="43.53753" lon="5.88245">
        <ele>398.86</ele>
        <time>2018-11-18T10:59:54Z</time>
      </trkpt>
      <trkpt lat="43.53741" lon="5.88273">
        <ele>397.37</ele>
        <time>2018-11-18T10:59:58Z</time>
      </trkpt>
      <trkpt lat="43.53729" lon="5.88296">
        <ele>396.09</ele>
        <time>2018-11-18T11:00:01Z</time>
      </trkpt>
      <trkpt lat="43.53718" lon="5.88321">
        <ele>394.61</ele>
        <time>2018-11-18T11:00:04Z</time>
      </trkpt>
      <trkpt lat="43.53707" lon="5.88346">
        <ele>393.29</ele>
        <time>2018-11-18T11:00:07Z</time>
      </trkpt>
      <trkpt lat="43.53697" lon="5.88371">
        <ele>392.31</ele>
        <time>2018-11-18T11:00:10Z</time>
      </trkpt>
      <trkpt lat="43.53688" lon="5.88397">
        <ele>391.17</ele>
        <time>2018-11-18T11:00:13Z</time>
      </trkpt>
      <trkpt lat="43.53679" lon="5.88421">
        <ele>389.69</ele>
        <time>2018-11-18T11:00:16Z</time>
      </trkpt>
      <trkpt lat="43.53667" lon="5.88444">
        <ele>388.74</ele>
        <time>2018-11-18T11:00:19Z</time>
      </trkpt>
      <trkpt lat="43.53654" lon="5.88463">
        <ele>387.49</ele>
        <time>2018-11-18T11:00:22Z</time>
      </trkpt>
      <trkpt lat="43.53637" lon="5.88482">
        <ele>386.21</ele>
        <time>2018-11-18T11:00:25Z</time>
      </trkpt>
      <trkpt lat="43.53619" lon="5.88494">
        <ele>385.21</ele>
        <time>2018-11-18T11:00:28Z</time>
      </trkpt>
      <trkpt lat="43.53597" lon="5.88483">
        <ele>384.34</ele>
        <time>2018-11-18T11:00:32Z</time>
      </trkpt>
      <trkpt lat="43.53589" lon="5.88456">
        <ele>383.42</ele>
        <time>2018-11-18T11:00:36Z</time>
      </trkpt>
      <trkpt lat="43.53575" lon="5.8843">
        <ele>382.22</ele>
        <time>2018-11-18T11:00:40Z</time>
      </trkpt>
      <trkpt lat="43.53552" lon="5.88434">
        <ele>381.02</ele>
        <time>2018-11-18T11:00:44Z</time>
      </trkpt>
      <trkpt lat="43.5353" lon="5.88425">
        <ele>379.45</ele>
        <time>2018-11-18T11:00:48Z</time>
      </trkpt>
      <trkpt lat="43.53512" lon="5.88426">
        <ele>379.2</ele>
        <time>2018-11-18T11:00:52Z</time>
      </trkpt>
      <trkpt lat="43.53516" lon="5.88457">
        <ele>378.62</ele>
        <time>2018-11-18T11:00:56Z</time>
      </trkpt>
      <trkpt lat="43.53523" lon="5.88485">
        <ele>378.2</ele>
        <time>2018-11-18T11:00:59Z</time>
      </trkpt>
      <trkpt lat="43.53525" lon="5.88513">
        <ele>377.73</ele>
        <time>2018-11-18T11:01:02Z</time>
      </trkpt>
      <trkpt lat="43.53525" lon="5.88539">
        <ele>376.94</ele>
        <time>2018-11-18T11:01:05Z</time>
      </trkpt>
      <trkpt lat="43.53523" lon="5.88564">
        <ele>375.85</ele>
        <time>2018-11-18T11:01:08Z</time>
      </trkpt>
      <trkpt lat="43.53522" lon="5.88596">
        <ele>373.89</ele>
        <time>2018-11-18T11:01:12Z</time>
      </trkpt>
      <trkpt lat="43.53517" lon="5.88629">
        <ele>371.24</ele>
        <time>2018-11-18T11:01:16Z</time>
      </trkpt>
      <trkpt lat="43.53507" lon="5.88655">
        <ele>368.54</ele>
        <time>2018-11-18T11:01:19Z</time>
      </trkpt>
      <trkpt lat="43.53495" lon="5.88676">
        <ele>368.46</ele>
        <time>2018-11-18T11:01:22Z</time>
      </trkpt>
      <trkpt lat="43.53483" lon="5.88697">
        <ele>367.44</ele>
        <time>2018-11-18T11:01:25Z</time>
      </trkpt>
      <trkpt lat="43.5347" lon="5.88719">
        <ele>366.45</ele>
        <time>2018-11-18T11:01:28Z</time>
      </trkpt>
      <trkpt lat="43.53451" lon="5.88737">
        <ele>364.7</ele>
        <time>2018-11-18T11:01:32Z</time>
      </trkpt>
      <trkpt lat="43.53428" lon="5.88734">
        <ele>362.67</ele>
        <time>2018-11-18T11:01:36Z</time>
      </trkpt>
      <trkpt lat="43.53409" lon="5.88725">
        <ele>361.47</ele>
        <time>2018-11-18T11:01:39Z</time>
      </trkpt>
      <trkpt lat="43.53389" lon="5.88714">
        <ele>360.17</ele>
        <time>2018-11-18T11:01:42Z</time>
      </trkpt>
      <trkpt lat="43.53366" lon="5.88705">
        <ele>358.69</ele>
        <time>2018-11-18T11:01:45Z</time>
      </trkpt>
      <trkpt lat="43.53344" lon="5.88696">
        <ele>357.65</ele>
        <time>2018-11-18T11:01:48Z</time>
      </trkpt>
      <trkpt lat="43.53324" lon="5.88683">
        <ele>356.55</ele>
        <time>2018-11-18T11:01:51Z</time>
      </trkpt>
      <trkpt lat="43.53308" lon="5.8867">
        <ele>355.53</ele>
        <time>2018-11-18T11:01:54Z</time>
      </trkpt>
      <trkpt lat="43.53287" lon="5.88672">
        <ele>353.85</ele>
        <time>2018-11-18T11:01:58Z</time>
      </trkpt>
      <trkpt lat="43.53279" lon="5.88695">
        <ele>353.4</ele>
        <time>2018-11-18T11:02:01Z</time>
      </trkpt>
      <trkpt lat="43.53276" lon="5.88725">
        <ele>353.66</ele>
        <time>2018-11-18T11:02:05Z</time>
      </trkpt>
      <trkpt lat="43.53265" lon="5.88744">
        <ele>355.09</ele>
        <time>2018-11-18T11:02:10Z</time>
      </trkpt>
      <trkpt lat="43.53248" lon="5.88752">
        <ele>356.15</ele>
        <time>2018-11-18T11:02:16Z</time>
      </trkpt>
      <trkpt lat="43.53232" lon="5.88768">
        <ele>358.64</ele>
        <time>2018-11-18T11:02:25Z</time>
      </trkpt>
      <trkpt lat="43.53213" lon="5.8877">
        <ele>361.59</ele>
        <time>2018-11-18T11:02:37Z</time>
      </trkpt>
      <trkpt lat="43.53194" lon="5.88769">
        <ele>363.63</ele>
        <time>2018-11-18T11:02:46Z</time>
      </trkpt>
      <trkpt lat="43.53175" lon="5.88768">
        <ele>364.79</ele>
        <time>2018-11-18T11:02:56Z</time>
      </trkpt>
      <trkpt lat="43.53157" lon="5.88762">
        <ele>364.6</ele>
        <time>2018-11-18T11:03:05Z</time>
      </trkpt>
      <trkpt lat="43.53138" lon="5.8876">
        <ele>364.89</ele>
        <time>2018-11-18T11:03:15Z</time>
      </trkpt>
      <trkpt lat="43.53119" lon="5.88764">
        <ele>366.75</ele>
        <time>2018-11-18T11:03:26Z</time>
      </trkpt>
      <trkpt lat="43.53101" lon="5.88772">
        <ele>367.82</ele>
        <time>2018-11-18T11:03:36Z</time>
      </trkpt>
      <trkpt lat="43.53081" lon="5.88776">
        <ele>370.16</ele>
        <time>2018-11-18T11:03:47Z</time>
      </trkpt>
      <trkpt lat="43.53063" lon="5.88772">
        <ele>371.84</ele>
        <time>2018-11-18T11:03:56Z</time>
      </trkpt>
      <trkpt lat="43.53044" lon="5.88769">
        <ele>374</ele>
        <time>2018-11-18T11:04:08Z</time>
      </trkpt>
      <trkpt lat="43.53026" lon="5.88774">
        <ele>376.91</ele>
        <time>2018-11-18T11:04:19Z</time>
      </trkpt>
      <trkpt lat="43.53007" lon="5.88778">
        <ele>380.4</ele>
        <time>2018-11-18T11:04:31Z</time>
      </trkpt>
      <trkpt lat="43.52988" lon="5.88776">
        <ele>382.3</ele>
        <time>2018-11-18T11:04:43Z</time>
      </trkpt>
      <trkpt lat="43.52968" lon="5.8877">
        <ele>383.63</ele>
        <time>2018-11-18T11:04:55Z</time>
      </trkpt>
      <trkpt lat="43.52951" lon="5.88762">
        <ele>383.15</ele>
        <time>2018-11-18T11:05:05Z</time>
      </trkpt>
      <trkpt lat="43.52932" lon="5.88765">
        <ele>384.6</ele>
        <time>2018-11-18T11:05:16Z</time>
      </trkpt>
      <trkpt lat="43.52913" lon="5.88769">
        <ele>386.02</ele>
        <time>2018-11-18T11:05:27Z</time>
      </trkpt>
      <trkpt lat="43.52894" lon="5.88769">
        <ele>387.3</ele>
        <time>2018-11-18T11:05:38Z</time>
      </trkpt>
      <trkpt lat="43.52876" lon="5.88773">
        <ele>388.72</ele>
        <time>2018-11-18T11:05:49Z</time>
      </trkpt>
      <trkpt lat="43.52858" lon="5.8878">
        <ele>390.24</ele>
        <time>2018-11-18T11:06:01Z</time>
      </trkpt>
      <trkpt lat="43.52839" lon="5.88787">
        <ele>392.2</ele>
        <time>2018-11-18T11:06:14Z</time>
      </trkpt>
      <trkpt lat="43.52821" lon="5.88796">
        <ele>395.22</ele>
        <time>2018-11-18T11:06:27Z</time>
      </trkpt>
      <trkpt lat="43.5281" lon="5.88817">
        <ele>397.72</ele>
        <time>2018-11-18T11:06:39Z</time>
      </trkpt>
      <trkpt lat="43.52808" lon="5.88841">
        <ele>395.52</ele>
        <time>2018-11-18T11:10:08Z</time>
      </trkpt>
      <trkpt lat="43.52805" lon="5.88867">
        <ele>397.82</ele>
        <time>2018-11-18T11:10:21Z</time>
      </trkpt>
      <trkpt lat="43.52798" lon="5.88891">
        <ele>399.82</ele>
        <time>2018-11-18T11:10:34Z</time>
      </trkpt>
      <trkpt lat="43.52792" lon="5.88915">
        <ele>401.84</ele>
        <time>2018-11-18T11:11:04Z</time>
      </trkpt>
      <trkpt lat="43.52779" lon="5.88935">
        <ele>402.95</ele>
        <time>2018-11-18T11:11:14Z</time>
      </trkpt>
      <trkpt lat="43.52769" lon="5.88956">
        <ele>403.92</ele>
        <time>2018-11-18T11:11:23Z</time>
      </trkpt>
      <trkpt lat="43.52761" lon="5.88979">
        <ele>404.66</ele>
        <time>2018-11-18T11:11:32Z</time>
      </trkpt>
      <trkpt lat="43.52752" lon="5.89004">
        <ele>404.77</ele>
        <time>2018-11-18T11:11:41Z</time>
      </trkpt>
      <trkpt lat="43.5275" lon="5.89029">
        <ele>404.98</ele>
        <time>2018-11-18T11:11:49Z</time>
      </trkpt>
      <trkpt lat="43.52739" lon="5.89048">
        <ele>405.69</ele>
        <time>2018-11-18T11:11:57Z</time>
      </trkpt>
      <trkpt lat="43.52725" lon="5.89066">
        <ele>405.79</ele>
        <time>2018-11-18T11:12:05Z</time>
      </trkpt>
      <trkpt lat="43.52709" lon="5.89081">
        <ele>406.17</ele>
        <time>2018-11-18T11:12:13Z</time>
      </trkpt>
      <trkpt lat="43.52689" lon="5.89081">
        <ele>405.41</ele>
        <time>2018-11-18T11:12:22Z</time>
      </trkpt>
      <trkpt lat="43.52671" lon="5.89087">
        <ele>404.62</ele>
        <time>2018-11-18T11:12:30Z</time>
      </trkpt>
      <trkpt lat="43.52653" lon="5.89091">
        <ele>403.53</ele>
        <time>2018-11-18T11:12:37Z</time>
      </trkpt>
      <trkpt lat="43.52634" lon="5.89104">
        <ele>402.6</ele>
        <time>2018-11-18T11:12:44Z</time>
      </trkpt>
      <trkpt lat="43.52618" lon="5.89123">
        <ele>401.97</ele>
        <time>2018-11-18T11:12:50Z</time>
      </trkpt>
      <trkpt lat="43.52602" lon="5.89141">
        <ele>401.19</ele>
        <time>2018-11-18T11:12:56Z</time>
      </trkpt>
      <trkpt lat="43.52591" lon="5.89161">
        <ele>400.88</ele>
        <time>2018-11-18T11:13:02Z</time>
      </trkpt>
      <trkpt lat="43.52574" lon="5.89171">
        <ele>400.08</ele>
        <time>2018-11-18T11:13:07Z</time>
      </trkpt>
      <trkpt lat="43.52556" lon="5.89181">
        <ele>399.61</ele>
        <time>2018-11-18T11:13:13Z</time>
      </trkpt>
      <trkpt lat="43.52535" lon="5.89175">
        <ele>398.56</ele>
        <time>2018-11-18T11:13:18Z</time>
      </trkpt>
      <trkpt lat="43.52516" lon="5.89179">
        <ele>397.6</ele>
        <time>2018-11-18T11:13:23Z</time>
      </trkpt>
      <trkpt lat="43.52495" lon="5.89186">
        <ele>396.45</ele>
        <time>2018-11-18T11:13:29Z</time>
      </trkpt>
      <trkpt lat="43.52483" lon="5.89204">
        <ele>396.8</ele>
        <time>2018-11-18T11:13:34Z</time>
      </trkpt>
      <trkpt lat="43.52469" lon="5.89225">
        <ele>396.12</ele>
        <time>2018-11-18T11:13:40Z</time>
      </trkpt>
      <trkpt lat="43.52452" lon="5.89238">
        <ele>395.47</ele>
        <time>2018-11-18T11:13:47Z</time>
      </trkpt>
      <trkpt lat="43.52434" lon="5.89243">
        <ele>395.89</ele>
        <time>2018-11-18T11:14:04Z</time>
      </trkpt>
      <trkpt lat="43.52414" lon="5.89251">
        <ele>394.2</ele>
        <time>2018-11-18T11:14:10Z</time>
      </trkpt>
      <trkpt lat="43.52396" lon="5.89254">
        <ele>394.31</ele>
        <time>2018-11-18T11:14:15Z</time>
      </trkpt>
      <trkpt lat="43.52376" lon="5.89252">
        <ele>394.19</ele>
        <time>2018-11-18T11:14:25Z</time>
      </trkpt>
      <trkpt lat="43.52357" lon="5.89254">
        <ele>392.97</ele>
        <time>2018-11-18T11:14:52Z</time>
      </trkpt>
      <trkpt lat="43.52336" lon="5.89252">
        <ele>392.98</ele>
        <time>2018-11-18T11:14:59Z</time>
      </trkpt>
      <trkpt lat="43.52318" lon="5.89243">
        <ele>393.32</ele>
        <time>2018-11-18T11:15:05Z</time>
      </trkpt>
      <trkpt lat="43.52299" lon="5.89245">
        <ele>393.52</ele>
        <time>2018-11-18T11:15:11Z</time>
      </trkpt>
      <trkpt lat="43.5228" lon="5.89242">
        <ele>393.07</ele>
        <time>2018-11-18T11:15:16Z</time>
      </trkpt>
      <trkpt lat="43.5226" lon="5.89249">
        <ele>392.99</ele>
        <time>2018-11-18T11:15:22Z</time>
      </trkpt>
      <trkpt lat="43.52242" lon="5.89256">
        <ele>393.09</ele>
        <time>2018-11-18T11:15:28Z</time>
      </trkpt>
      <trkpt lat="43.52222" lon="5.89257">
        <ele>393.17</ele>
        <time>2018-11-18T11:15:34Z</time>
      </trkpt>
      <trkpt lat="43.52202" lon="5.8926">
        <ele>393.49</ele>
        <time>2018-11-18T11:15:40Z</time>
      </trkpt>
      <trkpt lat="43.52184" lon="5.8925">
        <ele>393.27</ele>
        <time>2018-11-18T11:15:46Z</time>
      </trkpt>
      <trkpt lat="43.52169" lon="5.89235">
        <ele>392.89</ele>
        <time>2018-11-18T11:15:51Z</time>
      </trkpt>
      <trkpt lat="43.52151" lon="5.89228">
        <ele>392.29</ele>
        <time>2018-11-18T11:15:56Z</time>
      </trkpt>
      <trkpt lat="43.52132" lon="5.89225">
        <ele>391.52</ele>
        <time>2018-11-18T11:16:01Z</time>
      </trkpt>
      <trkpt lat="43.52111" lon="5.8923">
        <ele>390.71</ele>
        <time>2018-11-18T11:16:07Z</time>
      </trkpt>
      <trkpt lat="43.52091" lon="5.89232">
        <ele>389.7</ele>
        <time>2018-11-18T11:16:13Z</time>
      </trkpt>
      <trkpt lat="43.52072" lon="5.89228">
        <ele>388.82</ele>
        <time>2018-11-18T11:16:18Z</time>
      </trkpt>
      <trkpt lat="43.52052" lon="5.89227">
        <ele>388.02</ele>
        <time>2018-11-18T11:16:23Z</time>
      </trkpt>
      <trkpt lat="43.52033" lon="5.89225">
        <ele>386.82</ele>
        <time>2018-11-18T11:16:27Z</time>
      </trkpt>
      <trkpt lat="43.52014" lon="5.8923">
        <ele>385.92</ele>
        <time>2018-11-18T11:16:31Z</time>
      </trkpt>
      <trkpt lat="43.51992" lon="5.89227">
        <ele>385.15</ele>
        <time>2018-11-18T11:16:36Z</time>
      </trkpt>
      <trkpt lat="43.51973" lon="5.89224">
        <ele>383.57</ele>
        <time>2018-11-18T11:16:40Z</time>
      </trkpt>
      <trkpt lat="43.51954" lon="5.89215">
        <ele>381.34</ele>
        <time>2018-11-18T11:16:44Z</time>
      </trkpt>
      <trkpt lat="43.51935" lon="5.89211">
        <ele>379.53</ele>
        <time>2018-11-18T11:16:48Z</time>
      </trkpt>
      <trkpt lat="43.5192" lon="5.8923">
        <ele>379.49</ele>
        <time>2018-11-18T11:16:55Z</time>
      </trkpt>
      <trkpt lat="43.51903" lon="5.89244">
        <ele>378.72</ele>
        <time>2018-11-18T11:17:01Z</time>
      </trkpt>
      <trkpt lat="43.51886" lon="5.89254">
        <ele>377.57</ele>
        <time>2018-11-18T11:17:06Z</time>
      </trkpt>
      <trkpt lat="43.51866" lon="5.89262">
        <ele>376.31</ele>
        <time>2018-11-18T11:17:11Z</time>
      </trkpt>
      <trkpt lat="43.51848" lon="5.89262">
        <ele>374.25</ele>
        <time>2018-11-18T11:17:16Z</time>
      </trkpt>
      <trkpt lat="43.51837" lon="5.89238">
        <ele>372.47</ele>
        <time>2018-11-18T11:17:21Z</time>
      </trkpt>
      <trkpt lat="43.51816" lon="5.8924">
        <ele>371.29</ele>
        <time>2018-11-18T11:17:26Z</time>
      </trkpt>
      <trkpt lat="43.51801" lon="5.89256">
        <ele>370.56</ele>
        <time>2018-11-18T11:17:30Z</time>
      </trkpt>
      <trkpt lat="43.51788" lon="5.89274">
        <ele>370.52</ele>
        <time>2018-11-18T11:17:34Z</time>
      </trkpt>
      <trkpt lat="43.5177" lon="5.89289">
        <ele>369.58</ele>
        <time>2018-11-18T11:17:39Z</time>
      </trkpt>
      <trkpt lat="43.51748" lon="5.8929">
        <ele>368.64</ele>
        <time>2018-11-18T11:17:44Z</time>
      </trkpt>
      <trkpt lat="43.5173" lon="5.89294">
        <ele>368.12</ele>
        <time>2018-11-18T11:17:48Z</time>
      </trkpt>
      <trkpt lat="43.5171" lon="5.89298">
        <ele>367</ele>
        <time>2018-11-18T11:17:52Z</time>
      </trkpt>
      <trkpt lat="43.5169" lon="5.89303">
        <ele>365.25</ele>
        <time>2018-11-18T11:17:56Z</time>
      </trkpt>
      <trkpt lat="43.51672" lon="5.89307">
        <ele>364.12</ele>
        <time>2018-11-18T11:18:00Z</time>
      </trkpt>
      <trkpt lat="43.51653" lon="5.89309">
        <ele>362.97</ele>
        <time>2018-11-18T11:18:04Z</time>
      </trkpt>
      <trkpt lat="43.51635" lon="5.89315">
        <ele>361.73</ele>
        <time>2018-11-18T11:18:08Z</time>
      </trkpt>
      <trkpt lat="43.51616" lon="5.89324">
        <ele>360.43</ele>
        <time>2018-11-18T11:18:12Z</time>
      </trkpt>
      <trkpt lat="43.51599" lon="5.89333">
        <ele>359.81</ele>
        <time>2018-11-18T11:18:16Z</time>
      </trkpt>
      <trkpt lat="43.51582" lon="5.89341">
        <ele>358.67</ele>
        <time>2018-11-18T11:18:20Z</time>
      </trkpt>
      <trkpt lat="43.5156" lon="5.89351">
        <ele>358.12</ele>
        <time>2018-11-18T11:18:25Z</time>
      </trkpt>
      <trkpt lat="43.51544" lon="5.89364">
        <ele>357.04</ele>
        <time>2018-11-18T11:18:29Z</time>
      </trkpt>
      <trkpt lat="43.51525" lon="5.89374">
        <ele>358.73</ele>
        <time>2018-11-18T11:18:34Z</time>
      </trkpt>
      <trkpt lat="43.51505" lon="5.89372">
        <ele>360.79</ele>
        <time>2018-11-18T11:18:39Z</time>
      </trkpt>
      <trkpt lat="43.51488" lon="5.89385">
        <ele>361.69</ele>
        <time>2018-11-18T11:18:48Z</time>
      </trkpt>
      <trkpt lat="43.5147" lon="5.89386">
        <ele>361.55</ele>
        <time>2018-11-18T11:18:53Z</time>
      </trkpt>
      <trkpt lat="43.51451" lon="5.89389">
        <ele>363.31</ele>
        <time>2018-11-18T11:18:59Z</time>
      </trkpt>
      <trkpt lat="43.51434" lon="5.89402">
        <ele>365.33</ele>
        <time>2018-11-18T11:19:06Z</time>
      </trkpt>
      <trkpt lat="43.51417" lon="5.89418">
        <ele>366.02</ele>
        <time>2018-11-18T11:19:12Z</time>
      </trkpt>
      <trkpt lat="43.51408" lon="5.89441">
        <ele>366.94</ele>
        <time>2018-11-18T11:19:18Z</time>
      </trkpt>
      <trkpt lat="43.51391" lon="5.89449">
        <ele>365.1</ele>
        <time>2018-11-18T11:19:27Z</time>
      </trkpt>
      <trkpt lat="43.51372" lon="5.89439">
        <ele>365.43</ele>
        <time>2018-11-18T11:19:34Z</time>
      </trkpt>
      <trkpt lat="43.51354" lon="5.89437">
        <ele>365.49</ele>
        <time>2018-11-18T11:19:40Z</time>
      </trkpt>
      <trkpt lat="43.51336" lon="5.89435">
        <ele>365.63</ele>
        <time>2018-11-18T11:19:45Z</time>
      </trkpt>
      <trkpt lat="43.51317" lon="5.89435">
        <ele>366.08</ele>
        <time>2018-11-18T11:19:50Z</time>
      </trkpt>
      <trkpt lat="43.51299" lon="5.8943">
        <ele>366.87</ele>
        <time>2018-11-18T11:19:55Z</time>
      </trkpt>
      <trkpt lat="43.51281" lon="5.89417">
        <ele>366.79</ele>
        <time>2018-11-18T11:20:00Z</time>
      </trkpt>
      <trkpt lat="43.51268" lon="5.89399">
        <ele>365.2</ele>
        <time>2018-11-18T11:20:05Z</time>
      </trkpt>
      <trkpt lat="43.51257" lon="5.89376">
        <ele>362.52</ele>
        <time>2018-11-18T11:20:10Z</time>
      </trkpt>
      <trkpt lat="43.51239" lon="5.8936">
        <ele>359.84</ele>
        <time>2018-11-18T11:20:15Z</time>
      </trkpt>
      <trkpt lat="43.51225" lon="5.89344">
        <ele>358.76</ele>
        <time>2018-11-18T11:20:19Z</time>
      </trkpt>
      <trkpt lat="43.5121" lon="5.89325">
        <ele>356.69</ele>
        <time>2018-11-18T11:20:23Z</time>
      </trkpt>
      <trkpt lat="43.51191" lon="5.89312">
        <ele>354.56</ele>
        <time>2018-11-18T11:20:27Z</time>
      </trkpt>
      <trkpt lat="43.5117" lon="5.89308">
        <ele>354.37</ele>
        <time>2018-11-18T11:20:31Z</time>
      </trkpt>
      <trkpt lat="43.51151" lon="5.89306">
        <ele>353.17</ele>
        <time>2018-11-18T11:20:35Z</time>
      </trkpt>
      <trkpt lat="43.51132" lon="5.89301">
        <ele>352.58</ele>
        <time>2018-11-18T11:20:39Z</time>
      </trkpt>
      <trkpt lat="43.51113" lon="5.89294">
        <ele>352.94</ele>
        <time>2018-11-18T11:20:43Z</time>
      </trkpt>
      <trkpt lat="43.51095" lon="5.89289">
        <ele>352.38</ele>
        <time>2018-11-18T11:20:47Z</time>
      </trkpt>
      <trkpt lat="43.51076" lon="5.89283">
        <ele>351.33</ele>
        <time>2018-11-18T11:21:04Z</time>
      </trkpt>
      <trkpt lat="43.51058" lon="5.89282">
        <ele>352.26</ele>
        <time>2018-11-18T11:21:13Z</time>
      </trkpt>
      <trkpt lat="43.51038" lon="5.89277">
        <ele>352.88</ele>
        <time>2018-11-18T11:21:20Z</time>
      </trkpt>
      <trkpt lat="43.51019" lon="5.89269">
        <ele>353.64</ele>
        <time>2018-11-18T11:21:26Z</time>
      </trkpt>
      <trkpt lat="43.51002" lon="5.89261">
        <ele>353.97</ele>
        <time>2018-11-18T11:21:32Z</time>
      </trkpt>
      <trkpt lat="43.50985" lon="5.8925">
        <ele>354.05</ele>
        <time>2018-11-18T11:21:37Z</time>
      </trkpt>
      <trkpt lat="43.50966" lon="5.89243">
        <ele>354.54</ele>
        <time>2018-11-18T11:21:42Z</time>
      </trkpt>
      <trkpt lat="43.50948" lon="5.89235">
        <ele>354.86</ele>
        <time>2018-11-18T11:21:47Z</time>
      </trkpt>
      <trkpt lat="43.50928" lon="5.89228">
        <ele>355.25</ele>
        <time>2018-11-18T11:21:52Z</time>
      </trkpt>
      <trkpt lat="43.50906" lon="5.89218">
        <ele>354.91</ele>
        <time>2018-11-18T11:21:56Z</time>
      </trkpt>
      <trkpt lat="43.50885" lon="5.89208">
        <ele>353.76</ele>
        <time>2018-11-18T11:22:00Z</time>
      </trkpt>
      <trkpt lat="43.50864" lon="5.89202">
        <ele>350.76</ele>
        <time>2018-11-18T11:22:04Z</time>
      </trkpt>
      <trkpt lat="43.50843" lon="5.89193">
        <ele>344.56</ele>
        <time>2018-11-18T11:22:10Z</time>
      </trkpt>
      <trkpt lat="43.50824" lon="5.89183">
        <ele>340.48</ele>
        <time>2018-11-18T11:22:15Z</time>
      </trkpt>
      <trkpt lat="43.50811" lon="5.89165">
        <ele>335.61</ele>
        <time>2018-11-18T11:22:19Z</time>
      </trkpt>
      <trkpt lat="43.50797" lon="5.89145">
        <ele>329.86</ele>
        <time>2018-11-18T11:22:24Z</time>
      </trkpt>
      <trkpt lat="43.50778" lon="5.89133">
        <ele>324.56</ele>
        <time>2018-11-18T11:22:30Z</time>
      </trkpt>
      <trkpt lat="43.50759" lon="5.89124">
        <ele>321.55</ele>
        <time>2018-11-18T11:22:34Z</time>
      </trkpt>
      <trkpt lat="43.50741" lon="5.89122">
        <ele>318.19</ele>
        <time>2018-11-18T11:22:38Z</time>
      </trkpt>
      <trkpt lat="43.50722" lon="5.89122">
        <ele>315.14</ele>
        <time>2018-11-18T11:22:42Z</time>
      </trkpt>
      <trkpt lat="43.50704" lon="5.89125">
        <ele>311.11</ele>
        <time>2018-11-18T11:22:47Z</time>
      </trkpt>
      <trkpt lat="43.50685" lon="5.89119">
        <ele>306.67</ele>
        <time>2018-11-18T11:22:53Z</time>
      </trkpt>
      <trkpt lat="43.50666" lon="5.89112">
        <ele>303.11</ele>
        <time>2018-11-18T11:22:59Z</time>
      </trkpt>
      <trkpt lat="43.50648" lon="5.89106">
        <ele>301.38</ele>
        <time>2018-11-18T11:23:04Z</time>
      </trkpt>
      <trkpt lat="43.5063" lon="5.89098">
        <ele>298.7</ele>
        <time>2018-11-18T11:23:09Z</time>
      </trkpt>
      <trkpt lat="43.5061" lon="5.89089">
        <ele>295.81</ele>
        <time>2018-11-18T11:23:14Z</time>
      </trkpt>
      <trkpt lat="43.50593" lon="5.89082">
        <ele>293.37</ele>
        <time>2018-11-18T11:23:19Z</time>
      </trkpt>
      <trkpt lat="43.50575" lon="5.89076">
        <ele>290.23</ele>
        <time>2018-11-18T11:23:25Z</time>
      </trkpt>
      <trkpt lat="43.50559" lon="5.89059">
        <ele>286.9</ele>
        <time>2018-11-18T11:23:30Z</time>
      </trkpt>
      <trkpt lat="43.50549" lon="5.89038">
        <ele>284.28</ele>
        <time>2018-11-18T11:23:35Z</time>
      </trkpt>
      <trkpt lat="43.5054" lon="5.89013">
        <ele>280.63</ele>
        <time>2018-11-18T11:23:41Z</time>
      </trkpt>
      <trkpt lat="43.50528" lon="5.88989">
        <ele>276.71</ele>
        <time>2018-11-18T11:23:47Z</time>
      </trkpt>
      <trkpt lat="43.50511" lon="5.88975">
        <ele>274.87</ele>
        <time>2018-11-18T11:23:51Z</time>
      </trkpt>
      <trkpt lat="43.50493" lon="5.88963">
        <ele>273.37</ele>
        <time>2018-11-18T11:23:55Z</time>
      </trkpt>
      <trkpt lat="43.50474" lon="5.88954">
        <ele>272.59</ele>
        <time>2018-11-18T11:23:59Z</time>
      </trkpt>
      <trkpt lat="43.50456" lon="5.8894">
        <ele>270.6</ele>
        <time>2018-11-18T11:24:03Z</time>
      </trkpt>
      <trkpt lat="43.50438" lon="5.88924">
        <ele>268.12</ele>
        <time>2018-11-18T11:24:07Z</time>
      </trkpt>
      <trkpt lat="43.50426" lon="5.889">
        <ele>265.72</ele>
        <time>2018-11-18T11:24:11Z</time>
      </trkpt>
      <trkpt lat="43.50414" lon="5.88875">
        <ele>263.87</ele>
        <time>2018-11-18T11:24:15Z</time>
      </trkpt>
      <trkpt lat="43.504" lon="5.88854">
        <ele>262.09</ele>
        <time>2018-11-18T11:24:19Z</time>
      </trkpt>
      <trkpt lat="43.50386" lon="5.88837">
        <ele>259.94</ele>
        <time>2018-11-18T11:24:23Z</time>
      </trkpt>
      <trkpt lat="43.50378" lon="5.8881">
        <ele>257.44</ele>
        <time>2018-11-18T11:24:27Z</time>
      </trkpt>
      <trkpt lat="43.50379" lon="5.88783">
        <ele>254.66</ele>
        <time>2018-11-18T11:24:34Z</time>
      </trkpt>
      <trkpt lat="43.50383" lon="5.88759">
        <ele>253.51</ele>
        <time>2018-11-18T11:24:41Z</time>
      </trkpt>
      <trkpt lat="43.50377" lon="5.88735">
        <ele>252.32</ele>
        <time>2018-11-18T11:24:47Z</time>
      </trkpt>
      <trkpt lat="43.50368" lon="5.88711">
        <ele>252.52</ele>
        <time>2018-11-18T11:24:52Z</time>
      </trkpt>
    </trkseg>
  </trk>
</gpx>